<?xml version="1.0" encoding="UTF-8" standalone="no" ?>
<gpx xmlns="http://www.topografix.com/GPX/1/1" xmlns:xsi="http://www.w3.org/2001/XMLSchema-instance" xsi:schemaLocation="http://www.topografix.com/GPX/1/1 http://www.topografix.com/GPX/1/1/gpx.xsd" version="1.1" creator="VisuGPX - https://www.visugpx.com">
  <metadata>
    <name>Rando VTT 2011 Roussay (49 Maine et Loire)</name>
    <desc><![CDATA[Partie privées ouverte seulement le jour de la rando]]></desc>
  </metadata>
  <trk>
    <name><![CDATA[ACTIVE LOG 005]]></name>
    <trkseg>
      <trkpt lat="47.09274" lon="-1.06333">
        <ele>81</ele>
        <time>2011-05-01T06:02:35Z</time>
      </trkpt>
      <trkpt lat="47.0927" lon="-1.0634">
        <ele>81</ele>
        <time>2011-05-01T06:02:42Z</time>
      </trkpt>
      <trkpt lat="47.09269" lon="-1.0634">
        <ele>81</ele>
        <time>2011-05-01T06:02:44Z</time>
      </trkpt>
      <trkpt lat="47.09269" lon="-1.0634">
        <ele>81</ele>
        <time>2011-05-01T06:02:46Z</time>
      </trkpt>
      <trkpt lat="47.0927" lon="-1.0634">
        <ele>81</ele>
        <time>2011-05-01T06:02:48Z</time>
      </trkpt>
      <trkpt lat="47.0927" lon="-1.06339">
        <ele>81</ele>
        <time>2011-05-01T06:02:50Z</time>
      </trkpt>
      <trkpt lat="47.0927" lon="-1.06338">
        <ele>81</ele>
        <time>2011-05-01T06:02:52Z</time>
      </trkpt>
      <trkpt lat="47.0927" lon="-1.06338">
        <ele>81</ele>
        <time>2011-05-01T06:02:54Z</time>
      </trkpt>
      <trkpt lat="47.0927" lon="-1.06338">
        <ele>81</ele>
        <time>2011-05-01T06:02:56Z</time>
      </trkpt>
      <trkpt lat="47.0927" lon="-1.06338">
        <ele>81</ele>
        <time>2011-05-01T06:02:58Z</time>
      </trkpt>
      <trkpt lat="47.0927" lon="-1.06338">
        <ele>81</ele>
        <time>2011-05-01T06:03:00Z</time>
      </trkpt>
      <trkpt lat="47.0927" lon="-1.06338">
        <ele>81</ele>
        <time>2011-05-01T06:03:03Z</time>
      </trkpt>
      <trkpt lat="47.0927" lon="-1.06339">
        <ele>81</ele>
        <time>2011-05-01T06:03:06Z</time>
      </trkpt>
      <trkpt lat="47.0927" lon="-1.06339">
        <ele>81</ele>
        <time>2011-05-01T06:03:09Z</time>
      </trkpt>
      <trkpt lat="47.0927" lon="-1.06339">
        <ele>81</ele>
        <time>2011-05-01T06:03:12Z</time>
      </trkpt>
      <trkpt lat="47.0927" lon="-1.06339">
        <ele>81</ele>
        <time>2011-05-01T06:03:15Z</time>
      </trkpt>
      <trkpt lat="47.0927" lon="-1.06339">
        <ele>81</ele>
        <time>2011-05-01T06:03:17Z</time>
      </trkpt>
      <trkpt lat="47.0927" lon="-1.06339">
        <ele>81</ele>
        <time>2011-05-01T06:03:20Z</time>
      </trkpt>
      <trkpt lat="47.0927" lon="-1.06339">
        <ele>81</ele>
        <time>2011-05-01T06:03:25Z</time>
      </trkpt>
      <trkpt lat="47.0927" lon="-1.06339">
        <ele>81</ele>
        <time>2011-05-01T06:03:30Z</time>
      </trkpt>
      <trkpt lat="47.0927" lon="-1.06339">
        <ele>81</ele>
        <time>2011-05-01T06:03:35Z</time>
      </trkpt>
      <trkpt lat="47.0927" lon="-1.06339">
        <ele>81</ele>
        <time>2011-05-01T06:03:43Z</time>
      </trkpt>
      <trkpt lat="47.0927" lon="-1.06339">
        <ele>81</ele>
        <time>2011-05-01T06:03:54Z</time>
      </trkpt>
      <trkpt lat="47.0927" lon="-1.06339">
        <ele>81</ele>
        <time>2011-05-01T06:03:55Z</time>
      </trkpt>
      <trkpt lat="47.0927" lon="-1.06339">
        <ele>81</ele>
        <time>2011-05-01T06:04:11Z</time>
      </trkpt>
      <trkpt lat="47.09271" lon="-1.06335">
        <ele>81</ele>
        <time>2011-05-01T06:05:43Z</time>
      </trkpt>
      <trkpt lat="47.09276" lon="-1.06319">
        <ele>81</ele>
        <time>2011-05-01T06:09:47Z</time>
      </trkpt>
      <trkpt lat="47.09275" lon="-1.06311">
        <ele>80</ele>
        <time>2011-05-01T06:09:51Z</time>
      </trkpt>
      <trkpt lat="47.09251" lon="-1.06264">
        <ele>81</ele>
        <time>2011-05-01T06:10:12Z</time>
      </trkpt>
      <trkpt lat="47.09221" lon="-1.06212">
        <ele>80</ele>
        <time>2011-05-01T06:10:29Z</time>
      </trkpt>
      <trkpt lat="47.09186" lon="-1.06152">
        <ele>79</ele>
        <time>2011-05-01T06:10:42Z</time>
      </trkpt>
      <trkpt lat="47.0919" lon="-1.06116">
        <ele>78</ele>
        <time>2011-05-01T06:10:48Z</time>
      </trkpt>
      <trkpt lat="47.09219" lon="-1.06039">
        <ele>76</ele>
        <time>2011-05-01T06:10:58Z</time>
      </trkpt>
      <trkpt lat="47.09225" lon="-1.06022">
        <ele>75</ele>
        <time>2011-05-01T06:11:00Z</time>
      </trkpt>
      <trkpt lat="47.09268" lon="-1.05904">
        <ele>69</ele>
        <time>2011-05-01T06:11:14Z</time>
      </trkpt>
      <trkpt lat="47.09274" lon="-1.05887">
        <ele>68</ele>
        <time>2011-05-01T06:11:16Z</time>
      </trkpt>
      <trkpt lat="47.09297" lon="-1.05862">
        <ele>67</ele>
        <time>2011-05-01T06:11:20Z</time>
      </trkpt>
      <trkpt lat="47.09316" lon="-1.05845">
        <ele>66</ele>
        <time>2011-05-01T06:11:23Z</time>
      </trkpt>
      <trkpt lat="47.09353" lon="-1.05817">
        <ele>62</ele>
        <time>2011-05-01T06:11:28Z</time>
      </trkpt>
      <trkpt lat="47.0937" lon="-1.05805">
        <ele>61</ele>
        <time>2011-05-01T06:11:30Z</time>
      </trkpt>
      <trkpt lat="47.09387" lon="-1.05793">
        <ele>61</ele>
        <time>2011-05-01T06:11:32Z</time>
      </trkpt>
      <trkpt lat="47.0941" lon="-1.05778">
        <ele>60</ele>
        <time>2011-05-01T06:11:36Z</time>
      </trkpt>
      <trkpt lat="47.0941" lon="-1.05778">
        <ele>60</ele>
        <time>2011-05-01T06:11:37Z</time>
      </trkpt>
      <trkpt lat="47.09451" lon="-1.05756">
        <ele>57</ele>
        <time>2011-05-01T06:11:39Z</time>
      </trkpt>
      <trkpt lat="47.095" lon="-1.05731">
        <ele>54</ele>
        <time>2011-05-01T06:11:44Z</time>
      </trkpt>
      <trkpt lat="47.09541" lon="-1.05711">
        <ele>47</ele>
        <time>2011-05-01T06:11:48Z</time>
      </trkpt>
      <trkpt lat="47.09563" lon="-1.05705">
        <ele>45</ele>
        <time>2011-05-01T06:11:50Z</time>
      </trkpt>
      <trkpt lat="47.09595" lon="-1.05712">
        <ele>43</ele>
        <time>2011-05-01T06:11:53Z</time>
      </trkpt>
      <trkpt lat="47.09627" lon="-1.05719">
        <ele>44</ele>
        <time>2011-05-01T06:11:56Z</time>
      </trkpt>
      <trkpt lat="47.09663" lon="-1.05739">
        <ele>45</ele>
        <time>2011-05-01T06:12:00Z</time>
      </trkpt>
      <trkpt lat="47.09687" lon="-1.05781">
        <ele>49</ele>
        <time>2011-05-01T06:12:05Z</time>
      </trkpt>
      <trkpt lat="47.09695" lon="-1.05795">
        <ele>49</ele>
        <time>2011-05-01T06:12:07Z</time>
      </trkpt>
      <trkpt lat="47.09735" lon="-1.05865">
        <ele>48</ele>
        <time>2011-05-01T06:12:19Z</time>
      </trkpt>
      <trkpt lat="47.09789" lon="-1.05947">
        <ele>49</ele>
        <time>2011-05-01T06:12:36Z</time>
      </trkpt>
      <trkpt lat="47.09807" lon="-1.05969">
        <ele>49</ele>
        <time>2011-05-01T06:12:43Z</time>
      </trkpt>
      <trkpt lat="47.09809" lon="-1.05972">
        <ele>49</ele>
        <time>2011-05-01T06:12:44Z</time>
      </trkpt>
      <trkpt lat="47.09834" lon="-1.06002">
        <ele>50</ele>
        <time>2011-05-01T06:12:54Z</time>
      </trkpt>
      <trkpt lat="47.09865" lon="-1.0604">
        <ele>49</ele>
        <time>2011-05-01T06:13:06Z</time>
      </trkpt>
      <trkpt lat="47.09971" lon="-1.05998">
        <ele>60</ele>
        <time>2011-05-01T06:13:23Z</time>
      </trkpt>
      <trkpt lat="47.10044" lon="-1.05964">
        <ele>60</ele>
        <time>2011-05-01T06:13:39Z</time>
      </trkpt>
      <trkpt lat="47.10126" lon="-1.05945">
        <ele>56</ele>
        <time>2011-05-01T06:13:52Z</time>
      </trkpt>
      <trkpt lat="47.10138" lon="-1.05958">
        <ele>55</ele>
        <time>2011-05-01T06:13:55Z</time>
      </trkpt>
      <trkpt lat="47.10134" lon="-1.05892">
        <ele>60</ele>
        <time>2011-05-01T06:14:01Z</time>
      </trkpt>
      <trkpt lat="47.10144" lon="-1.05839">
        <ele>60</ele>
        <time>2011-05-01T06:14:11Z</time>
      </trkpt>
      <trkpt lat="47.10144" lon="-1.05833">
        <ele>62</ele>
        <time>2011-05-01T06:14:12Z</time>
      </trkpt>
      <trkpt lat="47.1014" lon="-1.05782">
        <ele>64</ele>
        <time>2011-05-01T06:14:22Z</time>
      </trkpt>
      <trkpt lat="47.10143" lon="-1.05689">
        <ele>69</ele>
        <time>2011-05-01T06:14:39Z</time>
      </trkpt>
      <trkpt lat="47.10157" lon="-1.05643">
        <ele>72</ele>
        <time>2011-05-01T06:14:50Z</time>
      </trkpt>
      <trkpt lat="47.1017" lon="-1.05584">
        <ele>72</ele>
        <time>2011-05-01T06:15:04Z</time>
      </trkpt>
      <trkpt lat="47.10188" lon="-1.05469">
        <ele>74</ele>
        <time>2011-05-01T06:15:29Z</time>
      </trkpt>
      <trkpt lat="47.10209" lon="-1.05362">
        <ele>76</ele>
        <time>2011-05-01T06:15:50Z</time>
      </trkpt>
      <trkpt lat="47.10224" lon="-1.05241">
        <ele>81</ele>
        <time>2011-05-01T06:16:11Z</time>
      </trkpt>
      <trkpt lat="47.10228" lon="-1.05139">
        <ele>84</ele>
        <time>2011-05-01T06:16:31Z</time>
      </trkpt>
      <trkpt lat="47.10268" lon="-1.05027">
        <ele>84</ele>
        <time>2011-05-01T06:16:51Z</time>
      </trkpt>
      <trkpt lat="47.10335" lon="-1.04952">
        <ele>83</ele>
        <time>2011-05-01T06:17:09Z</time>
      </trkpt>
      <trkpt lat="47.10448" lon="-1.04823">
        <ele>83</ele>
        <time>2011-05-01T06:17:39Z</time>
      </trkpt>
      <trkpt lat="47.10485" lon="-1.04773">
        <ele>82</ele>
        <time>2011-05-01T06:17:48Z</time>
      </trkpt>
      <trkpt lat="47.10541" lon="-1.0463">
        <ele>81</ele>
        <time>2011-05-01T06:18:09Z</time>
      </trkpt>
      <trkpt lat="47.10573" lon="-1.04541">
        <ele>81</ele>
        <time>2011-05-01T06:18:22Z</time>
      </trkpt>
      <trkpt lat="47.10589" lon="-1.04496">
        <ele>81</ele>
        <time>2011-05-01T06:18:33Z</time>
      </trkpt>
      <trkpt lat="47.1059" lon="-1.04495">
        <ele>81</ele>
        <time>2011-05-01T06:18:36Z</time>
      </trkpt>
      <trkpt lat="47.1066" lon="-1.04417">
        <ele>81</ele>
        <time>2011-05-01T06:18:56Z</time>
      </trkpt>
      <trkpt lat="47.10706" lon="-1.04294">
        <ele>81</ele>
        <time>2011-05-01T06:19:23Z</time>
      </trkpt>
      <trkpt lat="47.10702" lon="-1.04281">
        <ele>81</ele>
        <time>2011-05-01T06:19:27Z</time>
      </trkpt>
      <trkpt lat="47.10646" lon="-1.04219">
        <ele>83</ele>
        <time>2011-05-01T06:19:46Z</time>
      </trkpt>
      <trkpt lat="47.10558" lon="-1.04125">
        <ele>85</ele>
        <time>2011-05-01T06:20:14Z</time>
      </trkpt>
      <trkpt lat="47.10482" lon="-1.0403">
        <ele>85</ele>
        <time>2011-05-01T06:20:34Z</time>
      </trkpt>
      <trkpt lat="47.10421" lon="-1.03949">
        <ele>84</ele>
        <time>2011-05-01T06:20:49Z</time>
      </trkpt>
      <trkpt lat="47.10394" lon="-1.03904">
        <ele>82</ele>
        <time>2011-05-01T06:20:55Z</time>
      </trkpt>
      <trkpt lat="47.10353" lon="-1.03829">
        <ele>80</ele>
        <time>2011-05-01T06:21:04Z</time>
      </trkpt>
      <trkpt lat="47.10326" lon="-1.03814">
        <ele>78</ele>
        <time>2011-05-01T06:21:08Z</time>
      </trkpt>
      <trkpt lat="47.10312" lon="-1.03817">
        <ele>78</ele>
        <time>2011-05-01T06:21:10Z</time>
      </trkpt>
      <trkpt lat="47.10294" lon="-1.03792">
        <ele>78</ele>
        <time>2011-05-01T06:21:15Z</time>
      </trkpt>
      <trkpt lat="47.1028" lon="-1.03642">
        <ele>78</ele>
        <time>2011-05-01T06:21:33Z</time>
      </trkpt>
      <trkpt lat="47.10307" lon="-1.03484">
        <ele>78</ele>
        <time>2011-05-01T06:21:52Z</time>
      </trkpt>
      <trkpt lat="47.10315" lon="-1.03301">
        <ele>76</ele>
        <time>2011-05-01T06:22:12Z</time>
      </trkpt>
      <trkpt lat="47.10298" lon="-1.03156">
        <ele>76</ele>
        <time>2011-05-01T06:22:28Z</time>
      </trkpt>
      <trkpt lat="47.1026" lon="-1.03059">
        <ele>76</ele>
        <time>2011-05-01T06:22:41Z</time>
      </trkpt>
      <trkpt lat="47.10198" lon="-1.02918">
        <ele>77</ele>
        <time>2011-05-01T06:23:01Z</time>
      </trkpt>
      <trkpt lat="47.10186" lon="-1.02891">
        <ele>78</ele>
        <time>2011-05-01T06:23:05Z</time>
      </trkpt>
      <trkpt lat="47.10171" lon="-1.0287">
        <ele>78</ele>
        <time>2011-05-01T06:23:09Z</time>
      </trkpt>
      <trkpt lat="47.10102" lon="-1.02782">
        <ele>76</ele>
        <time>2011-05-01T06:23:26Z</time>
      </trkpt>
      <trkpt lat="47.10062" lon="-1.02727">
        <ele>75</ele>
        <time>2011-05-01T06:23:35Z</time>
      </trkpt>
      <trkpt lat="47.10052" lon="-1.02713">
        <ele>75</ele>
        <time>2011-05-01T06:23:37Z</time>
      </trkpt>
      <trkpt lat="47.10042" lon="-1.02699">
        <ele>75</ele>
        <time>2011-05-01T06:23:39Z</time>
      </trkpt>
      <trkpt lat="47.10017" lon="-1.02704">
        <ele>75</ele>
        <time>2011-05-01T06:23:44Z</time>
      </trkpt>
      <trkpt lat="47.10004" lon="-1.02719">
        <ele>74</ele>
        <time>2011-05-01T06:23:47Z</time>
      </trkpt>
      <trkpt lat="47.09989" lon="-1.02755">
        <ele>74</ele>
        <time>2011-05-01T06:23:52Z</time>
      </trkpt>
      <trkpt lat="47.09956" lon="-1.02876">
        <ele>73</ele>
        <time>2011-05-01T06:24:10Z</time>
      </trkpt>
      <trkpt lat="47.09953" lon="-1.02886">
        <ele>73</ele>
        <time>2011-05-01T06:24:12Z</time>
      </trkpt>
      <trkpt lat="47.09967" lon="-1.02938">
        <ele>71</ele>
        <time>2011-05-01T06:24:20Z</time>
      </trkpt>
      <trkpt lat="47.09979" lon="-1.02963">
        <ele>70</ele>
        <time>2011-05-01T06:24:23Z</time>
      </trkpt>
      <trkpt lat="47.09982" lon="-1.02971">
        <ele>70</ele>
        <time>2011-05-01T06:24:24Z</time>
      </trkpt>
      <trkpt lat="47.09992" lon="-1.02997">
        <ele>69</ele>
        <time>2011-05-01T06:24:28Z</time>
      </trkpt>
      <trkpt lat="47.09993" lon="-1.03001">
        <ele>68</ele>
        <time>2011-05-01T06:24:30Z</time>
      </trkpt>
      <trkpt lat="47.09993" lon="-1.03001">
        <ele>68</ele>
        <time>2011-05-01T06:24:32Z</time>
      </trkpt>
      <trkpt lat="47.09993" lon="-1.03001">
        <ele>68</ele>
        <time>2011-05-01T06:24:34Z</time>
      </trkpt>
      <trkpt lat="47.10052" lon="-1.03054">
        <ele>68</ele>
        <time>2011-05-01T06:24:37Z</time>
      </trkpt>
      <trkpt lat="47.10057" lon="-1.03064">
        <ele>68</ele>
        <time>2011-05-01T06:24:38Z</time>
      </trkpt>
      <trkpt lat="47.10066" lon="-1.03096">
        <ele>67</ele>
        <time>2011-05-01T06:24:41Z</time>
      </trkpt>
      <trkpt lat="47.10055" lon="-1.03147">
        <ele>66</ele>
        <time>2011-05-01T06:24:48Z</time>
      </trkpt>
      <trkpt lat="47.10041" lon="-1.03157">
        <ele>67</ele>
        <time>2011-05-01T06:24:51Z</time>
      </trkpt>
      <trkpt lat="47.10024" lon="-1.03169">
        <ele>66</ele>
        <time>2011-05-01T06:24:56Z</time>
      </trkpt>
      <trkpt lat="47.10017" lon="-1.03169">
        <ele>67</ele>
        <time>2011-05-01T06:25:00Z</time>
      </trkpt>
      <trkpt lat="47.10024" lon="-1.03171">
        <ele>66</ele>
        <time>2011-05-01T06:25:04Z</time>
      </trkpt>
      <trkpt lat="47.10031" lon="-1.03166">
        <ele>67</ele>
        <time>2011-05-01T06:25:06Z</time>
      </trkpt>
      <trkpt lat="47.10043" lon="-1.03185">
        <ele>66</ele>
        <time>2011-05-01T06:25:12Z</time>
      </trkpt>
      <trkpt lat="47.10048" lon="-1.03304">
        <ele>64</ele>
        <time>2011-05-01T06:25:25Z</time>
      </trkpt>
      <trkpt lat="47.10048" lon="-1.03314">
        <ele>64</ele>
        <time>2011-05-01T06:25:26Z</time>
      </trkpt>
      <trkpt lat="47.1005" lon="-1.0335">
        <ele>62</ele>
        <time>2011-05-01T06:25:30Z</time>
      </trkpt>
      <trkpt lat="47.10039" lon="-1.03385">
        <ele>62</ele>
        <time>2011-05-01T06:25:35Z</time>
      </trkpt>
      <trkpt lat="47.10028" lon="-1.03393">
        <ele>62</ele>
        <time>2011-05-01T06:25:37Z</time>
      </trkpt>
      <trkpt lat="47.09999" lon="-1.03409">
        <ele>61</ele>
        <time>2011-05-01T06:25:42Z</time>
      </trkpt>
      <trkpt lat="47.09983" lon="-1.03429">
        <ele>61</ele>
        <time>2011-05-01T06:25:46Z</time>
      </trkpt>
      <trkpt lat="47.09977" lon="-1.03441">
        <ele>61</ele>
        <time>2011-05-01T06:25:48Z</time>
      </trkpt>
      <trkpt lat="47.09949" lon="-1.03492">
        <ele>60</ele>
        <time>2011-05-01T06:25:56Z</time>
      </trkpt>
      <trkpt lat="47.09881" lon="-1.03597">
        <ele>59</ele>
        <time>2011-05-01T06:26:15Z</time>
      </trkpt>
      <trkpt lat="47.09875" lon="-1.03618">
        <ele>59</ele>
        <time>2011-05-01T06:26:18Z</time>
      </trkpt>
      <trkpt lat="47.09869" lon="-1.03659">
        <ele>58</ele>
        <time>2011-05-01T06:26:23Z</time>
      </trkpt>
      <trkpt lat="47.09861" lon="-1.03683">
        <ele>57</ele>
        <time>2011-05-01T06:26:26Z</time>
      </trkpt>
      <trkpt lat="47.09841" lon="-1.03703">
        <ele>57</ele>
        <time>2011-05-01T06:26:31Z</time>
      </trkpt>
      <trkpt lat="47.09803" lon="-1.03729">
        <ele>58</ele>
        <time>2011-05-01T06:26:42Z</time>
      </trkpt>
      <trkpt lat="47.09787" lon="-1.03756">
        <ele>55</ele>
        <time>2011-05-01T06:26:49Z</time>
      </trkpt>
      <trkpt lat="47.09773" lon="-1.03774">
        <ele>55</ele>
        <time>2011-05-01T06:26:52Z</time>
      </trkpt>
      <trkpt lat="47.09765" lon="-1.0378">
        <ele>55</ele>
        <time>2011-05-01T06:26:54Z</time>
      </trkpt>
      <trkpt lat="47.09708" lon="-1.038">
        <ele>49</ele>
        <time>2011-05-01T06:27:06Z</time>
      </trkpt>
      <trkpt lat="47.09705" lon="-1.03809">
        <ele>49</ele>
        <time>2011-05-01T06:27:18Z</time>
      </trkpt>
      <trkpt lat="47.09705" lon="-1.0381">
        <ele>49</ele>
        <time>2011-05-01T06:27:20Z</time>
      </trkpt>
      <trkpt lat="47.09702" lon="-1.03815">
        <ele>49</ele>
        <time>2011-05-01T06:27:25Z</time>
      </trkpt>
      <trkpt lat="47.097" lon="-1.03815">
        <ele>48</ele>
        <time>2011-05-01T06:27:27Z</time>
      </trkpt>
      <trkpt lat="47.09698" lon="-1.03853">
        <ele>51</ele>
        <time>2011-05-01T06:27:38Z</time>
      </trkpt>
      <trkpt lat="47.09689" lon="-1.03875">
        <ele>52</ele>
        <time>2011-05-01T06:27:43Z</time>
      </trkpt>
      <trkpt lat="47.09666" lon="-1.03979">
        <ele>60</ele>
        <time>2011-05-01T06:27:54Z</time>
      </trkpt>
      <trkpt lat="47.09656" lon="-1.03983">
        <ele>60</ele>
        <time>2011-05-01T06:27:56Z</time>
      </trkpt>
      <trkpt lat="47.09641" lon="-1.03988">
        <ele>58</ele>
        <time>2011-05-01T06:27:59Z</time>
      </trkpt>
      <trkpt lat="47.09623" lon="-1.03995">
        <ele>56</ele>
        <time>2011-05-01T06:28:03Z</time>
      </trkpt>
      <trkpt lat="47.09594" lon="-1.04005">
        <ele>56</ele>
        <time>2011-05-01T06:28:13Z</time>
      </trkpt>
      <trkpt lat="47.09525" lon="-1.03972">
        <ele>48</ele>
        <time>2011-05-01T06:28:23Z</time>
      </trkpt>
      <trkpt lat="47.09516" lon="-1.03979">
        <ele>48</ele>
        <time>2011-05-01T06:28:25Z</time>
      </trkpt>
      <trkpt lat="47.09488" lon="-1.04001">
        <ele>48</ele>
        <time>2011-05-01T06:28:35Z</time>
      </trkpt>
      <trkpt lat="47.09484" lon="-1.03999">
        <ele>49</ele>
        <time>2011-05-01T06:28:39Z</time>
      </trkpt>
      <trkpt lat="47.09476" lon="-1.03991">
        <ele>51</ele>
        <time>2011-05-01T06:28:50Z</time>
      </trkpt>
      <trkpt lat="47.09474" lon="-1.03984">
        <ele>51</ele>
        <time>2011-05-01T06:29:03Z</time>
      </trkpt>
      <trkpt lat="47.09474" lon="-1.03969">
        <ele>51</ele>
        <time>2011-05-01T06:29:14Z</time>
      </trkpt>
      <trkpt lat="47.09493" lon="-1.03952">
        <ele>51</ele>
        <time>2011-05-01T06:29:26Z</time>
      </trkpt>
      <trkpt lat="47.09498" lon="-1.03931">
        <ele>50</ele>
        <time>2011-05-01T06:29:35Z</time>
      </trkpt>
      <trkpt lat="47.09495" lon="-1.03927">
        <ele>50</ele>
        <time>2011-05-01T06:29:38Z</time>
      </trkpt>
      <trkpt lat="47.09487" lon="-1.0392">
        <ele>50</ele>
        <time>2011-05-01T06:29:43Z</time>
      </trkpt>
      <trkpt lat="47.09487" lon="-1.03919">
        <ele>50</ele>
        <time>2011-05-01T06:29:44Z</time>
      </trkpt>
      <trkpt lat="47.09484" lon="-1.0392">
        <ele>50</ele>
        <time>2011-05-01T06:29:46Z</time>
      </trkpt>
      <trkpt lat="47.09457" lon="-1.03911">
        <ele>54</ele>
        <time>2011-05-01T06:30:00Z</time>
      </trkpt>
      <trkpt lat="47.09416" lon="-1.03901">
        <ele>58</ele>
        <time>2011-05-01T06:30:22Z</time>
      </trkpt>
      <trkpt lat="47.09381" lon="-1.03892">
        <ele>60</ele>
        <time>2011-05-01T06:30:39Z</time>
      </trkpt>
      <trkpt lat="47.09339" lon="-1.03881">
        <ele>61</ele>
        <time>2011-05-01T06:31:00Z</time>
      </trkpt>
      <trkpt lat="47.09329" lon="-1.03878">
        <ele>64</ele>
        <time>2011-05-01T06:31:05Z</time>
      </trkpt>
      <trkpt lat="47.09286" lon="-1.03875">
        <ele>65</ele>
        <time>2011-05-01T06:31:26Z</time>
      </trkpt>
      <trkpt lat="47.0923" lon="-1.0387">
        <ele>69</ele>
        <time>2011-05-01T06:31:51Z</time>
      </trkpt>
      <trkpt lat="47.09228" lon="-1.03868">
        <ele>69</ele>
        <time>2011-05-01T06:31:52Z</time>
      </trkpt>
      <trkpt lat="47.0923" lon="-1.03858">
        <ele>69</ele>
        <time>2011-05-01T06:31:56Z</time>
      </trkpt>
      <trkpt lat="47.09241" lon="-1.0379">
        <ele>66</ele>
        <time>2011-05-01T06:32:10Z</time>
      </trkpt>
      <trkpt lat="47.09238" lon="-1.03751">
        <ele>65</ele>
        <time>2011-05-01T06:32:17Z</time>
      </trkpt>
      <trkpt lat="47.09209" lon="-1.03692">
        <ele>67</ele>
        <time>2011-05-01T06:32:31Z</time>
      </trkpt>
      <trkpt lat="47.09175" lon="-1.03685">
        <ele>68</ele>
        <time>2011-05-01T06:32:41Z</time>
      </trkpt>
      <trkpt lat="47.09109" lon="-1.03623">
        <ele>75</ele>
        <time>2011-05-01T06:32:50Z</time>
      </trkpt>
      <trkpt lat="47.09106" lon="-1.03626">
        <ele>75</ele>
        <time>2011-05-01T06:32:52Z</time>
      </trkpt>
      <trkpt lat="47.09096" lon="-1.03631">
        <ele>75</ele>
        <time>2011-05-01T06:32:55Z</time>
      </trkpt>
      <trkpt lat="47.09081" lon="-1.0364">
        <ele>78</ele>
        <time>2011-05-01T06:33:01Z</time>
      </trkpt>
      <trkpt lat="47.09086" lon="-1.03658">
        <ele>75</ele>
        <time>2011-05-01T06:33:02Z</time>
      </trkpt>
      <trkpt lat="47.09099" lon="-1.03645">
        <ele>74</ele>
        <time>2011-05-01T06:33:10Z</time>
      </trkpt>
      <trkpt lat="47.0913" lon="-1.03594">
        <ele>74</ele>
        <time>2011-05-01T06:33:22Z</time>
      </trkpt>
      <trkpt lat="47.09139" lon="-1.03546">
        <ele>74</ele>
        <time>2011-05-01T06:33:32Z</time>
      </trkpt>
      <trkpt lat="47.09165" lon="-1.03538">
        <ele>72</ele>
        <time>2011-05-01T06:33:38Z</time>
      </trkpt>
      <trkpt lat="47.09173" lon="-1.03537">
        <ele>67</ele>
        <time>2011-05-01T06:33:40Z</time>
      </trkpt>
      <trkpt lat="47.09169" lon="-1.03515">
        <ele>67</ele>
        <time>2011-05-01T06:33:48Z</time>
      </trkpt>
      <trkpt lat="47.09163" lon="-1.03509">
        <ele>69</ele>
        <time>2011-05-01T06:33:50Z</time>
      </trkpt>
      <trkpt lat="47.09158" lon="-1.03498">
        <ele>68</ele>
        <time>2011-05-01T06:33:53Z</time>
      </trkpt>
      <trkpt lat="47.09156" lon="-1.03483">
        <ele>68</ele>
        <time>2011-05-01T06:33:56Z</time>
      </trkpt>
      <trkpt lat="47.09127" lon="-1.03486">
        <ele>70</ele>
        <time>2011-05-01T06:33:59Z</time>
      </trkpt>
      <trkpt lat="47.09125" lon="-1.0348">
        <ele>70</ele>
        <time>2011-05-01T06:34:00Z</time>
      </trkpt>
      <trkpt lat="47.09122" lon="-1.03473">
        <ele>70</ele>
        <time>2011-05-01T06:34:02Z</time>
      </trkpt>
      <trkpt lat="47.09119" lon="-1.03467">
        <ele>70</ele>
        <time>2011-05-01T06:34:04Z</time>
      </trkpt>
      <trkpt lat="47.09168" lon="-1.03404">
        <ele>56</ele>
        <time>2011-05-01T06:34:07Z</time>
      </trkpt>
      <trkpt lat="47.09174" lon="-1.03391">
        <ele>54</ele>
        <time>2011-05-01T06:34:09Z</time>
      </trkpt>
      <trkpt lat="47.09177" lon="-1.03384">
        <ele>53</ele>
        <time>2011-05-01T06:34:10Z</time>
      </trkpt>
      <trkpt lat="47.09179" lon="-1.03367">
        <ele>52</ele>
        <time>2011-05-01T06:34:13Z</time>
      </trkpt>
      <trkpt lat="47.09184" lon="-1.03344">
        <ele>51</ele>
        <time>2011-05-01T06:34:23Z</time>
      </trkpt>
      <trkpt lat="47.09179" lon="-1.0334">
        <ele>51</ele>
        <time>2011-05-01T06:34:29Z</time>
      </trkpt>
      <trkpt lat="47.09173" lon="-1.03345">
        <ele>51</ele>
        <time>2011-05-01T06:34:38Z</time>
      </trkpt>
      <trkpt lat="47.09163" lon="-1.03347">
        <ele>56</ele>
        <time>2011-05-01T06:34:50Z</time>
      </trkpt>
      <trkpt lat="47.09161" lon="-1.03347">
        <ele>56</ele>
        <time>2011-05-01T06:34:51Z</time>
      </trkpt>
      <trkpt lat="47.09153" lon="-1.03338">
        <ele>56</ele>
        <time>2011-05-01T06:35:01Z</time>
      </trkpt>
      <trkpt lat="47.09143" lon="-1.0333">
        <ele>53</ele>
        <time>2011-05-01T06:35:11Z</time>
      </trkpt>
      <trkpt lat="47.09137" lon="-1.03328">
        <ele>54</ele>
        <time>2011-05-01T06:35:17Z</time>
      </trkpt>
      <trkpt lat="47.09118" lon="-1.03318">
        <ele>55</ele>
        <time>2011-05-01T06:35:30Z</time>
      </trkpt>
      <trkpt lat="47.09113" lon="-1.03322">
        <ele>56</ele>
        <time>2011-05-01T06:35:41Z</time>
      </trkpt>
      <trkpt lat="47.09099" lon="-1.03312">
        <ele>57</ele>
        <time>2011-05-01T06:35:50Z</time>
      </trkpt>
      <trkpt lat="47.09094" lon="-1.03291">
        <ele>55</ele>
        <time>2011-05-01T06:35:57Z</time>
      </trkpt>
      <trkpt lat="47.09093" lon="-1.03288">
        <ele>55</ele>
        <time>2011-05-01T06:35:58Z</time>
      </trkpt>
      <trkpt lat="47.09093" lon="-1.03277">
        <ele>54</ele>
        <time>2011-05-01T06:36:02Z</time>
      </trkpt>
      <trkpt lat="47.09082" lon="-1.03264">
        <ele>58</ele>
        <time>2011-05-01T06:36:13Z</time>
      </trkpt>
      <trkpt lat="47.09078" lon="-1.03262">
        <ele>57</ele>
        <time>2011-05-01T06:36:16Z</time>
      </trkpt>
      <trkpt lat="47.09075" lon="-1.03243">
        <ele>54</ele>
        <time>2011-05-01T06:36:21Z</time>
      </trkpt>
      <trkpt lat="47.09078" lon="-1.03234">
        <ele>54</ele>
        <time>2011-05-01T06:36:23Z</time>
      </trkpt>
      <trkpt lat="47.09079" lon="-1.03209">
        <ele>53</ele>
        <time>2011-05-01T06:36:29Z</time>
      </trkpt>
      <trkpt lat="47.09062" lon="-1.03164">
        <ele>48</ele>
        <time>2011-05-01T06:36:41Z</time>
      </trkpt>
      <trkpt lat="47.09035" lon="-1.03118">
        <ele>48</ele>
        <time>2011-05-01T06:36:56Z</time>
      </trkpt>
      <trkpt lat="47.09014" lon="-1.03114">
        <ele>48</ele>
        <time>2011-05-01T06:37:06Z</time>
      </trkpt>
      <trkpt lat="47.09004" lon="-1.03129">
        <ele>49</ele>
        <time>2011-05-01T06:37:12Z</time>
      </trkpt>
      <trkpt lat="47.09003" lon="-1.03131">
        <ele>49</ele>
        <time>2011-05-01T06:37:13Z</time>
      </trkpt>
      <trkpt lat="47.08995" lon="-1.03163">
        <ele>52</ele>
        <time>2011-05-01T06:37:25Z</time>
      </trkpt>
      <trkpt lat="47.08995" lon="-1.03192">
        <ele>57</ele>
        <time>2011-05-01T06:37:36Z</time>
      </trkpt>
      <trkpt lat="47.08997" lon="-1.03205">
        <ele>58</ele>
        <time>2011-05-01T06:37:41Z</time>
      </trkpt>
      <trkpt lat="47.08998" lon="-1.03217">
        <ele>59</ele>
        <time>2011-05-01T06:37:47Z</time>
      </trkpt>
      <trkpt lat="47.08992" lon="-1.03226">
        <ele>59</ele>
        <time>2011-05-01T06:37:53Z</time>
      </trkpt>
      <trkpt lat="47.0897" lon="-1.03198">
        <ele>58</ele>
        <time>2011-05-01T06:38:02Z</time>
      </trkpt>
      <trkpt lat="47.08968" lon="-1.03194">
        <ele>58</ele>
        <time>2011-05-01T06:38:03Z</time>
      </trkpt>
      <trkpt lat="47.08945" lon="-1.03173">
        <ele>57</ele>
        <time>2011-05-01T06:38:07Z</time>
      </trkpt>
      <trkpt lat="47.08921" lon="-1.03149">
        <ele>52</ele>
        <time>2011-05-01T06:38:15Z</time>
      </trkpt>
      <trkpt lat="47.08906" lon="-1.03135">
        <ele>51</ele>
        <time>2011-05-01T06:38:24Z</time>
      </trkpt>
      <trkpt lat="47.08897" lon="-1.03127">
        <ele>51</ele>
        <time>2011-05-01T06:38:27Z</time>
      </trkpt>
      <trkpt lat="47.08883" lon="-1.03143">
        <ele>51</ele>
        <time>2011-05-01T06:38:31Z</time>
      </trkpt>
      <trkpt lat="47.08875" lon="-1.03157">
        <ele>51</ele>
        <time>2011-05-01T06:38:35Z</time>
      </trkpt>
      <trkpt lat="47.08885" lon="-1.03115">
        <ele>50</ele>
        <time>2011-05-01T06:38:38Z</time>
      </trkpt>
      <trkpt lat="47.08821" lon="-1.03193">
        <ele>56</ele>
        <time>2011-05-01T06:38:51Z</time>
      </trkpt>
      <trkpt lat="47.08793" lon="-1.03202">
        <ele>57</ele>
        <time>2011-05-01T06:39:00Z</time>
      </trkpt>
      <trkpt lat="47.08763" lon="-1.03206">
        <ele>58</ele>
        <time>2011-05-01T06:39:10Z</time>
      </trkpt>
      <trkpt lat="47.08725" lon="-1.032">
        <ele>64</ele>
        <time>2011-05-01T06:39:20Z</time>
      </trkpt>
      <trkpt lat="47.08722" lon="-1.03199">
        <ele>64</ele>
        <time>2011-05-01T06:39:21Z</time>
      </trkpt>
      <trkpt lat="47.08688" lon="-1.03154">
        <ele>60</ele>
        <time>2011-05-01T06:39:33Z</time>
      </trkpt>
      <trkpt lat="47.08679" lon="-1.03111">
        <ele>58</ele>
        <time>2011-05-01T06:39:41Z</time>
      </trkpt>
      <trkpt lat="47.08685" lon="-1.03055">
        <ele>54</ele>
        <time>2011-05-01T06:39:51Z</time>
      </trkpt>
      <trkpt lat="47.08692" lon="-1.02996">
        <ele>52</ele>
        <time>2011-05-01T06:40:04Z</time>
      </trkpt>
      <trkpt lat="47.08693" lon="-1.0296">
        <ele>52</ele>
        <time>2011-05-01T06:40:11Z</time>
      </trkpt>
      <trkpt lat="47.08695" lon="-1.02895">
        <ele>52</ele>
        <time>2011-05-01T06:40:25Z</time>
      </trkpt>
      <trkpt lat="47.08689" lon="-1.02871">
        <ele>52</ele>
        <time>2011-05-01T06:40:33Z</time>
      </trkpt>
      <trkpt lat="47.08689" lon="-1.02863">
        <ele>52</ele>
        <time>2011-05-01T06:40:37Z</time>
      </trkpt>
      <trkpt lat="47.08682" lon="-1.02856">
        <ele>53</ele>
        <time>2011-05-01T06:40:42Z</time>
      </trkpt>
      <trkpt lat="47.08676" lon="-1.02866">
        <ele>53</ele>
        <time>2011-05-01T06:40:54Z</time>
      </trkpt>
      <trkpt lat="47.08666" lon="-1.02873">
        <ele>59</ele>
        <time>2011-05-01T06:41:09Z</time>
      </trkpt>
      <trkpt lat="47.08656" lon="-1.02873">
        <ele>59</ele>
        <time>2011-05-01T06:41:23Z</time>
      </trkpt>
      <trkpt lat="47.08643" lon="-1.02872">
        <ele>60</ele>
        <time>2011-05-01T06:41:39Z</time>
      </trkpt>
      <trkpt lat="47.08636" lon="-1.02881">
        <ele>60</ele>
        <time>2011-05-01T06:41:54Z</time>
      </trkpt>
      <trkpt lat="47.08628" lon="-1.02897">
        <ele>61</ele>
        <time>2011-05-01T06:42:48Z</time>
      </trkpt>
      <trkpt lat="47.08628" lon="-1.02899">
        <ele>61</ele>
        <time>2011-05-01T06:42:49Z</time>
      </trkpt>
      <trkpt lat="47.08622" lon="-1.02908">
        <ele>62</ele>
        <time>2011-05-01T06:42:54Z</time>
      </trkpt>
      <trkpt lat="47.08603" lon="-1.02938">
        <ele>64</ele>
        <time>2011-05-01T06:43:06Z</time>
      </trkpt>
      <trkpt lat="47.08584" lon="-1.02969">
        <ele>65</ele>
        <time>2011-05-01T06:43:18Z</time>
      </trkpt>
      <trkpt lat="47.08568" lon="-1.02993">
        <ele>71</ele>
        <time>2011-05-01T06:43:28Z</time>
      </trkpt>
      <trkpt lat="47.08562" lon="-1.03002">
        <ele>73</ele>
        <time>2011-05-01T06:43:32Z</time>
      </trkpt>
      <trkpt lat="47.0856" lon="-1.03007">
        <ele>73</ele>
        <time>2011-05-01T06:43:34Z</time>
      </trkpt>
      <trkpt lat="47.08544" lon="-1.03039">
        <ele>74</ele>
        <time>2011-05-01T06:43:47Z</time>
      </trkpt>
      <trkpt lat="47.08538" lon="-1.03047">
        <ele>75</ele>
        <time>2011-05-01T06:43:49Z</time>
      </trkpt>
      <trkpt lat="47.08528" lon="-1.03075">
        <ele>75</ele>
        <time>2011-05-01T06:43:59Z</time>
      </trkpt>
      <trkpt lat="47.08504" lon="-1.03135">
        <ele>76</ele>
        <time>2011-05-01T06:44:16Z</time>
      </trkpt>
      <trkpt lat="47.08491" lon="-1.03168">
        <ele>74</ele>
        <time>2011-05-01T06:44:24Z</time>
      </trkpt>
      <trkpt lat="47.08471" lon="-1.03222">
        <ele>72</ele>
        <time>2011-05-01T06:44:31Z</time>
      </trkpt>
      <trkpt lat="47.08469" lon="-1.03231">
        <ele>72</ele>
        <time>2011-05-01T06:44:32Z</time>
      </trkpt>
      <trkpt lat="47.08465" lon="-1.03248">
        <ele>72</ele>
        <time>2011-05-01T06:44:34Z</time>
      </trkpt>
      <trkpt lat="47.08405" lon="-1.03323">
        <ele>69</ele>
        <time>2011-05-01T06:44:43Z</time>
      </trkpt>
      <trkpt lat="47.08403" lon="-1.03332">
        <ele>69</ele>
        <time>2011-05-01T06:44:46Z</time>
      </trkpt>
      <trkpt lat="47.08398" lon="-1.03356">
        <ele>69</ele>
        <time>2011-05-01T06:44:51Z</time>
      </trkpt>
      <trkpt lat="47.08391" lon="-1.03383">
        <ele>69</ele>
        <time>2011-05-01T06:44:56Z</time>
      </trkpt>
      <trkpt lat="47.0836" lon="-1.03517">
        <ele>70</ele>
        <time>2011-05-01T06:45:19Z</time>
      </trkpt>
      <trkpt lat="47.08341" lon="-1.03666">
        <ele>70</ele>
        <time>2011-05-01T06:45:39Z</time>
      </trkpt>
      <trkpt lat="47.08349" lon="-1.03757">
        <ele>69</ele>
        <time>2011-05-01T06:45:50Z</time>
      </trkpt>
      <trkpt lat="47.08348" lon="-1.0378">
        <ele>69</ele>
        <time>2011-05-01T06:45:52Z</time>
      </trkpt>
      <trkpt lat="47.08347" lon="-1.03791">
        <ele>69</ele>
        <time>2011-05-01T06:45:53Z</time>
      </trkpt>
      <trkpt lat="47.08338" lon="-1.03836">
        <ele>67</ele>
        <time>2011-05-01T06:45:57Z</time>
      </trkpt>
      <trkpt lat="47.08315" lon="-1.03885">
        <ele>68</ele>
        <time>2011-05-01T06:46:03Z</time>
      </trkpt>
      <trkpt lat="47.08317" lon="-1.03915">
        <ele>69</ele>
        <time>2011-05-01T06:46:07Z</time>
      </trkpt>
      <trkpt lat="47.08318" lon="-1.03932">
        <ele>70</ele>
        <time>2011-05-01T06:46:09Z</time>
      </trkpt>
      <trkpt lat="47.08324" lon="-1.04055">
        <ele>73</ele>
        <time>2011-05-01T06:46:25Z</time>
      </trkpt>
      <trkpt lat="47.08311" lon="-1.04093">
        <ele>74</ele>
        <time>2011-05-01T06:46:31Z</time>
      </trkpt>
      <trkpt lat="47.08208" lon="-1.04143">
        <ele>76</ele>
        <time>2011-05-01T06:46:51Z</time>
      </trkpt>
      <trkpt lat="47.08181" lon="-1.04121">
        <ele>76</ele>
        <time>2011-05-01T06:46:56Z</time>
      </trkpt>
      <trkpt lat="47.08092" lon="-1.04054">
        <ele>77</ele>
        <time>2011-05-01T06:47:16Z</time>
      </trkpt>
      <trkpt lat="47.08095" lon="-1.04024">
        <ele>77</ele>
        <time>2011-05-01T06:47:24Z</time>
      </trkpt>
      <trkpt lat="47.08097" lon="-1.04022">
        <ele>77</ele>
        <time>2011-05-01T06:47:34Z</time>
      </trkpt>
      <trkpt lat="47.08097" lon="-1.04025">
        <ele>77</ele>
        <time>2011-05-01T06:47:56Z</time>
      </trkpt>
      <trkpt lat="47.08094" lon="-1.04027">
        <ele>77</ele>
        <time>2011-05-01T06:51:11Z</time>
      </trkpt>
      <trkpt lat="47.08088" lon="-1.04031">
        <ele>77</ele>
        <time>2011-05-01T06:51:15Z</time>
      </trkpt>
      <trkpt lat="47.08067" lon="-1.03988">
        <ele>78</ele>
        <time>2011-05-01T06:51:26Z</time>
      </trkpt>
      <trkpt lat="47.08049" lon="-1.0395">
        <ele>79</ele>
        <time>2011-05-01T06:51:44Z</time>
      </trkpt>
      <trkpt lat="47.08021" lon="-1.03907">
        <ele>78</ele>
        <time>2011-05-01T06:51:52Z</time>
      </trkpt>
      <trkpt lat="47.07991" lon="-1.03748">
        <ele>73</ele>
        <time>2011-05-01T06:52:05Z</time>
      </trkpt>
      <trkpt lat="47.07969" lon="-1.03645">
        <ele>70</ele>
        <time>2011-05-01T06:52:19Z</time>
      </trkpt>
      <trkpt lat="47.07966" lon="-1.0363">
        <ele>70</ele>
        <time>2011-05-01T06:52:21Z</time>
      </trkpt>
      <trkpt lat="47.07951" lon="-1.03487">
        <ele>68</ele>
        <time>2011-05-01T06:52:39Z</time>
      </trkpt>
      <trkpt lat="47.07943" lon="-1.03347">
        <ele>69</ele>
        <time>2011-05-01T06:52:56Z</time>
      </trkpt>
      <trkpt lat="47.07939" lon="-1.03331">
        <ele>68</ele>
        <time>2011-05-01T06:52:58Z</time>
      </trkpt>
      <trkpt lat="47.07914" lon="-1.03234">
        <ele>67</ele>
        <time>2011-05-01T06:53:11Z</time>
      </trkpt>
      <trkpt lat="47.07912" lon="-1.0322">
        <ele>67</ele>
        <time>2011-05-01T06:53:13Z</time>
      </trkpt>
      <trkpt lat="47.07911" lon="-1.03212">
        <ele>67</ele>
        <time>2011-05-01T06:53:14Z</time>
      </trkpt>
      <trkpt lat="47.07906" lon="-1.0319">
        <ele>66</ele>
        <time>2011-05-01T06:53:17Z</time>
      </trkpt>
      <trkpt lat="47.07903" lon="-1.03172">
        <ele>65</ele>
        <time>2011-05-01T06:53:19Z</time>
      </trkpt>
      <trkpt lat="47.07894" lon="-1.03126">
        <ele>63</ele>
        <time>2011-05-01T06:53:24Z</time>
      </trkpt>
      <trkpt lat="47.07892" lon="-1.03118">
        <ele>63</ele>
        <time>2011-05-01T06:53:25Z</time>
      </trkpt>
      <trkpt lat="47.0789" lon="-1.03099">
        <ele>62</ele>
        <time>2011-05-01T06:53:27Z</time>
      </trkpt>
      <trkpt lat="47.07882" lon="-1.03044">
        <ele>59</ele>
        <time>2011-05-01T06:53:33Z</time>
      </trkpt>
      <trkpt lat="47.07875" lon="-1.03019">
        <ele>58</ele>
        <time>2011-05-01T06:53:36Z</time>
      </trkpt>
      <trkpt lat="47.07865" lon="-1.02967">
        <ele>55</ele>
        <time>2011-05-01T06:53:40Z</time>
      </trkpt>
      <trkpt lat="47.07862" lon="-1.02949">
        <ele>55</ele>
        <time>2011-05-01T06:53:42Z</time>
      </trkpt>
      <trkpt lat="47.07859" lon="-1.02914">
        <ele>53</ele>
        <time>2011-05-01T06:53:45Z</time>
      </trkpt>
      <trkpt lat="47.07848" lon="-1.02858">
        <ele>51</ele>
        <time>2011-05-01T06:53:50Z</time>
      </trkpt>
      <trkpt lat="47.07848" lon="-1.02822">
        <ele>50</ele>
        <time>2011-05-01T06:53:58Z</time>
      </trkpt>
      <trkpt lat="47.0785" lon="-1.02815">
        <ele>50</ele>
        <time>2011-05-01T06:53:59Z</time>
      </trkpt>
      <trkpt lat="47.07872" lon="-1.02786">
        <ele>50</ele>
        <time>2011-05-01T06:54:05Z</time>
      </trkpt>
      <trkpt lat="47.07908" lon="-1.02757">
        <ele>50</ele>
        <time>2011-05-01T06:54:14Z</time>
      </trkpt>
      <trkpt lat="47.07899" lon="-1.02737">
        <ele>50</ele>
        <time>2011-05-01T06:54:20Z</time>
      </trkpt>
      <trkpt lat="47.07891" lon="-1.02732">
        <ele>50</ele>
        <time>2011-05-01T06:54:22Z</time>
      </trkpt>
      <trkpt lat="47.07872" lon="-1.02725">
        <ele>50</ele>
        <time>2011-05-01T06:54:26Z</time>
      </trkpt>
      <trkpt lat="47.07831" lon="-1.02713">
        <ele>50</ele>
        <time>2011-05-01T06:54:35Z</time>
      </trkpt>
      <trkpt lat="47.07813" lon="-1.02713">
        <ele>50</ele>
        <time>2011-05-01T06:54:39Z</time>
      </trkpt>
      <trkpt lat="47.07781" lon="-1.02693">
        <ele>49</ele>
        <time>2011-05-01T06:54:45Z</time>
      </trkpt>
      <trkpt lat="47.07744" lon="-1.02651">
        <ele>50</ele>
        <time>2011-05-01T06:54:55Z</time>
      </trkpt>
      <trkpt lat="47.0774" lon="-1.02649">
        <ele>50</ele>
        <time>2011-05-01T06:54:56Z</time>
      </trkpt>
      <trkpt lat="47.07727" lon="-1.02648">
        <ele>51</ele>
        <time>2011-05-01T06:55:00Z</time>
      </trkpt>
      <trkpt lat="47.07685" lon="-1.02657">
        <ele>52</ele>
        <time>2011-05-01T06:55:12Z</time>
      </trkpt>
      <trkpt lat="47.07637" lon="-1.02672">
        <ele>55</ele>
        <time>2011-05-01T06:55:27Z</time>
      </trkpt>
      <trkpt lat="47.07591" lon="-1.02682">
        <ele>58</ele>
        <time>2011-05-01T06:55:42Z</time>
      </trkpt>
      <trkpt lat="47.0756" lon="-1.02697">
        <ele>63</ele>
        <time>2011-05-01T06:55:56Z</time>
      </trkpt>
      <trkpt lat="47.07525" lon="-1.02727">
        <ele>64</ele>
        <time>2011-05-01T06:56:13Z</time>
      </trkpt>
      <trkpt lat="47.07493" lon="-1.02748">
        <ele>69</ele>
        <time>2011-05-01T06:56:26Z</time>
      </trkpt>
      <trkpt lat="47.07462" lon="-1.02763">
        <ele>70</ele>
        <time>2011-05-01T06:56:40Z</time>
      </trkpt>
      <trkpt lat="47.07431" lon="-1.02773">
        <ele>73</ele>
        <time>2011-05-01T06:56:53Z</time>
      </trkpt>
      <trkpt lat="47.07404" lon="-1.02776">
        <ele>78</ele>
        <time>2011-05-01T06:57:05Z</time>
      </trkpt>
      <trkpt lat="47.07386" lon="-1.02775">
        <ele>78</ele>
        <time>2011-05-01T06:57:13Z</time>
      </trkpt>
      <trkpt lat="47.07363" lon="-1.02771">
        <ele>79</ele>
        <time>2011-05-01T06:57:22Z</time>
      </trkpt>
      <trkpt lat="47.07327" lon="-1.02762">
        <ele>81</ele>
        <time>2011-05-01T06:57:36Z</time>
      </trkpt>
      <trkpt lat="47.07279" lon="-1.02749">
        <ele>84</ele>
        <time>2011-05-01T06:57:49Z</time>
      </trkpt>
      <trkpt lat="47.07247" lon="-1.02734">
        <ele>85</ele>
        <time>2011-05-01T06:57:57Z</time>
      </trkpt>
      <trkpt lat="47.07233" lon="-1.0272">
        <ele>86</ele>
        <time>2011-05-01T06:58:01Z</time>
      </trkpt>
      <trkpt lat="47.0718" lon="-1.02684">
        <ele>88</ele>
        <time>2011-05-01T06:58:16Z</time>
      </trkpt>
      <trkpt lat="47.07156" lon="-1.02659">
        <ele>90</ele>
        <time>2011-05-01T06:58:25Z</time>
      </trkpt>
      <trkpt lat="47.07128" lon="-1.02637">
        <ele>91</ele>
        <time>2011-05-01T06:58:35Z</time>
      </trkpt>
      <trkpt lat="47.071" lon="-1.02543">
        <ele>90</ele>
        <time>2011-05-01T06:58:51Z</time>
      </trkpt>
      <trkpt lat="47.07071" lon="-1.02482">
        <ele>91</ele>
        <time>2011-05-01T06:58:56Z</time>
      </trkpt>
      <trkpt lat="47.07071" lon="-1.02482">
        <ele>91</ele>
        <time>2011-05-01T06:59:00Z</time>
      </trkpt>
      <trkpt lat="47.07071" lon="-1.02482">
        <ele>91</ele>
        <time>2011-05-01T06:59:03Z</time>
      </trkpt>
      <trkpt lat="47.07065" lon="-1.02451">
        <ele>91</ele>
        <time>2011-05-01T06:59:08Z</time>
      </trkpt>
      <trkpt lat="47.07063" lon="-1.02436">
        <ele>90</ele>
        <time>2011-05-01T06:59:10Z</time>
      </trkpt>
      <trkpt lat="47.07055" lon="-1.02387">
        <ele>87</ele>
        <time>2011-05-01T06:59:20Z</time>
      </trkpt>
      <trkpt lat="47.0703" lon="-1.02376">
        <ele>88</ele>
        <time>2011-05-01T06:59:26Z</time>
      </trkpt>
      <trkpt lat="47.06979" lon="-1.02403">
        <ele>93</ele>
        <time>2011-05-01T06:59:40Z</time>
      </trkpt>
      <trkpt lat="47.0694" lon="-1.02417">
        <ele>97</ele>
        <time>2011-05-01T06:59:52Z</time>
      </trkpt>
      <trkpt lat="47.0691" lon="-1.02417">
        <ele>98</ele>
        <time>2011-05-01T07:00:01Z</time>
      </trkpt>
      <trkpt lat="47.06849" lon="-1.02417">
        <ele>99</ele>
        <time>2011-05-01T07:00:18Z</time>
      </trkpt>
      <trkpt lat="47.06837" lon="-1.02417">
        <ele>100</ele>
        <time>2011-05-01T07:00:21Z</time>
      </trkpt>
      <trkpt lat="47.0676" lon="-1.02415">
        <ele>98</ele>
        <time>2011-05-01T07:00:34Z</time>
      </trkpt>
      <trkpt lat="47.06646" lon="-1.0241">
        <ele>96</ele>
        <time>2011-05-01T07:00:52Z</time>
      </trkpt>
      <trkpt lat="47.06624" lon="-1.024">
        <ele>96</ele>
        <time>2011-05-01T07:00:56Z</time>
      </trkpt>
      <trkpt lat="47.06543" lon="-1.02324">
        <ele>94</ele>
        <time>2011-05-01T07:01:14Z</time>
      </trkpt>
      <trkpt lat="47.06529" lon="-1.02312">
        <ele>95</ele>
        <time>2011-05-01T07:01:17Z</time>
      </trkpt>
      <trkpt lat="47.06533" lon="-1.02271">
        <ele>94</ele>
        <time>2011-05-01T07:01:24Z</time>
      </trkpt>
      <trkpt lat="47.06551" lon="-1.02214">
        <ele>93</ele>
        <time>2011-05-01T07:01:31Z</time>
      </trkpt>
      <trkpt lat="47.06599" lon="-1.02091">
        <ele>94</ele>
        <time>2011-05-01T07:01:47Z</time>
      </trkpt>
      <trkpt lat="47.06642" lon="-1.02036">
        <ele>94</ele>
        <time>2011-05-01T07:02:01Z</time>
      </trkpt>
      <trkpt lat="47.06725" lon="-1.01931">
        <ele>94</ele>
        <time>2011-05-01T07:02:21Z</time>
      </trkpt>
      <trkpt lat="47.06736" lon="-1.01897">
        <ele>90</ele>
        <time>2011-05-01T07:02:31Z</time>
      </trkpt>
      <trkpt lat="47.06735" lon="-1.01896">
        <ele>89</ele>
        <time>2011-05-01T07:02:32Z</time>
      </trkpt>
      <trkpt lat="47.06731" lon="-1.01893">
        <ele>89</ele>
        <time>2011-05-01T07:02:38Z</time>
      </trkpt>
      <trkpt lat="47.06731" lon="-1.01883">
        <ele>88</ele>
        <time>2011-05-01T07:02:43Z</time>
      </trkpt>
      <trkpt lat="47.06735" lon="-1.01875">
        <ele>88</ele>
        <time>2011-05-01T07:02:45Z</time>
      </trkpt>
      <trkpt lat="47.06738" lon="-1.01857">
        <ele>86</ele>
        <time>2011-05-01T07:02:55Z</time>
      </trkpt>
      <trkpt lat="47.06733" lon="-1.01861">
        <ele>86</ele>
        <time>2011-05-01T07:02:59Z</time>
      </trkpt>
      <trkpt lat="47.06724" lon="-1.01868">
        <ele>87</ele>
        <time>2011-05-01T07:03:04Z</time>
      </trkpt>
      <trkpt lat="47.06721" lon="-1.0187">
        <ele>87</ele>
        <time>2011-05-01T07:03:05Z</time>
      </trkpt>
      <trkpt lat="47.06705" lon="-1.01881">
        <ele>88</ele>
        <time>2011-05-01T07:03:11Z</time>
      </trkpt>
      <trkpt lat="47.06697" lon="-1.01879">
        <ele>88</ele>
        <time>2011-05-01T07:03:18Z</time>
      </trkpt>
      <trkpt lat="47.06702" lon="-1.01873">
        <ele>88</ele>
        <time>2011-05-01T07:03:22Z</time>
      </trkpt>
      <trkpt lat="47.06706" lon="-1.0187">
        <ele>88</ele>
        <time>2011-05-01T07:03:24Z</time>
      </trkpt>
      <trkpt lat="47.06722" lon="-1.01834">
        <ele>85</ele>
        <time>2011-05-01T07:03:33Z</time>
      </trkpt>
      <trkpt lat="47.06726" lon="-1.01827">
        <ele>83</ele>
        <time>2011-05-01T07:03:35Z</time>
      </trkpt>
      <trkpt lat="47.06761" lon="-1.01807">
        <ele>77</ele>
        <time>2011-05-01T07:03:46Z</time>
      </trkpt>
      <trkpt lat="47.06772" lon="-1.01804">
        <ele>76</ele>
        <time>2011-05-01T07:03:49Z</time>
      </trkpt>
      <trkpt lat="47.06785" lon="-1.0178">
        <ele>76</ele>
        <time>2011-05-01T07:03:58Z</time>
      </trkpt>
      <trkpt lat="47.06786" lon="-1.01777">
        <ele>76</ele>
        <time>2011-05-01T07:03:59Z</time>
      </trkpt>
      <trkpt lat="47.06784" lon="-1.01732">
        <ele>76</ele>
        <time>2011-05-01T07:04:10Z</time>
      </trkpt>
      <trkpt lat="47.06809" lon="-1.01705">
        <ele>76</ele>
        <time>2011-05-01T07:04:20Z</time>
      </trkpt>
      <trkpt lat="47.06812" lon="-1.01685">
        <ele>76</ele>
        <time>2011-05-01T07:04:26Z</time>
      </trkpt>
      <trkpt lat="47.06802" lon="-1.01651">
        <ele>79</ele>
        <time>2011-05-01T07:04:37Z</time>
      </trkpt>
      <trkpt lat="47.06799" lon="-1.01638">
        <ele>79</ele>
        <time>2011-05-01T07:04:50Z</time>
      </trkpt>
      <trkpt lat="47.0679" lon="-1.01611">
        <ele>80</ele>
        <time>2011-05-01T07:05:08Z</time>
      </trkpt>
      <trkpt lat="47.06772" lon="-1.01562">
        <ele>83</ele>
        <time>2011-05-01T07:05:23Z</time>
      </trkpt>
      <trkpt lat="47.06749" lon="-1.01494">
        <ele>86</ele>
        <time>2011-05-01T07:05:42Z</time>
      </trkpt>
      <trkpt lat="47.06741" lon="-1.01429">
        <ele>86</ele>
        <time>2011-05-01T07:05:56Z</time>
      </trkpt>
      <trkpt lat="47.06741" lon="-1.01328">
        <ele>86</ele>
        <time>2011-05-01T07:06:13Z</time>
      </trkpt>
      <trkpt lat="47.06738" lon="-1.01283">
        <ele>87</ele>
        <time>2011-05-01T07:06:22Z</time>
      </trkpt>
      <trkpt lat="47.06735" lon="-1.01262">
        <ele>87</ele>
        <time>2011-05-01T07:06:26Z</time>
      </trkpt>
      <trkpt lat="47.06711" lon="-1.01195">
        <ele>84</ele>
        <time>2011-05-01T07:06:36Z</time>
      </trkpt>
      <trkpt lat="47.06708" lon="-1.01181">
        <ele>84</ele>
        <time>2011-05-01T07:06:38Z</time>
      </trkpt>
      <trkpt lat="47.06698" lon="-1.01136">
        <ele>81</ele>
        <time>2011-05-01T07:06:45Z</time>
      </trkpt>
      <trkpt lat="47.06694" lon="-1.01111">
        <ele>81</ele>
        <time>2011-05-01T07:06:49Z</time>
      </trkpt>
      <trkpt lat="47.06675" lon="-1.01101">
        <ele>81</ele>
        <time>2011-05-01T07:06:56Z</time>
      </trkpt>
      <trkpt lat="47.06639" lon="-1.01123">
        <ele>78</ele>
        <time>2011-05-01T07:07:04Z</time>
      </trkpt>
      <trkpt lat="47.06575" lon="-1.01134">
        <ele>78</ele>
        <time>2011-05-01T07:07:09Z</time>
      </trkpt>
      <trkpt lat="47.06573" lon="-1.01143">
        <ele>78</ele>
        <time>2011-05-01T07:07:10Z</time>
      </trkpt>
      <trkpt lat="47.06573" lon="-1.01143">
        <ele>78</ele>
        <time>2011-05-01T07:07:13Z</time>
      </trkpt>
      <trkpt lat="47.06573" lon="-1.01143">
        <ele>78</ele>
        <time>2011-05-01T07:07:15Z</time>
      </trkpt>
      <trkpt lat="47.06562" lon="-1.01213">
        <ele>79</ele>
        <time>2011-05-01T07:07:16Z</time>
      </trkpt>
      <trkpt lat="47.0656" lon="-1.01224">
        <ele>80</ele>
        <time>2011-05-01T07:07:17Z</time>
      </trkpt>
      <trkpt lat="47.06546" lon="-1.01259">
        <ele>81</ele>
        <time>2011-05-01T07:07:20Z</time>
      </trkpt>
      <trkpt lat="47.0652" lon="-1.01299">
        <ele>81</ele>
        <time>2011-05-01T07:07:24Z</time>
      </trkpt>
      <trkpt lat="47.0652" lon="-1.013">
        <ele>81</ele>
        <time>2011-05-01T07:07:30Z</time>
      </trkpt>
      <trkpt lat="47.06527" lon="-1.01291">
        <ele>81</ele>
        <time>2011-05-01T07:07:32Z</time>
      </trkpt>
      <trkpt lat="47.06566" lon="-1.01186">
        <ele>78</ele>
        <time>2011-05-01T07:07:44Z</time>
      </trkpt>
      <trkpt lat="47.0657" lon="-1.01164">
        <ele>77</ele>
        <time>2011-05-01T07:07:46Z</time>
      </trkpt>
      <trkpt lat="47.06571" lon="-1.01153">
        <ele>77</ele>
        <time>2011-05-01T07:07:47Z</time>
      </trkpt>
      <trkpt lat="47.06589" lon="-1.01054">
        <ele>73</ele>
        <time>2011-05-01T07:07:56Z</time>
      </trkpt>
      <trkpt lat="47.06594" lon="-1.01023">
        <ele>73</ele>
        <time>2011-05-01T07:08:00Z</time>
      </trkpt>
      <trkpt lat="47.06594" lon="-1.01023">
        <ele>73</ele>
        <time>2011-05-01T07:08:01Z</time>
      </trkpt>
      <trkpt lat="47.06632" lon="-1.00933">
        <ele>71</ele>
        <time>2011-05-01T07:08:08Z</time>
      </trkpt>
      <trkpt lat="47.06637" lon="-1.00924">
        <ele>70</ele>
        <time>2011-05-01T07:08:09Z</time>
      </trkpt>
      <trkpt lat="47.06659" lon="-1.00885">
        <ele>69</ele>
        <time>2011-05-01T07:08:14Z</time>
      </trkpt>
      <trkpt lat="47.06666" lon="-1.00873">
        <ele>68</ele>
        <time>2011-05-01T07:08:19Z</time>
      </trkpt>
      <trkpt lat="47.06664" lon="-1.00854">
        <ele>68</ele>
        <time>2011-05-01T07:08:23Z</time>
      </trkpt>
      <trkpt lat="47.06689" lon="-1.00838">
        <ele>64</ele>
        <time>2011-05-01T07:08:31Z</time>
      </trkpt>
      <trkpt lat="47.06717" lon="-1.00834">
        <ele>61</ele>
        <time>2011-05-01T07:08:37Z</time>
      </trkpt>
      <trkpt lat="47.06725" lon="-1.00769">
        <ele>60</ele>
        <time>2011-05-01T07:08:41Z</time>
      </trkpt>
      <trkpt lat="47.06719" lon="-1.00688">
        <ele>59</ele>
        <time>2011-05-01T07:08:53Z</time>
      </trkpt>
      <trkpt lat="47.06705" lon="-1.00639">
        <ele>59</ele>
        <time>2011-05-01T07:09:03Z</time>
      </trkpt>
      <trkpt lat="47.06694" lon="-1.006">
        <ele>59</ele>
        <time>2011-05-01T07:09:14Z</time>
      </trkpt>
      <trkpt lat="47.06685" lon="-1.00585">
        <ele>59</ele>
        <time>2011-05-01T07:09:25Z</time>
      </trkpt>
      <trkpt lat="47.06679" lon="-1.00588">
        <ele>60</ele>
        <time>2011-05-01T07:09:38Z</time>
      </trkpt>
      <trkpt lat="47.06677" lon="-1.00587">
        <ele>60</ele>
        <time>2011-05-01T07:09:49Z</time>
      </trkpt>
      <trkpt lat="47.06674" lon="-1.00593">
        <ele>60</ele>
        <time>2011-05-01T07:10:00Z</time>
      </trkpt>
      <trkpt lat="47.06669" lon="-1.00589">
        <ele>60</ele>
        <time>2011-05-01T07:10:12Z</time>
      </trkpt>
      <trkpt lat="47.06661" lon="-1.00585">
        <ele>62</ele>
        <time>2011-05-01T07:10:27Z</time>
      </trkpt>
      <trkpt lat="47.06656" lon="-1.00581">
        <ele>63</ele>
        <time>2011-05-01T07:10:41Z</time>
      </trkpt>
      <trkpt lat="47.06655" lon="-1.00583">
        <ele>63</ele>
        <time>2011-05-01T07:10:44Z</time>
      </trkpt>
      <trkpt lat="47.0665" lon="-1.00591">
        <ele>64</ele>
        <time>2011-05-01T07:10:48Z</time>
      </trkpt>
      <trkpt lat="47.06627" lon="-1.0059">
        <ele>66</ele>
        <time>2011-05-01T07:10:59Z</time>
      </trkpt>
      <trkpt lat="47.06625" lon="-1.00587">
        <ele>66</ele>
        <time>2011-05-01T07:11:16Z</time>
      </trkpt>
      <trkpt lat="47.06624" lon="-1.00587">
        <ele>66</ele>
        <time>2011-05-01T07:11:20Z</time>
      </trkpt>
      <trkpt lat="47.0662" lon="-1.00582">
        <ele>66</ele>
        <time>2011-05-01T07:11:24Z</time>
      </trkpt>
      <trkpt lat="47.06615" lon="-1.00566">
        <ele>67</ele>
        <time>2011-05-01T07:11:30Z</time>
      </trkpt>
      <trkpt lat="47.06612" lon="-1.00565">
        <ele>67</ele>
        <time>2011-05-01T07:11:38Z</time>
      </trkpt>
      <trkpt lat="47.0658" lon="-1.00535">
        <ele>70</ele>
        <time>2011-05-01T07:11:55Z</time>
      </trkpt>
      <trkpt lat="47.06534" lon="-1.00492">
        <ele>71</ele>
        <time>2011-05-01T07:12:16Z</time>
      </trkpt>
      <trkpt lat="47.06493" lon="-1.00455">
        <ele>74</ele>
        <time>2011-05-01T07:12:34Z</time>
      </trkpt>
      <trkpt lat="47.06487" lon="-1.00462">
        <ele>74</ele>
        <time>2011-05-01T07:12:39Z</time>
      </trkpt>
      <trkpt lat="47.0646" lon="-1.00475">
        <ele>75</ele>
        <time>2011-05-01T07:12:51Z</time>
      </trkpt>
      <trkpt lat="47.06389" lon="-1.00466">
        <ele>80</ele>
        <time>2011-05-01T07:13:15Z</time>
      </trkpt>
      <trkpt lat="47.06339" lon="-1.00457">
        <ele>82</ele>
        <time>2011-05-01T07:13:32Z</time>
      </trkpt>
      <trkpt lat="47.06297" lon="-1.00458">
        <ele>88</ele>
        <time>2011-05-01T07:13:46Z</time>
      </trkpt>
      <trkpt lat="47.06272" lon="-1.00463">
        <ele>90</ele>
        <time>2011-05-01T07:13:57Z</time>
      </trkpt>
      <trkpt lat="47.0625" lon="-1.00473">
        <ele>96</ele>
        <time>2011-05-01T07:14:11Z</time>
      </trkpt>
      <trkpt lat="47.06232" lon="-1.00486">
        <ele>96</ele>
        <time>2011-05-01T07:14:23Z</time>
      </trkpt>
      <trkpt lat="47.06223" lon="-1.00495">
        <ele>97</ele>
        <time>2011-05-01T07:14:30Z</time>
      </trkpt>
      <trkpt lat="47.06212" lon="-1.00509">
        <ele>100</ele>
        <time>2011-05-01T07:14:41Z</time>
      </trkpt>
      <trkpt lat="47.06209" lon="-1.00512">
        <ele>100</ele>
        <time>2011-05-01T07:14:43Z</time>
      </trkpt>
      <trkpt lat="47.06198" lon="-1.00528">
        <ele>101</ele>
        <time>2011-05-01T07:14:53Z</time>
      </trkpt>
      <trkpt lat="47.06164" lon="-1.00561">
        <ele>104</ele>
        <time>2011-05-01T07:15:12Z</time>
      </trkpt>
      <trkpt lat="47.06142" lon="-1.00577">
        <ele>104</ele>
        <time>2011-05-01T07:15:20Z</time>
      </trkpt>
      <trkpt lat="47.06037" lon="-1.00649">
        <ele>101</ele>
        <time>2011-05-01T07:15:33Z</time>
      </trkpt>
      <trkpt lat="47.0601" lon="-1.00658">
        <ele>100</ele>
        <time>2011-05-01T07:15:46Z</time>
      </trkpt>
      <trkpt lat="47.05959" lon="-1.00675">
        <ele>98</ele>
        <time>2011-05-01T07:15:56Z</time>
      </trkpt>
      <trkpt lat="47.05951" lon="-1.00677">
        <ele>98</ele>
        <time>2011-05-01T07:15:58Z</time>
      </trkpt>
      <trkpt lat="47.05929" lon="-1.00684">
        <ele>98</ele>
        <time>2011-05-01T07:16:03Z</time>
      </trkpt>
      <trkpt lat="47.05895" lon="-1.00701">
        <ele>97</ele>
        <time>2011-05-01T07:16:14Z</time>
      </trkpt>
      <trkpt lat="47.0588" lon="-1.00708">
        <ele>97</ele>
        <time>2011-05-01T07:16:30Z</time>
      </trkpt>
      <trkpt lat="47.05852" lon="-1.00722">
        <ele>97</ele>
        <time>2011-05-01T07:16:44Z</time>
      </trkpt>
      <trkpt lat="47.05787" lon="-1.00729">
        <ele>96</ele>
        <time>2011-05-01T07:16:48Z</time>
      </trkpt>
      <trkpt lat="47.05725" lon="-1.00703">
        <ele>95</ele>
        <time>2011-05-01T07:17:00Z</time>
      </trkpt>
      <trkpt lat="47.05706" lon="-1.00708">
        <ele>95</ele>
        <time>2011-05-01T07:17:04Z</time>
      </trkpt>
      <trkpt lat="47.05658" lon="-1.00745">
        <ele>93</ele>
        <time>2011-05-01T07:17:14Z</time>
      </trkpt>
      <trkpt lat="47.05596" lon="-1.00816">
        <ele>95</ele>
        <time>2011-05-01T07:17:30Z</time>
      </trkpt>
      <trkpt lat="47.05594" lon="-1.00819">
        <ele>95</ele>
        <time>2011-05-01T07:17:31Z</time>
      </trkpt>
      <trkpt lat="47.05578" lon="-1.00897">
        <ele>96</ele>
        <time>2011-05-01T07:17:46Z</time>
      </trkpt>
      <trkpt lat="47.05577" lon="-1.00903">
        <ele>96</ele>
        <time>2011-05-01T07:17:47Z</time>
      </trkpt>
      <trkpt lat="47.05554" lon="-1.00936">
        <ele>96</ele>
        <time>2011-05-01T07:17:54Z</time>
      </trkpt>
      <trkpt lat="47.05521" lon="-1.00956">
        <ele>97</ele>
        <time>2011-05-01T07:18:02Z</time>
      </trkpt>
      <trkpt lat="47.05481" lon="-1.00963">
        <ele>100</ele>
        <time>2011-05-01T07:18:13Z</time>
      </trkpt>
      <trkpt lat="47.05463" lon="-1.01001">
        <ele>101</ele>
        <time>2011-05-01T07:18:23Z</time>
      </trkpt>
      <trkpt lat="47.05475" lon="-1.01047">
        <ele>101</ele>
        <time>2011-05-01T07:18:32Z</time>
      </trkpt>
      <trkpt lat="47.05494" lon="-1.01075">
        <ele>99</ele>
        <time>2011-05-01T07:18:37Z</time>
      </trkpt>
      <trkpt lat="47.05538" lon="-1.01177">
        <ele>97</ele>
        <time>2011-05-01T07:18:52Z</time>
      </trkpt>
      <trkpt lat="47.05545" lon="-1.01217">
        <ele>98</ele>
        <time>2011-05-01T07:18:58Z</time>
      </trkpt>
      <trkpt lat="47.05551" lon="-1.01249">
        <ele>98</ele>
        <time>2011-05-01T07:19:03Z</time>
      </trkpt>
      <trkpt lat="47.05532" lon="-1.01305">
        <ele>103</ele>
        <time>2011-05-01T07:19:11Z</time>
      </trkpt>
      <trkpt lat="47.05518" lon="-1.01304">
        <ele>103</ele>
        <time>2011-05-01T07:19:14Z</time>
      </trkpt>
      <trkpt lat="47.05468" lon="-1.01302">
        <ele>106</ele>
        <time>2011-05-01T07:19:26Z</time>
      </trkpt>
      <trkpt lat="47.05452" lon="-1.01303">
        <ele>107</ele>
        <time>2011-05-01T07:19:30Z</time>
      </trkpt>
      <trkpt lat="47.05387" lon="-1.01318">
        <ele>110</ele>
        <time>2011-05-01T07:19:47Z</time>
      </trkpt>
      <trkpt lat="47.0534" lon="-1.01314">
        <ele>112</ele>
        <time>2011-05-01T07:19:59Z</time>
      </trkpt>
      <trkpt lat="47.05272" lon="-1.013">
        <ele>115</ele>
        <time>2011-05-01T07:20:17Z</time>
      </trkpt>
      <trkpt lat="47.05207" lon="-1.01277">
        <ele>117</ele>
        <time>2011-05-01T07:20:37Z</time>
      </trkpt>
      <trkpt lat="47.05149" lon="-1.01256">
        <ele>118</ele>
        <time>2011-05-01T07:20:56Z</time>
      </trkpt>
      <trkpt lat="47.05126" lon="-1.01352">
        <ele>119</ele>
        <time>2011-05-01T07:20:58Z</time>
      </trkpt>
      <trkpt lat="47.05071" lon="-1.01434">
        <ele>121</ele>
        <time>2011-05-01T07:21:16Z</time>
      </trkpt>
      <trkpt lat="47.05" lon="-1.01536">
        <ele>124</ele>
        <time>2011-05-01T07:21:38Z</time>
      </trkpt>
      <trkpt lat="47.04975" lon="-1.0159">
        <ele>125</ele>
        <time>2011-05-01T07:21:47Z</time>
      </trkpt>
      <trkpt lat="47.04965" lon="-1.01605">
        <ele>125</ele>
        <time>2011-05-01T07:21:50Z</time>
      </trkpt>
      <trkpt lat="47.04926" lon="-1.01646">
        <ele>126</ele>
        <time>2011-05-01T07:22:02Z</time>
      </trkpt>
      <trkpt lat="47.04895" lon="-1.01699">
        <ele>128</ele>
        <time>2011-05-01T07:22:14Z</time>
      </trkpt>
      <trkpt lat="47.04877" lon="-1.0174">
        <ele>128</ele>
        <time>2011-05-01T07:22:23Z</time>
      </trkpt>
      <trkpt lat="47.04856" lon="-1.01781">
        <ele>128</ele>
        <time>2011-05-01T07:22:31Z</time>
      </trkpt>
      <trkpt lat="47.04828" lon="-1.01809">
        <ele>129</ele>
        <time>2011-05-01T07:22:40Z</time>
      </trkpt>
      <trkpt lat="47.04796" lon="-1.01832">
        <ele>129</ele>
        <time>2011-05-01T07:22:49Z</time>
      </trkpt>
      <trkpt lat="47.04762" lon="-1.01853">
        <ele>129</ele>
        <time>2011-05-01T07:22:57Z</time>
      </trkpt>
      <trkpt lat="47.04746" lon="-1.01864">
        <ele>128</ele>
        <time>2011-05-01T07:23:02Z</time>
      </trkpt>
      <trkpt lat="47.04746" lon="-1.01873">
        <ele>128</ele>
        <time>2011-05-01T07:23:06Z</time>
      </trkpt>
      <trkpt lat="47.04764" lon="-1.01908">
        <ele>129</ele>
        <time>2011-05-01T07:23:16Z</time>
      </trkpt>
      <trkpt lat="47.04767" lon="-1.01912">
        <ele>129</ele>
        <time>2011-05-01T07:23:17Z</time>
      </trkpt>
      <trkpt lat="47.0478" lon="-1.01938">
        <ele>128</ele>
        <time>2011-05-01T07:23:22Z</time>
      </trkpt>
      <trkpt lat="47.04793" lon="-1.01964">
        <ele>127</ele>
        <time>2011-05-01T07:23:27Z</time>
      </trkpt>
      <trkpt lat="47.04799" lon="-1.01991">
        <ele>127</ele>
        <time>2011-05-01T07:23:31Z</time>
      </trkpt>
      <trkpt lat="47.04805" lon="-1.02011">
        <ele>127</ele>
        <time>2011-05-01T07:23:34Z</time>
      </trkpt>
      <trkpt lat="47.04815" lon="-1.02043">
        <ele>127</ele>
        <time>2011-05-01T07:23:39Z</time>
      </trkpt>
      <trkpt lat="47.04818" lon="-1.02071">
        <ele>127</ele>
        <time>2011-05-01T07:23:43Z</time>
      </trkpt>
      <trkpt lat="47.04854" lon="-1.02164">
        <ele>128</ele>
        <time>2011-05-01T07:23:57Z</time>
      </trkpt>
      <trkpt lat="47.0489" lon="-1.02232">
        <ele>128</ele>
        <time>2011-05-01T07:24:08Z</time>
      </trkpt>
      <trkpt lat="47.04902" lon="-1.02253">
        <ele>127</ele>
        <time>2011-05-01T07:24:11Z</time>
      </trkpt>
      <trkpt lat="47.04966" lon="-1.02355">
        <ele>126</ele>
        <time>2011-05-01T07:24:28Z</time>
      </trkpt>
      <trkpt lat="47.05032" lon="-1.02409">
        <ele>127</ele>
        <time>2011-05-01T07:24:37Z</time>
      </trkpt>
      <trkpt lat="47.05101" lon="-1.02479">
        <ele>128</ele>
        <time>2011-05-01T07:24:57Z</time>
      </trkpt>
      <trkpt lat="47.05196" lon="-1.02588">
        <ele>128</ele>
        <time>2011-05-01T07:25:16Z</time>
      </trkpt>
      <trkpt lat="47.05287" lon="-1.02738">
        <ele>128</ele>
        <time>2011-05-01T07:25:37Z</time>
      </trkpt>
      <trkpt lat="47.05324" lon="-1.02799">
        <ele>129</ele>
        <time>2011-05-01T07:25:47Z</time>
      </trkpt>
      <trkpt lat="47.05376" lon="-1.02879">
        <ele>128</ele>
        <time>2011-05-01T07:26:01Z</time>
      </trkpt>
      <trkpt lat="47.05393" lon="-1.02902">
        <ele>128</ele>
        <time>2011-05-01T07:26:05Z</time>
      </trkpt>
      <trkpt lat="47.05404" lon="-1.02919">
        <ele>127</ele>
        <time>2011-05-01T07:26:08Z</time>
      </trkpt>
      <trkpt lat="47.05466" lon="-1.03012">
        <ele>125</ele>
        <time>2011-05-01T07:26:22Z</time>
      </trkpt>
      <trkpt lat="47.05513" lon="-1.03075">
        <ele>125</ele>
        <time>2011-05-01T07:26:33Z</time>
      </trkpt>
      <trkpt lat="47.05526" lon="-1.03102">
        <ele>125</ele>
        <time>2011-05-01T07:26:36Z</time>
      </trkpt>
      <trkpt lat="47.05547" lon="-1.03137">
        <ele>125</ele>
        <time>2011-05-01T07:26:41Z</time>
      </trkpt>
      <trkpt lat="47.05575" lon="-1.03154">
        <ele>126</ele>
        <time>2011-05-01T07:26:46Z</time>
      </trkpt>
      <trkpt lat="47.05642" lon="-1.03207">
        <ele>124</ele>
        <time>2011-05-01T07:26:57Z</time>
      </trkpt>
      <trkpt lat="47.05653" lon="-1.0322">
        <ele>124</ele>
        <time>2011-05-01T07:26:59Z</time>
      </trkpt>
      <trkpt lat="47.05687" lon="-1.03258">
        <ele>123</ele>
        <time>2011-05-01T07:27:05Z</time>
      </trkpt>
      <trkpt lat="47.05729" lon="-1.033">
        <ele>123</ele>
        <time>2011-05-01T07:27:13Z</time>
      </trkpt>
      <trkpt lat="47.05777" lon="-1.03348">
        <ele>123</ele>
        <time>2011-05-01T07:27:23Z</time>
      </trkpt>
      <trkpt lat="47.05805" lon="-1.03378">
        <ele>123</ele>
        <time>2011-05-01T07:27:32Z</time>
      </trkpt>
      <trkpt lat="47.05817" lon="-1.03397">
        <ele>123</ele>
        <time>2011-05-01T07:27:51Z</time>
      </trkpt>
      <trkpt lat="47.05823" lon="-1.03404">
        <ele>123</ele>
        <time>2011-05-01T07:27:53Z</time>
      </trkpt>
      <trkpt lat="47.05858" lon="-1.03455">
        <ele>123</ele>
        <time>2011-05-01T07:28:03Z</time>
      </trkpt>
      <trkpt lat="47.0587" lon="-1.0347">
        <ele>123</ele>
        <time>2011-05-01T07:28:06Z</time>
      </trkpt>
      <trkpt lat="47.05877" lon="-1.0348">
        <ele>123</ele>
        <time>2011-05-01T07:28:08Z</time>
      </trkpt>
      <trkpt lat="47.05887" lon="-1.03499">
        <ele>122</ele>
        <time>2011-05-01T07:28:11Z</time>
      </trkpt>
      <trkpt lat="47.05924" lon="-1.03543">
        <ele>122</ele>
        <time>2011-05-01T07:28:18Z</time>
      </trkpt>
      <trkpt lat="47.05977" lon="-1.03607">
        <ele>123</ele>
        <time>2011-05-01T07:28:28Z</time>
      </trkpt>
      <trkpt lat="47.05987" lon="-1.03622">
        <ele>123</ele>
        <time>2011-05-01T07:28:30Z</time>
      </trkpt>
      <trkpt lat="47.06026" lon="-1.03692">
        <ele>123</ele>
        <time>2011-05-01T07:28:39Z</time>
      </trkpt>
      <trkpt lat="47.06041" lon="-1.03717">
        <ele>123</ele>
        <time>2011-05-01T07:28:43Z</time>
      </trkpt>
      <trkpt lat="47.0609" lon="-1.03794">
        <ele>125</ele>
        <time>2011-05-01T07:28:56Z</time>
      </trkpt>
      <trkpt lat="47.06115" lon="-1.03838">
        <ele>125</ele>
        <time>2011-05-01T07:29:03Z</time>
      </trkpt>
      <trkpt lat="47.06129" lon="-1.03861">
        <ele>126</ele>
        <time>2011-05-01T07:29:08Z</time>
      </trkpt>
      <trkpt lat="47.06148" lon="-1.03892">
        <ele>125</ele>
        <time>2011-05-01T07:29:13Z</time>
      </trkpt>
      <trkpt lat="47.06219" lon="-1.0398">
        <ele>123</ele>
        <time>2011-05-01T07:29:30Z</time>
      </trkpt>
      <trkpt lat="47.06289" lon="-1.04066">
        <ele>123</ele>
        <time>2011-05-01T07:29:49Z</time>
      </trkpt>
      <trkpt lat="47.06306" lon="-1.04097">
        <ele>125</ele>
        <time>2011-05-01T07:29:55Z</time>
      </trkpt>
      <trkpt lat="47.06339" lon="-1.04163">
        <ele>127</ele>
        <time>2011-05-01T07:30:07Z</time>
      </trkpt>
      <trkpt lat="47.06364" lon="-1.04169">
        <ele>127</ele>
        <time>2011-05-01T07:30:13Z</time>
      </trkpt>
      <trkpt lat="47.06411" lon="-1.04171">
        <ele>126</ele>
        <time>2011-05-01T07:30:20Z</time>
      </trkpt>
      <trkpt lat="47.06416" lon="-1.0416">
        <ele>126</ele>
        <time>2011-05-01T07:30:23Z</time>
      </trkpt>
      <trkpt lat="47.06437" lon="-1.04135">
        <ele>125</ele>
        <time>2011-05-01T07:30:29Z</time>
      </trkpt>
      <trkpt lat="47.0645" lon="-1.04129">
        <ele>124</ele>
        <time>2011-05-01T07:30:37Z</time>
      </trkpt>
      <trkpt lat="47.06447" lon="-1.04127">
        <ele>124</ele>
        <time>2011-05-01T07:30:41Z</time>
      </trkpt>
      <trkpt lat="47.06449" lon="-1.0413">
        <ele>124</ele>
        <time>2011-05-01T07:30:43Z</time>
      </trkpt>
      <trkpt lat="47.06461" lon="-1.0418">
        <ele>126</ele>
        <time>2011-05-01T07:30:53Z</time>
      </trkpt>
      <trkpt lat="47.06504" lon="-1.04295">
        <ele>126</ele>
        <time>2011-05-01T07:31:10Z</time>
      </trkpt>
      <trkpt lat="47.06599" lon="-1.04417">
        <ele>123</ele>
        <time>2011-05-01T07:31:29Z</time>
      </trkpt>
      <trkpt lat="47.06605" lon="-1.04423">
        <ele>123</ele>
        <time>2011-05-01T07:31:30Z</time>
      </trkpt>
      <trkpt lat="47.06655" lon="-1.04462">
        <ele>121</ele>
        <time>2011-05-01T07:31:37Z</time>
      </trkpt>
      <trkpt lat="47.06707" lon="-1.04501">
        <ele>119</ele>
        <time>2011-05-01T07:31:43Z</time>
      </trkpt>
      <trkpt lat="47.06793" lon="-1.04564">
        <ele>117</ele>
        <time>2011-05-01T07:31:52Z</time>
      </trkpt>
      <trkpt lat="47.06948" lon="-1.04683">
        <ele>115</ele>
        <time>2011-05-01T07:32:10Z</time>
      </trkpt>
      <trkpt lat="47.06958" lon="-1.04671">
        <ele>115</ele>
        <time>2011-05-01T07:32:15Z</time>
      </trkpt>
      <trkpt lat="47.07027" lon="-1.04635">
        <ele>113</ele>
        <time>2011-05-01T07:32:29Z</time>
      </trkpt>
      <trkpt lat="47.0714" lon="-1.04576">
        <ele>112</ele>
        <time>2011-05-01T07:32:47Z</time>
      </trkpt>
      <trkpt lat="47.07173" lon="-1.04562">
        <ele>111</ele>
        <time>2011-05-01T07:32:52Z</time>
      </trkpt>
      <trkpt lat="47.07281" lon="-1.0455">
        <ele>108</ele>
        <time>2011-05-01T07:33:10Z</time>
      </trkpt>
      <trkpt lat="47.07312" lon="-1.04537">
        <ele>108</ele>
        <time>2011-05-01T07:33:12Z</time>
      </trkpt>
      <trkpt lat="47.07329" lon="-1.0453">
        <ele>107</ele>
        <time>2011-05-01T07:33:14Z</time>
      </trkpt>
      <trkpt lat="47.07339" lon="-1.04526">
        <ele>104</ele>
        <time>2011-05-01T07:33:15Z</time>
      </trkpt>
      <trkpt lat="47.07348" lon="-1.04522">
        <ele>104</ele>
        <time>2011-05-01T07:33:16Z</time>
      </trkpt>
      <trkpt lat="47.07369" lon="-1.04513">
        <ele>102</ele>
        <time>2011-05-01T07:33:18Z</time>
      </trkpt>
      <trkpt lat="47.07371" lon="-1.04512">
        <ele>102</ele>
        <time>2011-05-01T07:33:20Z</time>
      </trkpt>
      <trkpt lat="47.074" lon="-1.045">
        <ele>99</ele>
        <time>2011-05-01T07:33:21Z</time>
      </trkpt>
      <trkpt lat="47.07422" lon="-1.04491">
        <ele>96</ele>
        <time>2011-05-01T07:33:23Z</time>
      </trkpt>
      <trkpt lat="47.07445" lon="-1.04481">
        <ele>95</ele>
        <time>2011-05-01T07:33:25Z</time>
      </trkpt>
      <trkpt lat="47.07456" lon="-1.04476">
        <ele>95</ele>
        <time>2011-05-01T07:33:26Z</time>
      </trkpt>
      <trkpt lat="47.07479" lon="-1.04466">
        <ele>94</ele>
        <time>2011-05-01T07:33:28Z</time>
      </trkpt>
      <trkpt lat="47.07522" lon="-1.04443">
        <ele>91</ele>
        <time>2011-05-01T07:33:32Z</time>
      </trkpt>
      <trkpt lat="47.07588" lon="-1.0442">
        <ele>89</ele>
        <time>2011-05-01T07:33:38Z</time>
      </trkpt>
      <trkpt lat="47.07599" lon="-1.04419">
        <ele>89</ele>
        <time>2011-05-01T07:33:39Z</time>
      </trkpt>
      <trkpt lat="47.07621" lon="-1.04418">
        <ele>89</ele>
        <time>2011-05-01T07:33:41Z</time>
      </trkpt>
      <trkpt lat="47.07674" lon="-1.04405">
        <ele>88</ele>
        <time>2011-05-01T07:33:47Z</time>
      </trkpt>
      <trkpt lat="47.07676" lon="-1.04404">
        <ele>88</ele>
        <time>2011-05-01T07:33:49Z</time>
      </trkpt>
      <trkpt lat="47.0771" lon="-1.04478">
        <ele>88</ele>
        <time>2011-05-01T07:33:58Z</time>
      </trkpt>
      <trkpt lat="47.0781" lon="-1.04633">
        <ele>86</ele>
        <time>2011-05-01T07:34:17Z</time>
      </trkpt>
      <trkpt lat="47.07884" lon="-1.04707">
        <ele>82</ele>
        <time>2011-05-01T07:34:27Z</time>
      </trkpt>
      <trkpt lat="47.07931" lon="-1.04754">
        <ele>79</ele>
        <time>2011-05-01T07:34:33Z</time>
      </trkpt>
      <trkpt lat="47.07938" lon="-1.04762">
        <ele>79</ele>
        <time>2011-05-01T07:34:34Z</time>
      </trkpt>
      <trkpt lat="47.07958" lon="-1.04795">
        <ele>78</ele>
        <time>2011-05-01T07:34:37Z</time>
      </trkpt>
      <trkpt lat="47.07964" lon="-1.04807">
        <ele>78</ele>
        <time>2011-05-01T07:34:38Z</time>
      </trkpt>
      <trkpt lat="47.07996" lon="-1.04875">
        <ele>77</ele>
        <time>2011-05-01T07:34:44Z</time>
      </trkpt>
      <trkpt lat="47.08061" lon="-1.05023">
        <ele>77</ele>
        <time>2011-05-01T07:35:00Z</time>
      </trkpt>
      <trkpt lat="47.08065" lon="-1.05032">
        <ele>77</ele>
        <time>2011-05-01T07:35:01Z</time>
      </trkpt>
      <trkpt lat="47.08108" lon="-1.05087">
        <ele>77</ele>
        <time>2011-05-01T07:35:09Z</time>
      </trkpt>
      <trkpt lat="47.08122" lon="-1.05091">
        <ele>77</ele>
        <time>2011-05-01T07:35:11Z</time>
      </trkpt>
      <trkpt lat="47.08143" lon="-1.05096">
        <ele>78</ele>
        <time>2011-05-01T07:35:14Z</time>
      </trkpt>
      <trkpt lat="47.08176" lon="-1.05106">
        <ele>78</ele>
        <time>2011-05-01T07:35:19Z</time>
      </trkpt>
      <trkpt lat="47.08243" lon="-1.0516">
        <ele>79</ele>
        <time>2011-05-01T07:35:30Z</time>
      </trkpt>
      <trkpt lat="47.0826" lon="-1.05172">
        <ele>79</ele>
        <time>2011-05-01T07:35:33Z</time>
      </trkpt>
      <trkpt lat="47.0826" lon="-1.05173">
        <ele>79</ele>
        <time>2011-05-01T07:35:34Z</time>
      </trkpt>
      <trkpt lat="47.0826" lon="-1.05173">
        <ele>79</ele>
        <time>2011-05-01T07:35:36Z</time>
      </trkpt>
      <trkpt lat="47.08242" lon="-1.05158">
        <ele>79</ele>
        <time>2011-05-01T07:35:42Z</time>
      </trkpt>
      <trkpt lat="47.08194" lon="-1.05219">
        <ele>81</ele>
        <time>2011-05-01T07:35:48Z</time>
      </trkpt>
      <trkpt lat="47.08174" lon="-1.05245">
        <ele>82</ele>
        <time>2011-05-01T07:35:54Z</time>
      </trkpt>
      <trkpt lat="47.0817" lon="-1.05265">
        <ele>82</ele>
        <time>2011-05-01T07:35:57Z</time>
      </trkpt>
      <trkpt lat="47.0816" lon="-1.05357">
        <ele>82</ele>
        <time>2011-05-01T07:36:12Z</time>
      </trkpt>
      <trkpt lat="47.08154" lon="-1.05379">
        <ele>83</ele>
        <time>2011-05-01T07:36:16Z</time>
      </trkpt>
      <trkpt lat="47.08109" lon="-1.05467">
        <ele>83</ele>
        <time>2011-05-01T07:36:34Z</time>
      </trkpt>
      <trkpt lat="47.08056" lon="-1.05572">
        <ele>86</ele>
        <time>2011-05-01T07:36:56Z</time>
      </trkpt>
      <trkpt lat="47.08045" lon="-1.05594">
        <ele>87</ele>
        <time>2011-05-01T07:37:01Z</time>
      </trkpt>
      <trkpt lat="47.08076" lon="-1.05617">
        <ele>86</ele>
        <time>2011-05-01T07:37:09Z</time>
      </trkpt>
      <trkpt lat="47.0812" lon="-1.05675">
        <ele>84</ele>
        <time>2011-05-01T07:37:18Z</time>
      </trkpt>
      <trkpt lat="47.08131" lon="-1.05683">
        <ele>84</ele>
        <time>2011-05-01T07:37:22Z</time>
      </trkpt>
      <trkpt lat="47.0813" lon="-1.05681">
        <ele>84</ele>
        <time>2011-05-01T07:37:24Z</time>
      </trkpt>
      <trkpt lat="47.08081" lon="-1.05757">
        <ele>86</ele>
        <time>2011-05-01T07:37:37Z</time>
      </trkpt>
      <trkpt lat="47.08024" lon="-1.0581">
        <ele>88</ele>
        <time>2011-05-01T07:37:53Z</time>
      </trkpt>
      <trkpt lat="47.07983" lon="-1.05846">
        <ele>90</ele>
        <time>2011-05-01T07:38:06Z</time>
      </trkpt>
      <trkpt lat="47.07949" lon="-1.0585">
        <ele>91</ele>
        <time>2011-05-01T07:38:16Z</time>
      </trkpt>
      <trkpt lat="47.07941" lon="-1.05863">
        <ele>91</ele>
        <time>2011-05-01T07:38:20Z</time>
      </trkpt>
      <trkpt lat="47.07941" lon="-1.05932">
        <ele>92</ele>
        <time>2011-05-01T07:38:32Z</time>
      </trkpt>
      <trkpt lat="47.07974" lon="-1.06079">
        <ele>92</ele>
        <time>2011-05-01T07:38:56Z</time>
      </trkpt>
      <trkpt lat="47.07984" lon="-1.06129">
        <ele>93</ele>
        <time>2011-05-01T07:39:04Z</time>
      </trkpt>
      <trkpt lat="47.07987" lon="-1.0615">
        <ele>94</ele>
        <time>2011-05-01T07:39:07Z</time>
      </trkpt>
      <trkpt lat="47.08002" lon="-1.06235">
        <ele>95</ele>
        <time>2011-05-01T07:39:20Z</time>
      </trkpt>
      <trkpt lat="47.08005" lon="-1.06305">
        <ele>94</ele>
        <time>2011-05-01T07:39:30Z</time>
      </trkpt>
      <trkpt lat="47.08026" lon="-1.06313">
        <ele>93</ele>
        <time>2011-05-01T07:39:36Z</time>
      </trkpt>
      <trkpt lat="47.08034" lon="-1.06311">
        <ele>93</ele>
        <time>2011-05-01T07:39:38Z</time>
      </trkpt>
      <trkpt lat="47.0811" lon="-1.06292">
        <ele>92</ele>
        <time>2011-05-01T07:39:53Z</time>
      </trkpt>
      <trkpt lat="47.0813" lon="-1.06289">
        <ele>92</ele>
        <time>2011-05-01T07:40:01Z</time>
      </trkpt>
      <trkpt lat="47.0813" lon="-1.06288">
        <ele>92</ele>
        <time>2011-05-01T07:40:02Z</time>
      </trkpt>
      <trkpt lat="47.0813" lon="-1.06275">
        <ele>92</ele>
        <time>2011-05-01T07:40:13Z</time>
      </trkpt>
      <trkpt lat="47.0813" lon="-1.06264">
        <ele>92</ele>
        <time>2011-05-01T07:40:24Z</time>
      </trkpt>
      <trkpt lat="47.08128" lon="-1.06253">
        <ele>93</ele>
        <time>2011-05-01T07:40:37Z</time>
      </trkpt>
      <trkpt lat="47.08126" lon="-1.06239">
        <ele>94</ele>
        <time>2011-05-01T07:40:51Z</time>
      </trkpt>
      <trkpt lat="47.08132" lon="-1.06226">
        <ele>94</ele>
        <time>2011-05-01T07:41:04Z</time>
      </trkpt>
      <trkpt lat="47.08156" lon="-1.06203">
        <ele>94</ele>
        <time>2011-05-01T07:41:17Z</time>
      </trkpt>
      <trkpt lat="47.08205" lon="-1.06145">
        <ele>93</ele>
        <time>2011-05-01T07:41:36Z</time>
      </trkpt>
      <trkpt lat="47.08242" lon="-1.06089">
        <ele>92</ele>
        <time>2011-05-01T07:41:52Z</time>
      </trkpt>
      <trkpt lat="47.08244" lon="-1.06087">
        <ele>91</ele>
        <time>2011-05-01T07:41:53Z</time>
      </trkpt>
      <trkpt lat="47.08248" lon="-1.06082">
        <ele>91</ele>
        <time>2011-05-01T07:41:55Z</time>
      </trkpt>
      <trkpt lat="47.08252" lon="-1.06076">
        <ele>90</ele>
        <time>2011-05-01T07:41:57Z</time>
      </trkpt>
      <trkpt lat="47.08256" lon="-1.06069">
        <ele>89</ele>
        <time>2011-05-01T07:41:59Z</time>
      </trkpt>
      <trkpt lat="47.08258" lon="-1.06065">
        <ele>89</ele>
        <time>2011-05-01T07:42:00Z</time>
      </trkpt>
      <trkpt lat="47.08258" lon="-1.06057">
        <ele>89</ele>
        <time>2011-05-01T07:42:02Z</time>
      </trkpt>
      <trkpt lat="47.0825" lon="-1.06038">
        <ele>88</ele>
        <time>2011-05-01T07:42:08Z</time>
      </trkpt>
      <trkpt lat="47.08249" lon="-1.06017">
        <ele>91</ele>
        <time>2011-05-01T07:42:18Z</time>
      </trkpt>
      <trkpt lat="47.08239" lon="-1.06019">
        <ele>91</ele>
        <time>2011-05-01T07:42:23Z</time>
      </trkpt>
      <trkpt lat="47.08231" lon="-1.06021">
        <ele>91</ele>
        <time>2011-05-01T07:42:27Z</time>
      </trkpt>
      <trkpt lat="47.08227" lon="-1.06025">
        <ele>91</ele>
        <time>2011-05-01T07:42:35Z</time>
      </trkpt>
      <trkpt lat="47.08219" lon="-1.06031">
        <ele>92</ele>
        <time>2011-05-01T07:42:47Z</time>
      </trkpt>
      <trkpt lat="47.08213" lon="-1.06033">
        <ele>92</ele>
        <time>2011-05-01T07:42:59Z</time>
      </trkpt>
      <trkpt lat="47.08185" lon="-1.05989">
        <ele>91</ele>
        <time>2011-05-01T07:43:14Z</time>
      </trkpt>
      <trkpt lat="47.08179" lon="-1.05978">
        <ele>90</ele>
        <time>2011-05-01T07:43:16Z</time>
      </trkpt>
      <trkpt lat="47.08161" lon="-1.05944">
        <ele>89</ele>
        <time>2011-05-01T07:43:21Z</time>
      </trkpt>
      <trkpt lat="47.08153" lon="-1.05927">
        <ele>88</ele>
        <time>2011-05-01T07:43:23Z</time>
      </trkpt>
      <trkpt lat="47.08145" lon="-1.05911">
        <ele>87</ele>
        <time>2011-05-01T07:43:25Z</time>
      </trkpt>
      <trkpt lat="47.08142" lon="-1.05904">
        <ele>87</ele>
        <time>2011-05-01T07:43:26Z</time>
      </trkpt>
      <trkpt lat="47.0815" lon="-1.05864">
        <ele>86</ele>
        <time>2011-05-01T07:43:33Z</time>
      </trkpt>
      <trkpt lat="47.08156" lon="-1.05858">
        <ele>86</ele>
        <time>2011-05-01T07:43:34Z</time>
      </trkpt>
      <trkpt lat="47.08161" lon="-1.05853">
        <ele>86</ele>
        <time>2011-05-01T07:43:35Z</time>
      </trkpt>
      <trkpt lat="47.08173" lon="-1.05847">
        <ele>86</ele>
        <time>2011-05-01T07:43:37Z</time>
      </trkpt>
      <trkpt lat="47.08195" lon="-1.05832">
        <ele>85</ele>
        <time>2011-05-01T07:43:41Z</time>
      </trkpt>
      <trkpt lat="47.08234" lon="-1.05792">
        <ele>84</ele>
        <time>2011-05-01T07:43:49Z</time>
      </trkpt>
      <trkpt lat="47.08247" lon="-1.05801">
        <ele>84</ele>
        <time>2011-05-01T07:43:53Z</time>
      </trkpt>
      <trkpt lat="47.08314" lon="-1.05914">
        <ele>85</ele>
        <time>2011-05-01T07:44:13Z</time>
      </trkpt>
      <trkpt lat="47.08396" lon="-1.06043">
        <ele>84</ele>
        <time>2011-05-01T07:44:33Z</time>
      </trkpt>
      <trkpt lat="47.08459" lon="-1.06113">
        <ele>82</ele>
        <time>2011-05-01T07:44:45Z</time>
      </trkpt>
      <trkpt lat="47.08487" lon="-1.0614">
        <ele>81</ele>
        <time>2011-05-01T07:44:49Z</time>
      </trkpt>
      <trkpt lat="47.08544" lon="-1.06186">
        <ele>82</ele>
        <time>2011-05-01T07:44:58Z</time>
      </trkpt>
      <trkpt lat="47.08555" lon="-1.06193">
        <ele>82</ele>
        <time>2011-05-01T07:45:00Z</time>
      </trkpt>
      <trkpt lat="47.08655" lon="-1.06251">
        <ele>83</ele>
        <time>2011-05-01T07:45:18Z</time>
      </trkpt>
      <trkpt lat="47.08717" lon="-1.06261">
        <ele>84</ele>
        <time>2011-05-01T07:45:27Z</time>
      </trkpt>
      <trkpt lat="47.08742" lon="-1.06259">
        <ele>84</ele>
        <time>2011-05-01T07:45:31Z</time>
      </trkpt>
      <trkpt lat="47.08776" lon="-1.06252">
        <ele>85</ele>
        <time>2011-05-01T07:45:37Z</time>
      </trkpt>
      <trkpt lat="47.08823" lon="-1.06194">
        <ele>84</ele>
        <time>2011-05-01T07:45:48Z</time>
      </trkpt>
      <trkpt lat="47.0886" lon="-1.06147">
        <ele>83</ele>
        <time>2011-05-01T07:46:02Z</time>
      </trkpt>
      <trkpt lat="47.08878" lon="-1.0613">
        <ele>83</ele>
        <time>2011-05-01T07:46:03Z</time>
      </trkpt>
      <trkpt lat="47.08951" lon="-1.06075">
        <ele>81</ele>
        <time>2011-05-01T07:46:16Z</time>
      </trkpt>
      <trkpt lat="47.09056" lon="-1.06012">
        <ele>79</ele>
        <time>2011-05-01T07:46:32Z</time>
      </trkpt>
      <trkpt lat="47.09063" lon="-1.06008">
        <ele>78</ele>
        <time>2011-05-01T07:46:33Z</time>
      </trkpt>
      <trkpt lat="47.091" lon="-1.05989">
        <ele>76</ele>
        <time>2011-05-01T07:46:40Z</time>
      </trkpt>
      <trkpt lat="47.09101" lon="-1.05988">
        <ele>76</ele>
        <time>2011-05-01T07:46:42Z</time>
      </trkpt>
      <trkpt lat="47.09124" lon="-1.0597">
        <ele>76</ele>
        <time>2011-05-01T07:46:47Z</time>
      </trkpt>
      <trkpt lat="47.09215" lon="-1.05876">
        <ele>72</ele>
        <time>2011-05-01T07:47:06Z</time>
      </trkpt>
      <trkpt lat="47.09239" lon="-1.05868">
        <ele>71</ele>
        <time>2011-05-01T07:47:11Z</time>
      </trkpt>
      <trkpt lat="47.09272" lon="-1.05879">
        <ele>68</ele>
        <time>2011-05-01T07:47:17Z</time>
      </trkpt>
      <trkpt lat="47.09275" lon="-1.0588">
        <ele>68</ele>
        <time>2011-05-01T07:47:18Z</time>
      </trkpt>
      <trkpt lat="47.09269" lon="-1.05902">
        <ele>69</ele>
        <time>2011-05-01T07:47:23Z</time>
      </trkpt>
      <trkpt lat="47.09252" lon="-1.05948">
        <ele>71</ele>
        <time>2011-05-01T07:47:31Z</time>
      </trkpt>
      <trkpt lat="47.09268" lon="-1.05969">
        <ele>71</ele>
        <time>2011-05-01T07:47:40Z</time>
      </trkpt>
      <trkpt lat="47.09279" lon="-1.05976">
        <ele>71</ele>
        <time>2011-05-01T07:47:43Z</time>
      </trkpt>
      <trkpt lat="47.09314" lon="-1.05999">
        <ele>70</ele>
        <time>2011-05-01T07:47:53Z</time>
      </trkpt>
      <trkpt lat="47.0931" lon="-1.06027">
        <ele>72</ele>
        <time>2011-05-01T07:48:00Z</time>
      </trkpt>
      <trkpt lat="47.09305" lon="-1.06036">
        <ele>73</ele>
        <time>2011-05-01T07:48:02Z</time>
      </trkpt>
      <trkpt lat="47.09309" lon="-1.06058">
        <ele>73</ele>
        <time>2011-05-01T07:48:06Z</time>
      </trkpt>
      <trkpt lat="47.09367" lon="-1.06172">
        <ele>76</ele>
        <time>2011-05-01T07:48:28Z</time>
      </trkpt>
      <trkpt lat="47.0937" lon="-1.06179">
        <ele>76</ele>
        <time>2011-05-01T07:48:30Z</time>
      </trkpt>
      <trkpt lat="47.09376" lon="-1.06184">
        <ele>76</ele>
        <time>2011-05-01T07:48:38Z</time>
      </trkpt>
      <trkpt lat="47.09423" lon="-1.06115">
        <ele>72</ele>
        <time>2011-05-01T07:48:54Z</time>
      </trkpt>
      <trkpt lat="47.09429" lon="-1.06107">
        <ele>72</ele>
        <time>2011-05-01T07:48:56Z</time>
      </trkpt>
      <trkpt lat="47.09464" lon="-1.06061">
        <ele>69</ele>
        <time>2011-05-01T07:49:07Z</time>
      </trkpt>
      <trkpt lat="47.09479" lon="-1.06084">
        <ele>70</ele>
        <time>2011-05-01T07:49:15Z</time>
      </trkpt>
      <trkpt lat="47.09495" lon="-1.06115">
        <ele>70</ele>
        <time>2011-05-01T07:49:22Z</time>
      </trkpt>
      <trkpt lat="47.09503" lon="-1.06125">
        <ele>65</ele>
        <time>2011-05-01T07:49:24Z</time>
      </trkpt>
      <trkpt lat="47.09523" lon="-1.06152">
        <ele>65</ele>
        <time>2011-05-01T07:49:28Z</time>
      </trkpt>
      <trkpt lat="47.0954" lon="-1.06195">
        <ele>65</ele>
        <time>2011-05-01T07:49:34Z</time>
      </trkpt>
      <trkpt lat="47.09552" lon="-1.06214">
        <ele>65</ele>
        <time>2011-05-01T07:49:38Z</time>
      </trkpt>
      <trkpt lat="47.09556" lon="-1.0622">
        <ele>65</ele>
        <time>2011-05-01T07:49:40Z</time>
      </trkpt>
      <trkpt lat="47.09563" lon="-1.06225">
        <ele>65</ele>
        <time>2011-05-01T07:49:51Z</time>
      </trkpt>
      <trkpt lat="47.09567" lon="-1.06224">
        <ele>65</ele>
        <time>2011-05-01T07:49:55Z</time>
      </trkpt>
      <trkpt lat="47.0957" lon="-1.06219">
        <ele>65</ele>
        <time>2011-05-01T07:49:59Z</time>
      </trkpt>
      <trkpt lat="47.09587" lon="-1.06184">
        <ele>60</ele>
        <time>2011-05-01T07:50:10Z</time>
      </trkpt>
      <trkpt lat="47.09591" lon="-1.06176">
        <ele>60</ele>
        <time>2011-05-01T07:50:12Z</time>
      </trkpt>
      <trkpt lat="47.09594" lon="-1.06157">
        <ele>58</ele>
        <time>2011-05-01T07:50:15Z</time>
      </trkpt>
      <trkpt lat="47.09595" lon="-1.0615">
        <ele>57</ele>
        <time>2011-05-01T07:50:16Z</time>
      </trkpt>
      <trkpt lat="47.09603" lon="-1.06123">
        <ele>56</ele>
        <time>2011-05-01T07:50:20Z</time>
      </trkpt>
      <trkpt lat="47.09608" lon="-1.06112">
        <ele>55</ele>
        <time>2011-05-01T07:50:22Z</time>
      </trkpt>
      <trkpt lat="47.09613" lon="-1.06105">
        <ele>55</ele>
        <time>2011-05-01T07:50:24Z</time>
      </trkpt>
      <trkpt lat="47.09622" lon="-1.06095">
        <ele>54</ele>
        <time>2011-05-01T07:50:27Z</time>
      </trkpt>
      <trkpt lat="47.09634" lon="-1.06089">
        <ele>53</ele>
        <time>2011-05-01T07:50:30Z</time>
      </trkpt>
      <trkpt lat="47.09648" lon="-1.0608">
        <ele>50</ele>
        <time>2011-05-01T07:50:33Z</time>
      </trkpt>
      <trkpt lat="47.09669" lon="-1.06066">
        <ele>45</ele>
        <time>2011-05-01T07:50:39Z</time>
      </trkpt>
      <trkpt lat="47.09682" lon="-1.06076">
        <ele>45</ele>
        <time>2011-05-01T07:50:42Z</time>
      </trkpt>
      <trkpt lat="47.09687" lon="-1.0608">
        <ele>45</ele>
        <time>2011-05-01T07:50:43Z</time>
      </trkpt>
      <trkpt lat="47.09697" lon="-1.0609">
        <ele>47</ele>
        <time>2011-05-01T07:50:45Z</time>
      </trkpt>
      <trkpt lat="47.09726" lon="-1.06113">
        <ele>45</ele>
        <time>2011-05-01T07:50:50Z</time>
      </trkpt>
      <trkpt lat="47.09786" lon="-1.06177">
        <ele>48</ele>
        <time>2011-05-01T07:51:01Z</time>
      </trkpt>
      <trkpt lat="47.0985" lon="-1.06227">
        <ele>49</ele>
        <time>2011-05-01T07:51:13Z</time>
      </trkpt>
      <trkpt lat="47.09853" lon="-1.06229">
        <ele>49</ele>
        <time>2011-05-01T07:51:15Z</time>
      </trkpt>
      <trkpt lat="47.09858" lon="-1.06232">
        <ele>49</ele>
        <time>2011-05-01T07:51:18Z</time>
      </trkpt>
      <trkpt lat="47.0987" lon="-1.06237">
        <ele>49</ele>
        <time>2011-05-01T07:51:27Z</time>
      </trkpt>
      <trkpt lat="47.09897" lon="-1.06254">
        <ele>54</ele>
        <time>2011-05-01T07:51:42Z</time>
      </trkpt>
      <trkpt lat="47.09915" lon="-1.06267">
        <ele>54</ele>
        <time>2011-05-01T07:51:56Z</time>
      </trkpt>
      <trkpt lat="47.09928" lon="-1.0628">
        <ele>52</ele>
        <time>2011-05-01T07:52:06Z</time>
      </trkpt>
      <trkpt lat="47.09937" lon="-1.06289">
        <ele>53</ele>
        <time>2011-05-01T07:52:16Z</time>
      </trkpt>
      <trkpt lat="47.0995" lon="-1.0631">
        <ele>54</ele>
        <time>2011-05-01T07:52:25Z</time>
      </trkpt>
      <trkpt lat="47.09954" lon="-1.06327">
        <ele>55</ele>
        <time>2011-05-01T07:52:34Z</time>
      </trkpt>
      <trkpt lat="47.09958" lon="-1.06347">
        <ele>60</ele>
        <time>2011-05-01T07:52:43Z</time>
      </trkpt>
      <trkpt lat="47.0996" lon="-1.06349">
        <ele>60</ele>
        <time>2011-05-01T07:52:44Z</time>
      </trkpt>
      <trkpt lat="47.09967" lon="-1.06371">
        <ele>61</ele>
        <time>2011-05-01T07:52:55Z</time>
      </trkpt>
      <trkpt lat="47.09975" lon="-1.064">
        <ele>61</ele>
        <time>2011-05-01T07:53:06Z</time>
      </trkpt>
      <trkpt lat="47.09979" lon="-1.06426">
        <ele>63</ele>
        <time>2011-05-01T07:53:15Z</time>
      </trkpt>
      <trkpt lat="47.09986" lon="-1.06436">
        <ele>63</ele>
        <time>2011-05-01T07:53:20Z</time>
      </trkpt>
      <trkpt lat="47.0997" lon="-1.06471">
        <ele>64</ele>
        <time>2011-05-01T07:53:36Z</time>
      </trkpt>
      <trkpt lat="47.09942" lon="-1.06504">
        <ele>66</ele>
        <time>2011-05-01T07:53:52Z</time>
      </trkpt>
      <trkpt lat="47.09914" lon="-1.0653">
        <ele>72</ele>
        <time>2011-05-01T07:54:06Z</time>
      </trkpt>
      <trkpt lat="47.09903" lon="-1.06548">
        <ele>72</ele>
        <time>2011-05-01T07:54:13Z</time>
      </trkpt>
      <trkpt lat="47.09904" lon="-1.06556">
        <ele>72</ele>
        <time>2011-05-01T07:54:25Z</time>
      </trkpt>
      <trkpt lat="47.09904" lon="-1.06556">
        <ele>72</ele>
        <time>2011-05-01T07:54:42Z</time>
      </trkpt>
      <trkpt lat="47.09929" lon="-1.06577">
        <ele>66</ele>
        <time>2011-05-01T07:54:53Z</time>
      </trkpt>
      <trkpt lat="47.09901" lon="-1.06551">
        <ele>72</ele>
        <time>2011-05-01T07:54:59Z</time>
      </trkpt>
      <trkpt lat="47.09932" lon="-1.06627">
        <ele>59</ele>
        <time>2011-05-01T07:55:02Z</time>
      </trkpt>
      <trkpt lat="47.0993" lon="-1.06644">
        <ele>59</ele>
        <time>2011-05-01T07:55:04Z</time>
      </trkpt>
      <trkpt lat="47.09928" lon="-1.06652">
        <ele>60</ele>
        <time>2011-05-01T07:55:05Z</time>
      </trkpt>
      <trkpt lat="47.09927" lon="-1.06666">
        <ele>61</ele>
        <time>2011-05-01T07:55:07Z</time>
      </trkpt>
      <trkpt lat="47.09926" lon="-1.06672">
        <ele>58</ele>
        <time>2011-05-01T07:55:08Z</time>
      </trkpt>
      <trkpt lat="47.09918" lon="-1.06708">
        <ele>52</ele>
        <time>2011-05-01T07:55:15Z</time>
      </trkpt>
      <trkpt lat="47.09916" lon="-1.06714">
        <ele>62</ele>
        <time>2011-05-01T07:55:16Z</time>
      </trkpt>
      <trkpt lat="47.09909" lon="-1.06744">
        <ele>56</ele>
        <time>2011-05-01T07:55:21Z</time>
      </trkpt>
      <trkpt lat="47.09899" lon="-1.06792">
        <ele>55</ele>
        <time>2011-05-01T07:55:32Z</time>
      </trkpt>
      <trkpt lat="47.09884" lon="-1.06825">
        <ele>55</ele>
        <time>2011-05-01T07:55:43Z</time>
      </trkpt>
      <trkpt lat="47.09878" lon="-1.0684">
        <ele>53</ele>
        <time>2011-05-01T07:55:53Z</time>
      </trkpt>
      <trkpt lat="47.09872" lon="-1.06853">
        <ele>54</ele>
        <time>2011-05-01T07:55:59Z</time>
      </trkpt>
      <trkpt lat="47.09868" lon="-1.06862">
        <ele>54</ele>
        <time>2011-05-01T07:56:05Z</time>
      </trkpt>
      <trkpt lat="47.09866" lon="-1.06871">
        <ele>54</ele>
        <time>2011-05-01T07:56:11Z</time>
      </trkpt>
      <trkpt lat="47.09869" lon="-1.0688">
        <ele>53</ele>
        <time>2011-05-01T07:56:14Z</time>
      </trkpt>
      <trkpt lat="47.09872" lon="-1.06895">
        <ele>53</ele>
        <time>2011-05-01T07:56:18Z</time>
      </trkpt>
      <trkpt lat="47.09881" lon="-1.06931">
        <ele>51</ele>
        <time>2011-05-01T07:56:26Z</time>
      </trkpt>
      <trkpt lat="47.09882" lon="-1.06945">
        <ele>52</ele>
        <time>2011-05-01T07:56:28Z</time>
      </trkpt>
      <trkpt lat="47.09883" lon="-1.06952">
        <ele>52</ele>
        <time>2011-05-01T07:56:29Z</time>
      </trkpt>
      <trkpt lat="47.09889" lon="-1.06968">
        <ele>51</ele>
        <time>2011-05-01T07:56:32Z</time>
      </trkpt>
      <trkpt lat="47.09897" lon="-1.07015">
        <ele>52</ele>
        <time>2011-05-01T07:56:42Z</time>
      </trkpt>
      <trkpt lat="47.0989" lon="-1.0707">
        <ele>55</ele>
        <time>2011-05-01T07:56:52Z</time>
      </trkpt>
      <trkpt lat="47.099" lon="-1.07098">
        <ele>55</ele>
        <time>2011-05-01T07:56:56Z</time>
      </trkpt>
      <trkpt lat="47.09914" lon="-1.07154">
        <ele>56</ele>
        <time>2011-05-01T07:57:06Z</time>
      </trkpt>
      <trkpt lat="47.0993" lon="-1.07196">
        <ele>51</ele>
        <time>2011-05-01T07:57:13Z</time>
      </trkpt>
      <trkpt lat="47.09942" lon="-1.07239">
        <ele>52</ele>
        <time>2011-05-01T07:57:22Z</time>
      </trkpt>
      <trkpt lat="47.09945" lon="-1.07248">
        <ele>52</ele>
        <time>2011-05-01T07:57:25Z</time>
      </trkpt>
      <trkpt lat="47.09954" lon="-1.07272">
        <ele>52</ele>
        <time>2011-05-01T07:57:32Z</time>
      </trkpt>
      <trkpt lat="47.09963" lon="-1.07326">
        <ele>52</ele>
        <time>2011-05-01T07:57:41Z</time>
      </trkpt>
      <trkpt lat="47.09965" lon="-1.07406">
        <ele>51</ele>
        <time>2011-05-01T07:57:56Z</time>
      </trkpt>
      <trkpt lat="47.09972" lon="-1.0747">
        <ele>49</ele>
        <time>2011-05-01T07:58:08Z</time>
      </trkpt>
      <trkpt lat="47.09976" lon="-1.0751">
        <ele>48</ele>
        <time>2011-05-01T07:58:16Z</time>
      </trkpt>
      <trkpt lat="47.09991" lon="-1.07565">
        <ele>46</ele>
        <time>2011-05-01T07:58:28Z</time>
      </trkpt>
      <trkpt lat="47.09987" lon="-1.07581">
        <ele>45</ele>
        <time>2011-05-01T07:58:32Z</time>
      </trkpt>
      <trkpt lat="47.09972" lon="-1.07652">
        <ele>47</ele>
        <time>2011-05-01T07:58:51Z</time>
      </trkpt>
      <trkpt lat="47.09971" lon="-1.07704">
        <ele>48</ele>
        <time>2011-05-01T07:59:07Z</time>
      </trkpt>
      <trkpt lat="47.09965" lon="-1.07771">
        <ele>48</ele>
        <time>2011-05-01T07:59:23Z</time>
      </trkpt>
      <trkpt lat="47.0995" lon="-1.078">
        <ele>48</ele>
        <time>2011-05-01T07:59:34Z</time>
      </trkpt>
      <trkpt lat="47.09929" lon="-1.0784">
        <ele>48</ele>
        <time>2011-05-01T07:59:49Z</time>
      </trkpt>
      <trkpt lat="47.09918" lon="-1.07857">
        <ele>47</ele>
        <time>2011-05-01T07:59:57Z</time>
      </trkpt>
      <trkpt lat="47.0991" lon="-1.07863">
        <ele>54</ele>
        <time>2011-05-01T08:00:01Z</time>
      </trkpt>
      <trkpt lat="47.09903" lon="-1.07875">
        <ele>54</ele>
        <time>2011-05-01T08:00:06Z</time>
      </trkpt>
      <trkpt lat="47.09888" lon="-1.07916">
        <ele>54</ele>
        <time>2011-05-01T08:00:18Z</time>
      </trkpt>
      <trkpt lat="47.09878" lon="-1.07952">
        <ele>51</ele>
        <time>2011-05-01T08:00:30Z</time>
      </trkpt>
      <trkpt lat="47.0985" lon="-1.07966">
        <ele>54</ele>
        <time>2011-05-01T08:00:40Z</time>
      </trkpt>
      <trkpt lat="47.09844" lon="-1.07967">
        <ele>54</ele>
        <time>2011-05-01T08:00:42Z</time>
      </trkpt>
      <trkpt lat="47.09835" lon="-1.07965">
        <ele>55</ele>
        <time>2011-05-01T08:00:46Z</time>
      </trkpt>
      <trkpt lat="47.09803" lon="-1.07966">
        <ele>63</ele>
        <time>2011-05-01T08:00:58Z</time>
      </trkpt>
      <trkpt lat="47.09801" lon="-1.07965">
        <ele>63</ele>
        <time>2011-05-01T08:00:59Z</time>
      </trkpt>
      <trkpt lat="47.09784" lon="-1.07949">
        <ele>64</ele>
        <time>2011-05-01T08:01:09Z</time>
      </trkpt>
      <trkpt lat="47.09778" lon="-1.07943">
        <ele>64</ele>
        <time>2011-05-01T08:01:13Z</time>
      </trkpt>
      <trkpt lat="47.09768" lon="-1.07931">
        <ele>64</ele>
        <time>2011-05-01T08:01:19Z</time>
      </trkpt>
      <trkpt lat="47.09766" lon="-1.07929">
        <ele>65</ele>
        <time>2011-05-01T08:01:20Z</time>
      </trkpt>
      <trkpt lat="47.09757" lon="-1.07907">
        <ele>66</ele>
        <time>2011-05-01T08:01:28Z</time>
      </trkpt>
      <trkpt lat="47.09749" lon="-1.07906">
        <ele>67</ele>
        <time>2011-05-01T08:01:32Z</time>
      </trkpt>
      <trkpt lat="47.09726" lon="-1.07931">
        <ele>67</ele>
        <time>2011-05-01T08:01:44Z</time>
      </trkpt>
      <trkpt lat="47.09734" lon="-1.07993">
        <ele>67</ele>
        <time>2011-05-01T08:01:55Z</time>
      </trkpt>
      <trkpt lat="47.09736" lon="-1.08008">
        <ele>66</ele>
        <time>2011-05-01T08:01:57Z</time>
      </trkpt>
      <trkpt lat="47.0974" lon="-1.08031">
        <ele>66</ele>
        <time>2011-05-01T08:02:04Z</time>
      </trkpt>
      <trkpt lat="47.0974" lon="-1.08031">
        <ele>66</ele>
        <time>2011-05-01T08:02:06Z</time>
      </trkpt>
      <trkpt lat="47.09793" lon="-1.08108">
        <ele>60</ele>
        <time>2011-05-01T08:02:13Z</time>
      </trkpt>
      <trkpt lat="47.09814" lon="-1.08136">
        <ele>59</ele>
        <time>2011-05-01T08:02:19Z</time>
      </trkpt>
      <trkpt lat="47.09824" lon="-1.08181">
        <ele>59</ele>
        <time>2011-05-01T08:02:24Z</time>
      </trkpt>
      <trkpt lat="47.09829" lon="-1.08201">
        <ele>59</ele>
        <time>2011-05-01T08:02:26Z</time>
      </trkpt>
      <trkpt lat="47.09833" lon="-1.08211">
        <ele>59</ele>
        <time>2011-05-01T08:02:27Z</time>
      </trkpt>
      <trkpt lat="47.09837" lon="-1.08258">
        <ele>53</ele>
        <time>2011-05-01T08:02:31Z</time>
      </trkpt>
      <trkpt lat="47.09837" lon="-1.08283">
        <ele>50</ele>
        <time>2011-05-01T08:02:33Z</time>
      </trkpt>
      <trkpt lat="47.09837" lon="-1.08297">
        <ele>50</ele>
        <time>2011-05-01T08:02:34Z</time>
      </trkpt>
      <trkpt lat="47.09837" lon="-1.08326">
        <ele>51</ele>
        <time>2011-05-01T08:02:36Z</time>
      </trkpt>
      <trkpt lat="47.09837" lon="-1.0834">
        <ele>51</ele>
        <time>2011-05-01T08:02:37Z</time>
      </trkpt>
      <trkpt lat="47.09841" lon="-1.08382">
        <ele>47</ele>
        <time>2011-05-01T08:02:40Z</time>
      </trkpt>
      <trkpt lat="47.0984" lon="-1.08396">
        <ele>47</ele>
        <time>2011-05-01T08:02:41Z</time>
      </trkpt>
      <trkpt lat="47.09839" lon="-1.08422">
        <ele>46</ele>
        <time>2011-05-01T08:02:43Z</time>
      </trkpt>
      <trkpt lat="47.09838" lon="-1.08444">
        <ele>45</ele>
        <time>2011-05-01T08:02:45Z</time>
      </trkpt>
      <trkpt lat="47.09838" lon="-1.0848">
        <ele>45</ele>
        <time>2011-05-01T08:02:51Z</time>
      </trkpt>
      <trkpt lat="47.09835" lon="-1.0849">
        <ele>46</ele>
        <time>2011-05-01T08:02:57Z</time>
      </trkpt>
      <trkpt lat="47.09835" lon="-1.08488">
        <ele>45</ele>
        <time>2011-05-01T08:03:01Z</time>
      </trkpt>
      <trkpt lat="47.09837" lon="-1.08485">
        <ele>45</ele>
        <time>2011-05-01T08:03:03Z</time>
      </trkpt>
      <trkpt lat="47.09839" lon="-1.08481">
        <ele>45</ele>
        <time>2011-05-01T08:03:20Z</time>
      </trkpt>
      <trkpt lat="47.09845" lon="-1.08475">
        <ele>45</ele>
        <time>2011-05-01T08:03:41Z</time>
      </trkpt>
      <trkpt lat="47.09846" lon="-1.08475">
        <ele>45</ele>
        <time>2011-05-01T08:03:42Z</time>
      </trkpt>
      <trkpt lat="47.09864" lon="-1.08476">
        <ele>45</ele>
        <time>2011-05-01T08:04:01Z</time>
      </trkpt>
      <trkpt lat="47.09866" lon="-1.08472">
        <ele>45</ele>
        <time>2011-05-01T08:04:05Z</time>
      </trkpt>
      <trkpt lat="47.09868" lon="-1.08464">
        <ele>45</ele>
        <time>2011-05-01T08:04:09Z</time>
      </trkpt>
      <trkpt lat="47.09893" lon="-1.08441">
        <ele>44</ele>
        <time>2011-05-01T08:04:21Z</time>
      </trkpt>
      <trkpt lat="47.09896" lon="-1.0844">
        <ele>44</ele>
        <time>2011-05-01T08:04:33Z</time>
      </trkpt>
      <trkpt lat="47.09913" lon="-1.08435">
        <ele>44</ele>
        <time>2011-05-01T08:05:04Z</time>
      </trkpt>
      <trkpt lat="47.0993" lon="-1.08444">
        <ele>50</ele>
        <time>2011-05-01T08:05:11Z</time>
      </trkpt>
      <trkpt lat="47.09933" lon="-1.08448">
        <ele>51</ele>
        <time>2011-05-01T08:05:13Z</time>
      </trkpt>
      <trkpt lat="47.09935" lon="-1.08451">
        <ele>51</ele>
        <time>2011-05-01T08:05:15Z</time>
      </trkpt>
      <trkpt lat="47.09947" lon="-1.0845">
        <ele>53</ele>
        <time>2011-05-01T08:05:20Z</time>
      </trkpt>
      <trkpt lat="47.09954" lon="-1.08432">
        <ele>54</ele>
        <time>2011-05-01T08:05:29Z</time>
      </trkpt>
      <trkpt lat="47.09957" lon="-1.08415">
        <ele>55</ele>
        <time>2011-05-01T08:05:37Z</time>
      </trkpt>
      <trkpt lat="47.09963" lon="-1.08386">
        <ele>56</ele>
        <time>2011-05-01T08:05:50Z</time>
      </trkpt>
      <trkpt lat="47.09971" lon="-1.0835">
        <ele>58</ele>
        <time>2011-05-01T08:06:05Z</time>
      </trkpt>
      <trkpt lat="47.09976" lon="-1.08334">
        <ele>59</ele>
        <time>2011-05-01T08:06:12Z</time>
      </trkpt>
      <trkpt lat="47.0998" lon="-1.08322">
        <ele>59</ele>
        <time>2011-05-01T08:06:16Z</time>
      </trkpt>
      <trkpt lat="47.09985" lon="-1.08291">
        <ele>58</ele>
        <time>2011-05-01T08:06:27Z</time>
      </trkpt>
      <trkpt lat="47.09986" lon="-1.08288">
        <ele>58</ele>
        <time>2011-05-01T08:06:28Z</time>
      </trkpt>
      <trkpt lat="47.09997" lon="-1.0827">
        <ele>59</ele>
        <time>2011-05-01T08:06:39Z</time>
      </trkpt>
      <trkpt lat="47.10001" lon="-1.08264">
        <ele>68</ele>
        <time>2011-05-01T08:06:43Z</time>
      </trkpt>
      <trkpt lat="47.10004" lon="-1.08258">
        <ele>67</ele>
        <time>2011-05-01T08:06:55Z</time>
      </trkpt>
      <trkpt lat="47.10015" lon="-1.08234">
        <ele>67</ele>
        <time>2011-05-01T08:07:09Z</time>
      </trkpt>
      <trkpt lat="47.10018" lon="-1.08231">
        <ele>67</ele>
        <time>2011-05-01T08:07:12Z</time>
      </trkpt>
      <trkpt lat="47.10021" lon="-1.08227">
        <ele>67</ele>
        <time>2011-05-01T08:07:15Z</time>
      </trkpt>
      <trkpt lat="47.10032" lon="-1.0821">
        <ele>68</ele>
        <time>2011-05-01T08:07:27Z</time>
      </trkpt>
      <trkpt lat="47.10036" lon="-1.08204">
        <ele>68</ele>
        <time>2011-05-01T08:07:31Z</time>
      </trkpt>
      <trkpt lat="47.10039" lon="-1.08201">
        <ele>68</ele>
        <time>2011-05-01T08:07:34Z</time>
      </trkpt>
      <trkpt lat="47.10046" lon="-1.08198">
        <ele>69</ele>
        <time>2011-05-01T08:07:39Z</time>
      </trkpt>
      <trkpt lat="47.10049" lon="-1.08183">
        <ele>69</ele>
        <time>2011-05-01T08:07:46Z</time>
      </trkpt>
      <trkpt lat="47.1005" lon="-1.08177">
        <ele>69</ele>
        <time>2011-05-01T08:07:48Z</time>
      </trkpt>
      <trkpt lat="47.10051" lon="-1.08168">
        <ele>69</ele>
        <time>2011-05-01T08:07:51Z</time>
      </trkpt>
      <trkpt lat="47.1005" lon="-1.08158">
        <ele>66</ele>
        <time>2011-05-01T08:07:53Z</time>
      </trkpt>
      <trkpt lat="47.10052" lon="-1.08129">
        <ele>66</ele>
        <time>2011-05-01T08:08:01Z</time>
      </trkpt>
      <trkpt lat="47.10053" lon="-1.08118">
        <ele>66</ele>
        <time>2011-05-01T08:08:14Z</time>
      </trkpt>
      <trkpt lat="47.10053" lon="-1.08108">
        <ele>66</ele>
        <time>2011-05-01T08:08:35Z</time>
      </trkpt>
      <trkpt lat="47.10055" lon="-1.081">
        <ele>66</ele>
        <time>2011-05-01T08:08:38Z</time>
      </trkpt>
      <trkpt lat="47.10065" lon="-1.08042">
        <ele>65</ele>
        <time>2011-05-01T08:08:53Z</time>
      </trkpt>
      <trkpt lat="47.10086" lon="-1.07993">
        <ele>75</ele>
        <time>2011-05-01T08:09:09Z</time>
      </trkpt>
      <trkpt lat="47.10106" lon="-1.07957">
        <ele>76</ele>
        <time>2011-05-01T08:09:20Z</time>
      </trkpt>
      <trkpt lat="47.10111" lon="-1.0793">
        <ele>75</ele>
        <time>2011-05-01T08:09:28Z</time>
      </trkpt>
      <trkpt lat="47.10109" lon="-1.07881">
        <ele>74</ele>
        <time>2011-05-01T08:09:39Z</time>
      </trkpt>
      <trkpt lat="47.10108" lon="-1.07871">
        <ele>74</ele>
        <time>2011-05-01T08:09:41Z</time>
      </trkpt>
      <trkpt lat="47.10108" lon="-1.07862">
        <ele>73</ele>
        <time>2011-05-01T08:09:44Z</time>
      </trkpt>
      <trkpt lat="47.10111" lon="-1.07833">
        <ele>72</ele>
        <time>2011-05-01T08:09:50Z</time>
      </trkpt>
      <trkpt lat="47.10113" lon="-1.07826">
        <ele>72</ele>
        <time>2011-05-01T08:09:51Z</time>
      </trkpt>
      <trkpt lat="47.10115" lon="-1.07811">
        <ele>72</ele>
        <time>2011-05-01T08:09:53Z</time>
      </trkpt>
      <trkpt lat="47.10121" lon="-1.07771">
        <ele>72</ele>
        <time>2011-05-01T08:10:02Z</time>
      </trkpt>
      <trkpt lat="47.10133" lon="-1.07739">
        <ele>73</ele>
        <time>2011-05-01T08:10:13Z</time>
      </trkpt>
      <trkpt lat="47.10155" lon="-1.07731">
        <ele>75</ele>
        <time>2011-05-01T08:10:25Z</time>
      </trkpt>
      <trkpt lat="47.10174" lon="-1.07689">
        <ele>79</ele>
        <time>2011-05-01T08:10:37Z</time>
      </trkpt>
      <trkpt lat="47.1016" lon="-1.07659">
        <ele>75</ele>
        <time>2011-05-01T08:10:43Z</time>
      </trkpt>
      <trkpt lat="47.10156" lon="-1.07635">
        <ele>72</ele>
        <time>2011-05-01T08:10:47Z</time>
      </trkpt>
      <trkpt lat="47.10144" lon="-1.07612">
        <ele>70</ele>
        <time>2011-05-01T08:10:54Z</time>
      </trkpt>
      <trkpt lat="47.1014" lon="-1.07609">
        <ele>70</ele>
        <time>2011-05-01T08:10:55Z</time>
      </trkpt>
      <trkpt lat="47.10134" lon="-1.076">
        <ele>69</ele>
        <time>2011-05-01T08:10:58Z</time>
      </trkpt>
      <trkpt lat="47.10133" lon="-1.07588">
        <ele>69</ele>
        <time>2011-05-01T08:11:01Z</time>
      </trkpt>
      <trkpt lat="47.10127" lon="-1.07569">
        <ele>65</ele>
        <time>2011-05-01T08:11:04Z</time>
      </trkpt>
      <trkpt lat="47.10126" lon="-1.07553">
        <ele>64</ele>
        <time>2011-05-01T08:11:08Z</time>
      </trkpt>
      <trkpt lat="47.10125" lon="-1.07522">
        <ele>63</ele>
        <time>2011-05-01T08:11:12Z</time>
      </trkpt>
      <trkpt lat="47.10122" lon="-1.07502">
        <ele>63</ele>
        <time>2011-05-01T08:11:15Z</time>
      </trkpt>
      <trkpt lat="47.10119" lon="-1.07489">
        <ele>59</ele>
        <time>2011-05-01T08:11:17Z</time>
      </trkpt>
      <trkpt lat="47.10112" lon="-1.07464">
        <ele>58</ele>
        <time>2011-05-01T08:11:22Z</time>
      </trkpt>
      <trkpt lat="47.10105" lon="-1.07454">
        <ele>57</ele>
        <time>2011-05-01T08:11:25Z</time>
      </trkpt>
      <trkpt lat="47.101" lon="-1.07443">
        <ele>56</ele>
        <time>2011-05-01T08:11:29Z</time>
      </trkpt>
      <trkpt lat="47.10094" lon="-1.07437">
        <ele>56</ele>
        <time>2011-05-01T08:11:31Z</time>
      </trkpt>
      <trkpt lat="47.10087" lon="-1.07427">
        <ele>55</ele>
        <time>2011-05-01T08:11:33Z</time>
      </trkpt>
      <trkpt lat="47.10081" lon="-1.0742">
        <ele>53</ele>
        <time>2011-05-01T08:11:35Z</time>
      </trkpt>
      <trkpt lat="47.10079" lon="-1.07416">
        <ele>52</ele>
        <time>2011-05-01T08:11:36Z</time>
      </trkpt>
      <trkpt lat="47.10074" lon="-1.0741">
        <ele>51</ele>
        <time>2011-05-01T08:11:38Z</time>
      </trkpt>
      <trkpt lat="47.10069" lon="-1.07402">
        <ele>50</ele>
        <time>2011-05-01T08:11:40Z</time>
      </trkpt>
      <trkpt lat="47.10062" lon="-1.07395">
        <ele>49</ele>
        <time>2011-05-01T08:11:42Z</time>
      </trkpt>
      <trkpt lat="47.10055" lon="-1.07382">
        <ele>48</ele>
        <time>2011-05-01T08:11:45Z</time>
      </trkpt>
      <trkpt lat="47.1005" lon="-1.07371">
        <ele>48</ele>
        <time>2011-05-01T08:11:47Z</time>
      </trkpt>
      <trkpt lat="47.10049" lon="-1.07356">
        <ele>48</ele>
        <time>2011-05-01T08:11:50Z</time>
      </trkpt>
      <trkpt lat="47.10042" lon="-1.07342">
        <ele>47</ele>
        <time>2011-05-01T08:12:00Z</time>
      </trkpt>
      <trkpt lat="47.10038" lon="-1.07337">
        <ele>47</ele>
        <time>2011-05-01T08:12:03Z</time>
      </trkpt>
      <trkpt lat="47.10023" lon="-1.07321">
        <ele>46</ele>
        <time>2011-05-01T08:12:14Z</time>
      </trkpt>
      <trkpt lat="47.09983" lon="-1.0731">
        <ele>49</ele>
        <time>2011-05-01T08:12:27Z</time>
      </trkpt>
      <trkpt lat="47.09975" lon="-1.07299">
        <ele>50</ele>
        <time>2011-05-01T08:12:31Z</time>
      </trkpt>
      <trkpt lat="47.09969" lon="-1.07251">
        <ele>50</ele>
        <time>2011-05-01T08:12:41Z</time>
      </trkpt>
      <trkpt lat="47.09945" lon="-1.07159">
        <ele>47</ele>
        <time>2011-05-01T08:12:58Z</time>
      </trkpt>
      <trkpt lat="47.09925" lon="-1.07078">
        <ele>44</ele>
        <time>2011-05-01T08:13:13Z</time>
      </trkpt>
      <trkpt lat="47.09913" lon="-1.07007">
        <ele>46</ele>
        <time>2011-05-01T08:13:26Z</time>
      </trkpt>
      <trkpt lat="47.09925" lon="-1.06966">
        <ele>41</ele>
        <time>2011-05-01T08:13:33Z</time>
      </trkpt>
      <trkpt lat="47.09956" lon="-1.0693">
        <ele>41</ele>
        <time>2011-05-01T08:13:42Z</time>
      </trkpt>
      <trkpt lat="47.09971" lon="-1.06918">
        <ele>42</ele>
        <time>2011-05-01T08:13:46Z</time>
      </trkpt>
      <trkpt lat="47.09981" lon="-1.06907">
        <ele>41</ele>
        <time>2011-05-01T08:13:49Z</time>
      </trkpt>
      <trkpt lat="47.10012" lon="-1.0689">
        <ele>44</ele>
        <time>2011-05-01T08:14:00Z</time>
      </trkpt>
      <trkpt lat="47.10031" lon="-1.06878">
        <ele>45</ele>
        <time>2011-05-01T08:14:10Z</time>
      </trkpt>
      <trkpt lat="47.10051" lon="-1.06864">
        <ele>46</ele>
        <time>2011-05-01T08:14:21Z</time>
      </trkpt>
      <trkpt lat="47.10057" lon="-1.0686">
        <ele>46</ele>
        <time>2011-05-01T08:14:25Z</time>
      </trkpt>
      <trkpt lat="47.10077" lon="-1.06847">
        <ele>48</ele>
        <time>2011-05-01T08:14:37Z</time>
      </trkpt>
      <trkpt lat="47.10111" lon="-1.06842">
        <ele>53</ele>
        <time>2011-05-01T08:14:53Z</time>
      </trkpt>
      <trkpt lat="47.1016" lon="-1.06822">
        <ele>56</ele>
        <time>2011-05-01T08:15:11Z</time>
      </trkpt>
      <trkpt lat="47.102" lon="-1.06798">
        <ele>61</ele>
        <time>2011-05-01T08:15:26Z</time>
      </trkpt>
      <trkpt lat="47.10243" lon="-1.06788">
        <ele>62</ele>
        <time>2011-05-01T08:15:40Z</time>
      </trkpt>
      <trkpt lat="47.10274" lon="-1.06783">
        <ele>65</ele>
        <time>2011-05-01T08:15:50Z</time>
      </trkpt>
      <trkpt lat="47.10337" lon="-1.06761">
        <ele>70</ele>
        <time>2011-05-01T08:16:11Z</time>
      </trkpt>
      <trkpt lat="47.10375" lon="-1.06745">
        <ele>71</ele>
        <time>2011-05-01T08:16:24Z</time>
      </trkpt>
      <trkpt lat="47.10462" lon="-1.06702">
        <ele>75</ele>
        <time>2011-05-01T08:16:50Z</time>
      </trkpt>
      <trkpt lat="47.10551" lon="-1.06691">
        <ele>76</ele>
        <time>2011-05-01T08:17:15Z</time>
      </trkpt>
      <trkpt lat="47.10582" lon="-1.06683">
        <ele>76</ele>
        <time>2011-05-01T08:17:23Z</time>
      </trkpt>
      <trkpt lat="47.10647" lon="-1.06639">
        <ele>77</ele>
        <time>2011-05-01T08:17:39Z</time>
      </trkpt>
      <trkpt lat="47.10733" lon="-1.06601">
        <ele>78</ele>
        <time>2011-05-01T08:18:00Z</time>
      </trkpt>
      <trkpt lat="47.10733" lon="-1.06599">
        <ele>78</ele>
        <time>2011-05-01T08:18:01Z</time>
      </trkpt>
      <trkpt lat="47.10739" lon="-1.06603">
        <ele>78</ele>
        <time>2011-05-01T08:18:09Z</time>
      </trkpt>
      <trkpt lat="47.10743" lon="-1.06595">
        <ele>79</ele>
        <time>2011-05-01T08:18:14Z</time>
      </trkpt>
      <trkpt lat="47.10786" lon="-1.06586">
        <ele>80</ele>
        <time>2011-05-01T08:18:27Z</time>
      </trkpt>
      <trkpt lat="47.1082" lon="-1.06561">
        <ele>81</ele>
        <time>2011-05-01T08:18:37Z</time>
      </trkpt>
      <trkpt lat="47.10866" lon="-1.06546">
        <ele>82</ele>
        <time>2011-05-01T08:18:49Z</time>
      </trkpt>
      <trkpt lat="47.10921" lon="-1.06522">
        <ele>82</ele>
        <time>2011-05-01T08:19:03Z</time>
      </trkpt>
      <trkpt lat="47.10992" lon="-1.06506">
        <ele>83</ele>
        <time>2011-05-01T08:19:21Z</time>
      </trkpt>
      <trkpt lat="47.11061" lon="-1.06503">
        <ele>84</ele>
        <time>2011-05-01T08:19:41Z</time>
      </trkpt>
      <trkpt lat="47.11113" lon="-1.0652">
        <ele>86</ele>
        <time>2011-05-01T08:19:59Z</time>
      </trkpt>
      <trkpt lat="47.11163" lon="-1.06552">
        <ele>86</ele>
        <time>2011-05-01T08:20:16Z</time>
      </trkpt>
      <trkpt lat="47.11221" lon="-1.06594">
        <ele>90</ele>
        <time>2011-05-01T08:20:34Z</time>
      </trkpt>
      <trkpt lat="47.1126" lon="-1.06633">
        <ele>92</ele>
        <time>2011-05-01T08:20:49Z</time>
      </trkpt>
      <trkpt lat="47.11285" lon="-1.06665">
        <ele>92</ele>
        <time>2011-05-01T08:21:01Z</time>
      </trkpt>
      <trkpt lat="47.11312" lon="-1.06704">
        <ele>93</ele>
        <time>2011-05-01T08:21:14Z</time>
      </trkpt>
      <trkpt lat="47.1136" lon="-1.06783">
        <ele>95</ele>
        <time>2011-05-01T08:21:32Z</time>
      </trkpt>
      <trkpt lat="47.11373" lon="-1.06808">
        <ele>95</ele>
        <time>2011-05-01T08:21:37Z</time>
      </trkpt>
      <trkpt lat="47.11381" lon="-1.06823">
        <ele>95</ele>
        <time>2011-05-01T08:21:40Z</time>
      </trkpt>
      <trkpt lat="47.11445" lon="-1.06937">
        <ele>96</ele>
        <time>2011-05-01T08:22:03Z</time>
      </trkpt>
      <trkpt lat="47.11483" lon="-1.06995">
        <ele>95</ele>
        <time>2011-05-01T08:22:17Z</time>
      </trkpt>
      <trkpt lat="47.1155" lon="-1.07096">
        <ele>93</ele>
        <time>2011-05-01T08:22:36Z</time>
      </trkpt>
      <trkpt lat="47.11589" lon="-1.07162">
        <ele>91</ele>
        <time>2011-05-01T08:22:46Z</time>
      </trkpt>
      <trkpt lat="47.1159" lon="-1.07177">
        <ele>90</ele>
        <time>2011-05-01T08:22:49Z</time>
      </trkpt>
      <trkpt lat="47.11586" lon="-1.07218">
        <ele>90</ele>
        <time>2011-05-01T08:22:56Z</time>
      </trkpt>
      <trkpt lat="47.11564" lon="-1.07258">
        <ele>89</ele>
        <time>2011-05-01T08:23:03Z</time>
      </trkpt>
      <trkpt lat="47.11553" lon="-1.07273">
        <ele>89</ele>
        <time>2011-05-01T08:23:06Z</time>
      </trkpt>
      <trkpt lat="47.11488" lon="-1.07367">
        <ele>85</ele>
        <time>2011-05-01T08:23:20Z</time>
      </trkpt>
      <trkpt lat="47.11478" lon="-1.07383">
        <ele>85</ele>
        <time>2011-05-01T08:23:22Z</time>
      </trkpt>
      <trkpt lat="47.11466" lon="-1.07399">
        <ele>85</ele>
        <time>2011-05-01T08:23:24Z</time>
      </trkpt>
      <trkpt lat="47.11431" lon="-1.0745">
        <ele>83</ele>
        <time>2011-05-01T08:23:31Z</time>
      </trkpt>
      <trkpt lat="47.1142" lon="-1.07466">
        <ele>82</ele>
        <time>2011-05-01T08:23:33Z</time>
      </trkpt>
      <trkpt lat="47.11412" lon="-1.07481">
        <ele>82</ele>
        <time>2011-05-01T08:23:35Z</time>
      </trkpt>
      <trkpt lat="47.11415" lon="-1.07504">
        <ele>81</ele>
        <time>2011-05-01T08:23:40Z</time>
      </trkpt>
      <trkpt lat="47.11442" lon="-1.07555">
        <ele>82</ele>
        <time>2011-05-01T08:23:47Z</time>
      </trkpt>
      <trkpt lat="47.1149" lon="-1.07573">
        <ele>84</ele>
        <time>2011-05-01T08:23:57Z</time>
      </trkpt>
      <trkpt lat="47.11515" lon="-1.07581">
        <ele>86</ele>
        <time>2011-05-01T08:24:04Z</time>
      </trkpt>
      <trkpt lat="47.11522" lon="-1.07584">
        <ele>87</ele>
        <time>2011-05-01T08:24:06Z</time>
      </trkpt>
      <trkpt lat="47.11526" lon="-1.07586">
        <ele>87</ele>
        <time>2011-05-01T08:24:07Z</time>
      </trkpt>
      <trkpt lat="47.11599" lon="-1.07616">
        <ele>88</ele>
        <time>2011-05-01T08:24:24Z</time>
      </trkpt>
      <trkpt lat="47.11711" lon="-1.07664">
        <ele>87</ele>
        <time>2011-05-01T08:24:44Z</time>
      </trkpt>
      <trkpt lat="47.11796" lon="-1.07707">
        <ele>88</ele>
        <time>2011-05-01T08:24:59Z</time>
      </trkpt>
      <trkpt lat="47.11806" lon="-1.07712">
        <ele>88</ele>
        <time>2011-05-01T08:25:01Z</time>
      </trkpt>
      <trkpt lat="47.11826" lon="-1.07722">
        <ele>88</ele>
        <time>2011-05-01T08:25:06Z</time>
      </trkpt>
      <trkpt lat="47.11831" lon="-1.07756">
        <ele>88</ele>
        <time>2011-05-01T08:25:12Z</time>
      </trkpt>
      <trkpt lat="47.11847" lon="-1.07863">
        <ele>91</ele>
        <time>2011-05-01T08:25:30Z</time>
      </trkpt>
      <trkpt lat="47.11869" lon="-1.08016">
        <ele>96</ele>
        <time>2011-05-01T08:25:56Z</time>
      </trkpt>
      <trkpt lat="47.1188" lon="-1.08092">
        <ele>97</ele>
        <time>2011-05-01T08:26:10Z</time>
      </trkpt>
      <trkpt lat="47.11895" lon="-1.08211">
        <ele>99</ele>
        <time>2011-05-01T08:26:35Z</time>
      </trkpt>
      <trkpt lat="47.11893" lon="-1.08213">
        <ele>99</ele>
        <time>2011-05-01T08:26:37Z</time>
      </trkpt>
      <trkpt lat="47.11878" lon="-1.08227">
        <ele>99</ele>
        <time>2011-05-01T08:26:41Z</time>
      </trkpt>
      <trkpt lat="47.11869" lon="-1.08241">
        <ele>99</ele>
        <time>2011-05-01T08:26:43Z</time>
      </trkpt>
      <trkpt lat="47.11875" lon="-1.08298">
        <ele>100</ele>
        <time>2011-05-01T08:26:51Z</time>
      </trkpt>
      <trkpt lat="47.11877" lon="-1.08302">
        <ele>100</ele>
        <time>2011-05-01T08:26:52Z</time>
      </trkpt>
      <trkpt lat="47.1188" lon="-1.0831">
        <ele>100</ele>
        <time>2011-05-01T08:26:54Z</time>
      </trkpt>
      <trkpt lat="47.11875" lon="-1.08324">
        <ele>100</ele>
        <time>2011-05-01T08:26:58Z</time>
      </trkpt>
      <trkpt lat="47.11838" lon="-1.08428">
        <ele>98</ele>
        <time>2011-05-01T08:27:13Z</time>
      </trkpt>
      <trkpt lat="47.11836" lon="-1.08444">
        <ele>99</ele>
        <time>2011-05-01T08:27:15Z</time>
      </trkpt>
      <trkpt lat="47.11827" lon="-1.08444">
        <ele>99</ele>
        <time>2011-05-01T08:27:22Z</time>
      </trkpt>
      <trkpt lat="47.11727" lon="-1.08411">
        <ele>97</ele>
        <time>2011-05-01T08:27:37Z</time>
      </trkpt>
      <trkpt lat="47.11714" lon="-1.08403">
        <ele>97</ele>
        <time>2011-05-01T08:27:39Z</time>
      </trkpt>
      <trkpt lat="47.11657" lon="-1.0837">
        <ele>95</ele>
        <time>2011-05-01T08:27:48Z</time>
      </trkpt>
      <trkpt lat="47.11632" lon="-1.08337">
        <ele>95</ele>
        <time>2011-05-01T08:27:53Z</time>
      </trkpt>
      <trkpt lat="47.11629" lon="-1.08298">
        <ele>94</ele>
        <time>2011-05-01T08:27:57Z</time>
      </trkpt>
      <trkpt lat="47.11631" lon="-1.08278">
        <ele>94</ele>
        <time>2011-05-01T08:27:59Z</time>
      </trkpt>
      <trkpt lat="47.11613" lon="-1.08215">
        <ele>94</ele>
        <time>2011-05-01T08:28:06Z</time>
      </trkpt>
      <trkpt lat="47.11586" lon="-1.08183">
        <ele>93</ele>
        <time>2011-05-01T08:28:11Z</time>
      </trkpt>
      <trkpt lat="47.11498" lon="-1.08087">
        <ele>92</ele>
        <time>2011-05-01T08:28:27Z</time>
      </trkpt>
      <trkpt lat="47.11466" lon="-1.0808">
        <ele>92</ele>
        <time>2011-05-01T08:28:32Z</time>
      </trkpt>
      <trkpt lat="47.11431" lon="-1.08086">
        <ele>91</ele>
        <time>2011-05-01T08:28:37Z</time>
      </trkpt>
      <trkpt lat="47.11417" lon="-1.08085">
        <ele>91</ele>
        <time>2011-05-01T08:28:39Z</time>
      </trkpt>
      <trkpt lat="47.11403" lon="-1.08082">
        <ele>90</ele>
        <time>2011-05-01T08:28:41Z</time>
      </trkpt>
      <trkpt lat="47.11338" lon="-1.0806">
        <ele>89</ele>
        <time>2011-05-01T08:28:50Z</time>
      </trkpt>
      <trkpt lat="47.11331" lon="-1.08056">
        <ele>88</ele>
        <time>2011-05-01T08:28:51Z</time>
      </trkpt>
      <trkpt lat="47.11301" lon="-1.08059">
        <ele>88</ele>
        <time>2011-05-01T08:28:55Z</time>
      </trkpt>
      <trkpt lat="47.11172" lon="-1.08123">
        <ele>89</ele>
        <time>2011-05-01T08:29:16Z</time>
      </trkpt>
      <trkpt lat="47.11163" lon="-1.08114">
        <ele>90</ele>
        <time>2011-05-01T08:29:21Z</time>
      </trkpt>
      <trkpt lat="47.11156" lon="-1.08107">
        <ele>90</ele>
        <time>2011-05-01T08:29:32Z</time>
      </trkpt>
      <trkpt lat="47.11155" lon="-1.08106">
        <ele>90</ele>
        <time>2011-05-01T08:29:33Z</time>
      </trkpt>
      <trkpt lat="47.11153" lon="-1.081">
        <ele>90</ele>
        <time>2011-05-01T08:29:37Z</time>
      </trkpt>
      <trkpt lat="47.11147" lon="-1.08095">
        <ele>90</ele>
        <time>2011-05-01T08:29:41Z</time>
      </trkpt>
      <trkpt lat="47.11145" lon="-1.08085">
        <ele>90</ele>
        <time>2011-05-01T08:29:45Z</time>
      </trkpt>
      <trkpt lat="47.11145" lon="-1.08075">
        <ele>89</ele>
        <time>2011-05-01T08:29:49Z</time>
      </trkpt>
      <trkpt lat="47.11148" lon="-1.08066">
        <ele>89</ele>
        <time>2011-05-01T08:29:52Z</time>
      </trkpt>
      <trkpt lat="47.11148" lon="-1.08051">
        <ele>89</ele>
        <time>2011-05-01T08:29:57Z</time>
      </trkpt>
      <trkpt lat="47.11148" lon="-1.08046">
        <ele>89</ele>
        <time>2011-05-01T08:29:59Z</time>
      </trkpt>
      <trkpt lat="47.11134" lon="-1.08033">
        <ele>89</ele>
        <time>2011-05-01T08:30:07Z</time>
      </trkpt>
      <trkpt lat="47.11105" lon="-1.08016">
        <ele>89</ele>
        <time>2011-05-01T08:30:19Z</time>
      </trkpt>
      <trkpt lat="47.11093" lon="-1.08011">
        <ele>89</ele>
        <time>2011-05-01T08:30:24Z</time>
      </trkpt>
      <trkpt lat="47.11073" lon="-1.07996">
        <ele>88</ele>
        <time>2011-05-01T08:30:37Z</time>
      </trkpt>
      <trkpt lat="47.11034" lon="-1.07974">
        <ele>85</ele>
        <time>2011-05-01T08:30:52Z</time>
      </trkpt>
      <trkpt lat="47.1098" lon="-1.07976">
        <ele>82</ele>
        <time>2011-05-01T08:31:06Z</time>
      </trkpt>
      <trkpt lat="47.10928" lon="-1.0799">
        <ele>80</ele>
        <time>2011-05-01T08:31:17Z</time>
      </trkpt>
      <trkpt lat="47.10917" lon="-1.0799">
        <ele>80</ele>
        <time>2011-05-01T08:31:19Z</time>
      </trkpt>
      <trkpt lat="47.10892" lon="-1.07969">
        <ele>78</ele>
        <time>2011-05-01T08:31:24Z</time>
      </trkpt>
      <trkpt lat="47.10865" lon="-1.07953">
        <ele>77</ele>
        <time>2011-05-01T08:31:30Z</time>
      </trkpt>
      <trkpt lat="47.10853" lon="-1.07958">
        <ele>77</ele>
        <time>2011-05-01T08:31:32Z</time>
      </trkpt>
      <trkpt lat="47.10839" lon="-1.07961">
        <ele>77</ele>
        <time>2011-05-01T08:31:34Z</time>
      </trkpt>
      <trkpt lat="47.10818" lon="-1.0798">
        <ele>75</ele>
        <time>2011-05-01T08:31:38Z</time>
      </trkpt>
      <trkpt lat="47.10806" lon="-1.08002">
        <ele>76</ele>
        <time>2011-05-01T08:31:41Z</time>
      </trkpt>
      <trkpt lat="47.10785" lon="-1.08021">
        <ele>76</ele>
        <time>2011-05-01T08:31:45Z</time>
      </trkpt>
      <trkpt lat="47.10689" lon="-1.08022">
        <ele>78</ele>
        <time>2011-05-01T08:31:55Z</time>
      </trkpt>
      <trkpt lat="47.10671" lon="-1.08057">
        <ele>79</ele>
        <time>2011-05-01T08:31:59Z</time>
      </trkpt>
      <trkpt lat="47.10671" lon="-1.08057">
        <ele>79</ele>
        <time>2011-05-01T08:32:04Z</time>
      </trkpt>
      <trkpt lat="47.10639" lon="-1.08072">
        <ele>82</ele>
        <time>2011-05-01T08:32:16Z</time>
      </trkpt>
      <trkpt lat="47.10593" lon="-1.08094">
        <ele>86</ele>
        <time>2011-05-01T08:32:29Z</time>
      </trkpt>
      <trkpt lat="47.10531" lon="-1.08156">
        <ele>88</ele>
        <time>2011-05-01T08:32:50Z</time>
      </trkpt>
      <trkpt lat="47.1053" lon="-1.08161">
        <ele>88</ele>
        <time>2011-05-01T08:32:52Z</time>
      </trkpt>
      <trkpt lat="47.10508" lon="-1.08171">
        <ele>88</ele>
        <time>2011-05-01T08:32:56Z</time>
      </trkpt>
      <trkpt lat="47.10408" lon="-1.0816">
        <ele>87</ele>
        <time>2011-05-01T08:33:17Z</time>
      </trkpt>
      <trkpt lat="47.10325" lon="-1.08167">
        <ele>89</ele>
        <time>2011-05-01T08:33:34Z</time>
      </trkpt>
      <trkpt lat="47.10294" lon="-1.08172">
        <ele>88</ele>
        <time>2011-05-01T08:33:40Z</time>
      </trkpt>
      <trkpt lat="47.10229" lon="-1.08223">
        <ele>85</ele>
        <time>2011-05-01T08:33:54Z</time>
      </trkpt>
      <trkpt lat="47.10225" lon="-1.08228">
        <ele>85</ele>
        <time>2011-05-01T08:33:55Z</time>
      </trkpt>
      <trkpt lat="47.102" lon="-1.08235">
        <ele>85</ele>
        <time>2011-05-01T08:34:00Z</time>
      </trkpt>
      <trkpt lat="47.10172" lon="-1.08232">
        <ele>85</ele>
        <time>2011-05-01T08:34:05Z</time>
      </trkpt>
      <trkpt lat="47.10169" lon="-1.08252">
        <ele>85</ele>
        <time>2011-05-01T08:34:11Z</time>
      </trkpt>
      <trkpt lat="47.10169" lon="-1.08313">
        <ele>86</ele>
        <time>2011-05-01T08:34:22Z</time>
      </trkpt>
      <trkpt lat="47.10167" lon="-1.08343">
        <ele>87</ele>
        <time>2011-05-01T08:34:27Z</time>
      </trkpt>
      <trkpt lat="47.10155" lon="-1.0843">
        <ele>87</ele>
        <time>2011-05-01T08:34:41Z</time>
      </trkpt>
      <trkpt lat="47.10154" lon="-1.08437">
        <ele>86</ele>
        <time>2011-05-01T08:34:42Z</time>
      </trkpt>
      <trkpt lat="47.1015" lon="-1.08464">
        <ele>86</ele>
        <time>2011-05-01T08:34:46Z</time>
      </trkpt>
      <trkpt lat="47.10147" lon="-1.085">
        <ele>86</ele>
        <time>2011-05-01T08:34:51Z</time>
      </trkpt>
      <trkpt lat="47.10136" lon="-1.08634">
        <ele>86</ele>
        <time>2011-05-01T08:35:09Z</time>
      </trkpt>
      <trkpt lat="47.10134" lon="-1.0867">
        <ele>86</ele>
        <time>2011-05-01T08:35:14Z</time>
      </trkpt>
      <trkpt lat="47.10132" lon="-1.08744">
        <ele>86</ele>
        <time>2011-05-01T08:35:24Z</time>
      </trkpt>
      <trkpt lat="47.10137" lon="-1.08808">
        <ele>86</ele>
        <time>2011-05-01T08:35:34Z</time>
      </trkpt>
      <trkpt lat="47.10145" lon="-1.08842">
        <ele>85</ele>
        <time>2011-05-01T08:35:39Z</time>
      </trkpt>
      <trkpt lat="47.1015" lon="-1.08863">
        <ele>85</ele>
        <time>2011-05-01T08:35:42Z</time>
      </trkpt>
      <trkpt lat="47.10168" lon="-1.0892">
        <ele>85</ele>
        <time>2011-05-01T08:35:50Z</time>
      </trkpt>
      <trkpt lat="47.1021" lon="-1.09023">
        <ele>84</ele>
        <time>2011-05-01T08:36:03Z</time>
      </trkpt>
      <trkpt lat="47.10222" lon="-1.09044">
        <ele>84</ele>
        <time>2011-05-01T08:36:06Z</time>
      </trkpt>
      <trkpt lat="47.10226" lon="-1.0905">
        <ele>84</ele>
        <time>2011-05-01T08:36:07Z</time>
      </trkpt>
      <trkpt lat="47.10254" lon="-1.09082">
        <ele>84</ele>
        <time>2011-05-01T08:36:13Z</time>
      </trkpt>
      <trkpt lat="47.10282" lon="-1.09103">
        <ele>84</ele>
        <time>2011-05-01T08:36:19Z</time>
      </trkpt>
      <trkpt lat="47.10304" lon="-1.0913">
        <ele>84</ele>
        <time>2011-05-01T08:36:24Z</time>
      </trkpt>
      <trkpt lat="47.10418" lon="-1.0923">
        <ele>84</ele>
        <time>2011-05-01T08:36:39Z</time>
      </trkpt>
      <trkpt lat="47.10418" lon="-1.09257">
        <ele>84</ele>
        <time>2011-05-01T08:36:43Z</time>
      </trkpt>
      <trkpt lat="47.10418" lon="-1.09286">
        <ele>84</ele>
        <time>2011-05-01T08:36:49Z</time>
      </trkpt>
      <trkpt lat="47.10418" lon="-1.09316">
        <ele>84</ele>
        <time>2011-05-01T08:36:54Z</time>
      </trkpt>
      <trkpt lat="47.10428" lon="-1.094">
        <ele>83</ele>
        <time>2011-05-01T08:37:04Z</time>
      </trkpt>
      <trkpt lat="47.10451" lon="-1.09528">
        <ele>80</ele>
        <time>2011-05-01T08:37:18Z</time>
      </trkpt>
      <trkpt lat="47.10457" lon="-1.09569">
        <ele>80</ele>
        <time>2011-05-01T08:37:22Z</time>
      </trkpt>
      <trkpt lat="47.10461" lon="-1.09715">
        <ele>76</ele>
        <time>2011-05-01T08:37:35Z</time>
      </trkpt>
      <trkpt lat="47.10459" lon="-1.09927">
        <ele>76</ele>
        <time>2011-05-01T08:37:54Z</time>
      </trkpt>
      <trkpt lat="47.10457" lon="-1.10069">
        <ele>77</ele>
        <time>2011-05-01T08:38:07Z</time>
      </trkpt>
      <trkpt lat="47.10448" lon="-1.10185">
        <ele>75</ele>
        <time>2011-05-01T08:38:21Z</time>
      </trkpt>
      <trkpt lat="47.10416" lon="-1.10313">
        <ele>73</ele>
        <time>2011-05-01T08:38:30Z</time>
      </trkpt>
      <trkpt lat="47.1041" lon="-1.10328">
        <ele>74</ele>
        <time>2011-05-01T08:38:32Z</time>
      </trkpt>
      <trkpt lat="47.104" lon="-1.10347">
        <ele>73</ele>
        <time>2011-05-01T08:38:36Z</time>
      </trkpt>
      <trkpt lat="47.10396" lon="-1.10353">
        <ele>73</ele>
        <time>2011-05-01T08:38:38Z</time>
      </trkpt>
      <trkpt lat="47.10378" lon="-1.10384">
        <ele>72</ele>
        <time>2011-05-01T08:38:51Z</time>
      </trkpt>
      <trkpt lat="47.10378" lon="-1.10384">
        <ele>72</ele>
        <time>2011-05-01T08:45:22Z</time>
      </trkpt>
      <trkpt lat="47.10378" lon="-1.10384">
        <ele>72</ele>
        <time>2011-05-01T08:45:38Z</time>
      </trkpt>
      <trkpt lat="47.1038" lon="-1.1038">
        <ele>72</ele>
        <time>2011-05-01T08:45:40Z</time>
      </trkpt>
      <trkpt lat="47.10401" lon="-1.10345">
        <ele>73</ele>
        <time>2011-05-01T08:45:54Z</time>
      </trkpt>
      <trkpt lat="47.10401" lon="-1.10341">
        <ele>73</ele>
        <time>2011-05-01T08:46:01Z</time>
      </trkpt>
      <trkpt lat="47.10378" lon="-1.10384">
        <ele>72</ele>
        <time>2011-05-01T08:46:13Z</time>
      </trkpt>
      <trkpt lat="47.10372" lon="-1.10394">
        <ele>72</ele>
        <time>2011-05-01T08:46:15Z</time>
      </trkpt>
      <trkpt lat="47.10362" lon="-1.10414">
        <ele>71</ele>
        <time>2011-05-01T08:46:19Z</time>
      </trkpt>
      <trkpt lat="47.10271" lon="-1.10399">
        <ele>71</ele>
        <time>2011-05-01T08:46:36Z</time>
      </trkpt>
      <trkpt lat="47.10201" lon="-1.10361">
        <ele>72</ele>
        <time>2011-05-01T08:46:50Z</time>
      </trkpt>
      <trkpt lat="47.10183" lon="-1.10364">
        <ele>72</ele>
        <time>2011-05-01T08:46:54Z</time>
      </trkpt>
      <trkpt lat="47.10141" lon="-1.10397">
        <ele>73</ele>
        <time>2011-05-01T08:47:02Z</time>
      </trkpt>
      <trkpt lat="47.10124" lon="-1.10421">
        <ele>73</ele>
        <time>2011-05-01T08:47:08Z</time>
      </trkpt>
      <trkpt lat="47.10111" lon="-1.10447">
        <ele>73</ele>
        <time>2011-05-01T08:47:12Z</time>
      </trkpt>
      <trkpt lat="47.10101" lon="-1.10465">
        <ele>73</ele>
        <time>2011-05-01T08:47:15Z</time>
      </trkpt>
      <trkpt lat="47.10087" lon="-1.10484">
        <ele>72</ele>
        <time>2011-05-01T08:47:18Z</time>
      </trkpt>
      <trkpt lat="47.10069" lon="-1.10505">
        <ele>70</ele>
        <time>2011-05-01T08:47:22Z</time>
      </trkpt>
      <trkpt lat="47.10053" lon="-1.10518">
        <ele>69</ele>
        <time>2011-05-01T08:47:26Z</time>
      </trkpt>
      <trkpt lat="47.10022" lon="-1.10536">
        <ele>68</ele>
        <time>2011-05-01T08:47:29Z</time>
      </trkpt>
      <trkpt lat="47.09992" lon="-1.1054">
        <ele>65</ele>
        <time>2011-05-01T08:47:33Z</time>
      </trkpt>
      <trkpt lat="47.09984" lon="-1.1054">
        <ele>65</ele>
        <time>2011-05-01T08:47:34Z</time>
      </trkpt>
      <trkpt lat="47.09969" lon="-1.10542">
        <ele>64</ele>
        <time>2011-05-01T08:47:36Z</time>
      </trkpt>
      <trkpt lat="47.09961" lon="-1.10544">
        <ele>63</ele>
        <time>2011-05-01T08:47:37Z</time>
      </trkpt>
      <trkpt lat="47.09911" lon="-1.10593">
        <ele>53</ele>
        <time>2011-05-01T08:47:40Z</time>
      </trkpt>
      <trkpt lat="47.09907" lon="-1.10587">
        <ele>53</ele>
        <time>2011-05-01T08:47:41Z</time>
      </trkpt>
      <trkpt lat="47.09901" lon="-1.1058">
        <ele>55</ele>
        <time>2011-05-01T08:47:43Z</time>
      </trkpt>
      <trkpt lat="47.09897" lon="-1.10574">
        <ele>54</ele>
        <time>2011-05-01T08:47:45Z</time>
      </trkpt>
      <trkpt lat="47.09912" lon="-1.10595">
        <ele>53</ele>
        <time>2011-05-01T08:47:53Z</time>
      </trkpt>
      <trkpt lat="47.09944" lon="-1.10692">
        <ele>54</ele>
        <time>2011-05-01T08:48:06Z</time>
      </trkpt>
      <trkpt lat="47.09956" lon="-1.10769">
        <ele>53</ele>
        <time>2011-05-01T08:48:15Z</time>
      </trkpt>
      <trkpt lat="47.09956" lon="-1.10817">
        <ele>52</ele>
        <time>2011-05-01T08:48:20Z</time>
      </trkpt>
      <trkpt lat="47.09953" lon="-1.10843">
        <ele>52</ele>
        <time>2011-05-01T08:48:24Z</time>
      </trkpt>
      <trkpt lat="47.09956" lon="-1.10831">
        <ele>52</ele>
        <time>2011-05-01T08:48:29Z</time>
      </trkpt>
      <trkpt lat="47.0995" lon="-1.10824">
        <ele>52</ele>
        <time>2011-05-01T08:48:31Z</time>
      </trkpt>
      <trkpt lat="47.09956" lon="-1.10818">
        <ele>52</ele>
        <time>2011-05-01T08:48:33Z</time>
      </trkpt>
      <trkpt lat="47.09956" lon="-1.10814">
        <ele>52</ele>
        <time>2011-05-01T08:48:34Z</time>
      </trkpt>
      <trkpt lat="47.09956" lon="-1.10812">
        <ele>52</ele>
        <time>2011-05-01T08:48:35Z</time>
      </trkpt>
      <trkpt lat="47.09913" lon="-1.10793">
        <ele>45</ele>
        <time>2011-05-01T08:48:38Z</time>
      </trkpt>
      <trkpt lat="47.09891" lon="-1.10781">
        <ele>45</ele>
        <time>2011-05-01T08:48:42Z</time>
      </trkpt>
      <trkpt lat="47.09865" lon="-1.10767">
        <ele>43</ele>
        <time>2011-05-01T08:48:50Z</time>
      </trkpt>
      <trkpt lat="47.09848" lon="-1.10756">
        <ele>41</ele>
        <time>2011-05-01T08:48:52Z</time>
      </trkpt>
      <trkpt lat="47.09836" lon="-1.10757">
        <ele>39</ele>
        <time>2011-05-01T08:48:54Z</time>
      </trkpt>
      <trkpt lat="47.09791" lon="-1.10753">
        <ele>38</ele>
        <time>2011-05-01T08:49:03Z</time>
      </trkpt>
      <trkpt lat="47.09788" lon="-1.10751">
        <ele>38</ele>
        <time>2011-05-01T08:49:04Z</time>
      </trkpt>
      <trkpt lat="47.09765" lon="-1.10736">
        <ele>39</ele>
        <time>2011-05-01T08:49:13Z</time>
      </trkpt>
      <trkpt lat="47.0975" lon="-1.10734">
        <ele>42</ele>
        <time>2011-05-01T08:49:22Z</time>
      </trkpt>
      <trkpt lat="47.09748" lon="-1.10735">
        <ele>42</ele>
        <time>2011-05-01T08:49:24Z</time>
      </trkpt>
      <trkpt lat="47.09748" lon="-1.1077">
        <ele>40</ele>
        <time>2011-05-01T08:49:36Z</time>
      </trkpt>
      <trkpt lat="47.09738" lon="-1.1082">
        <ele>39</ele>
        <time>2011-05-01T08:49:47Z</time>
      </trkpt>
      <trkpt lat="47.09728" lon="-1.10858">
        <ele>41</ele>
        <time>2011-05-01T08:49:55Z</time>
      </trkpt>
      <trkpt lat="47.09709" lon="-1.10871">
        <ele>43</ele>
        <time>2011-05-01T08:50:03Z</time>
      </trkpt>
      <trkpt lat="47.09684" lon="-1.10882">
        <ele>44</ele>
        <time>2011-05-01T08:50:14Z</time>
      </trkpt>
      <trkpt lat="47.09665" lon="-1.10896">
        <ele>50</ele>
        <time>2011-05-01T08:50:24Z</time>
      </trkpt>
      <trkpt lat="47.09645" lon="-1.1094">
        <ele>52</ele>
        <time>2011-05-01T08:50:40Z</time>
      </trkpt>
      <trkpt lat="47.09627" lon="-1.10984">
        <ele>54</ele>
        <time>2011-05-01T08:50:54Z</time>
      </trkpt>
      <trkpt lat="47.09589" lon="-1.11049">
        <ele>56</ele>
        <time>2011-05-01T08:51:13Z</time>
      </trkpt>
      <trkpt lat="47.09559" lon="-1.11128">
        <ele>61</ele>
        <time>2011-05-01T08:51:28Z</time>
      </trkpt>
      <trkpt lat="47.09548" lon="-1.11199">
        <ele>62</ele>
        <time>2011-05-01T08:51:42Z</time>
      </trkpt>
      <trkpt lat="47.09527" lon="-1.11254">
        <ele>62</ele>
        <time>2011-05-01T08:51:56Z</time>
      </trkpt>
      <trkpt lat="47.09477" lon="-1.11345">
        <ele>65</ele>
        <time>2011-05-01T08:52:19Z</time>
      </trkpt>
      <trkpt lat="47.09428" lon="-1.11446">
        <ele>65</ele>
        <time>2011-05-01T08:52:39Z</time>
      </trkpt>
      <trkpt lat="47.09384" lon="-1.11597">
        <ele>64</ele>
        <time>2011-05-01T08:52:56Z</time>
      </trkpt>
      <trkpt lat="47.09384" lon="-1.11597">
        <ele>64</ele>
        <time>2011-05-01T08:52:59Z</time>
      </trkpt>
      <trkpt lat="47.09341" lon="-1.11619">
        <ele>65</ele>
        <time>2011-05-01T08:53:10Z</time>
      </trkpt>
      <trkpt lat="47.09337" lon="-1.1161">
        <ele>65</ele>
        <time>2011-05-01T08:53:16Z</time>
      </trkpt>
      <trkpt lat="47.09296" lon="-1.11507">
        <ele>68</ele>
        <time>2011-05-01T08:53:35Z</time>
      </trkpt>
      <trkpt lat="47.09282" lon="-1.11522">
        <ele>68</ele>
        <time>2011-05-01T08:53:41Z</time>
      </trkpt>
      <trkpt lat="47.09311" lon="-1.11545">
        <ele>68</ele>
        <time>2011-05-01T08:53:49Z</time>
      </trkpt>
      <trkpt lat="47.09302" lon="-1.11649">
        <ele>66</ele>
        <time>2011-05-01T08:53:53Z</time>
      </trkpt>
      <trkpt lat="47.0925" lon="-1.11608">
        <ele>66</ele>
        <time>2011-05-01T08:53:58Z</time>
      </trkpt>
      <trkpt lat="47.09204" lon="-1.11567">
        <ele>68</ele>
        <time>2011-05-01T08:54:11Z</time>
      </trkpt>
      <trkpt lat="47.09162" lon="-1.11534">
        <ele>70</ele>
        <time>2011-05-01T08:54:26Z</time>
      </trkpt>
      <trkpt lat="47.0909" lon="-1.11535">
        <ele>71</ele>
        <time>2011-05-01T08:54:47Z</time>
      </trkpt>
      <trkpt lat="47.09035" lon="-1.11543">
        <ele>74</ele>
        <time>2011-05-01T08:55:04Z</time>
      </trkpt>
      <trkpt lat="47.0898" lon="-1.11612">
        <ele>76</ele>
        <time>2011-05-01T08:55:23Z</time>
      </trkpt>
      <trkpt lat="47.08942" lon="-1.11677">
        <ele>76</ele>
        <time>2011-05-01T08:55:36Z</time>
      </trkpt>
      <trkpt lat="47.08913" lon="-1.11732">
        <ele>76</ele>
        <time>2011-05-01T08:55:46Z</time>
      </trkpt>
      <trkpt lat="47.0889" lon="-1.1175">
        <ele>77</ele>
        <time>2011-05-01T08:55:52Z</time>
      </trkpt>
      <trkpt lat="47.08832" lon="-1.11769">
        <ele>80</ele>
        <time>2011-05-01T08:56:08Z</time>
      </trkpt>
      <trkpt lat="47.08795" lon="-1.11774">
        <ele>81</ele>
        <time>2011-05-01T08:56:19Z</time>
      </trkpt>
      <trkpt lat="47.08754" lon="-1.11777">
        <ele>81</ele>
        <time>2011-05-01T08:56:34Z</time>
      </trkpt>
      <trkpt lat="47.08697" lon="-1.11783">
        <ele>85</ele>
        <time>2011-05-01T08:56:55Z</time>
      </trkpt>
      <trkpt lat="47.08657" lon="-1.11786">
        <ele>88</ele>
        <time>2011-05-01T08:57:09Z</time>
      </trkpt>
      <trkpt lat="47.08615" lon="-1.11772">
        <ele>88</ele>
        <time>2011-05-01T08:57:24Z</time>
      </trkpt>
      <trkpt lat="47.08576" lon="-1.11736">
        <ele>91</ele>
        <time>2011-05-01T08:57:38Z</time>
      </trkpt>
      <trkpt lat="47.08533" lon="-1.11689">
        <ele>92</ele>
        <time>2011-05-01T08:57:53Z</time>
      </trkpt>
      <trkpt lat="47.08513" lon="-1.11667">
        <ele>92</ele>
        <time>2011-05-01T08:58:01Z</time>
      </trkpt>
      <trkpt lat="47.08509" lon="-1.11666">
        <ele>93</ele>
        <time>2011-05-01T08:58:02Z</time>
      </trkpt>
      <trkpt lat="47.08499" lon="-1.11675">
        <ele>92</ele>
        <time>2011-05-01T08:58:07Z</time>
      </trkpt>
      <trkpt lat="47.08493" lon="-1.11696">
        <ele>90</ele>
        <time>2011-05-01T08:58:10Z</time>
      </trkpt>
      <trkpt lat="47.08488" lon="-1.11717">
        <ele>89</ele>
        <time>2011-05-01T08:58:13Z</time>
      </trkpt>
      <trkpt lat="47.08478" lon="-1.1176">
        <ele>87</ele>
        <time>2011-05-01T08:58:20Z</time>
      </trkpt>
      <trkpt lat="47.08471" lon="-1.11779">
        <ele>86</ele>
        <time>2011-05-01T08:58:22Z</time>
      </trkpt>
      <trkpt lat="47.08464" lon="-1.11812">
        <ele>86</ele>
        <time>2011-05-01T08:58:26Z</time>
      </trkpt>
      <trkpt lat="47.08461" lon="-1.11822">
        <ele>86</ele>
        <time>2011-05-01T08:58:28Z</time>
      </trkpt>
      <trkpt lat="47.08444" lon="-1.11891">
        <ele>87</ele>
        <time>2011-05-01T08:58:42Z</time>
      </trkpt>
      <trkpt lat="47.08437" lon="-1.11924">
        <ele>87</ele>
        <time>2011-05-01T08:58:48Z</time>
      </trkpt>
      <trkpt lat="47.08428" lon="-1.12015">
        <ele>88</ele>
        <time>2011-05-01T08:59:03Z</time>
      </trkpt>
      <trkpt lat="47.08427" lon="-1.12022">
        <ele>88</ele>
        <time>2011-05-01T08:59:04Z</time>
      </trkpt>
      <trkpt lat="47.08426" lon="-1.12051">
        <ele>88</ele>
        <time>2011-05-01T08:59:08Z</time>
      </trkpt>
      <trkpt lat="47.08457" lon="-1.12197">
        <ele>87</ele>
        <time>2011-05-01T08:59:27Z</time>
      </trkpt>
      <trkpt lat="47.08462" lon="-1.12221">
        <ele>87</ele>
        <time>2011-05-01T08:59:30Z</time>
      </trkpt>
      <trkpt lat="47.0848" lon="-1.12268">
        <ele>86</ele>
        <time>2011-05-01T08:59:36Z</time>
      </trkpt>
      <trkpt lat="47.08466" lon="-1.12297">
        <ele>86</ele>
        <time>2011-05-01T08:59:43Z</time>
      </trkpt>
      <trkpt lat="47.08368" lon="-1.12273">
        <ele>89</ele>
        <time>2011-05-01T09:00:04Z</time>
      </trkpt>
      <trkpt lat="47.08274" lon="-1.12251">
        <ele>91</ele>
        <time>2011-05-01T09:00:26Z</time>
      </trkpt>
      <trkpt lat="47.08221" lon="-1.12212">
        <ele>94</ele>
        <time>2011-05-01T09:00:42Z</time>
      </trkpt>
      <trkpt lat="47.08156" lon="-1.12177">
        <ele>96</ele>
        <time>2011-05-01T09:01:01Z</time>
      </trkpt>
      <trkpt lat="47.08099" lon="-1.12175">
        <ele>98</ele>
        <time>2011-05-01T09:01:17Z</time>
      </trkpt>
      <trkpt lat="47.08053" lon="-1.12148">
        <ele>99</ele>
        <time>2011-05-01T09:01:32Z</time>
      </trkpt>
      <trkpt lat="47.08017" lon="-1.12084">
        <ele>99</ele>
        <time>2011-05-01T09:01:46Z</time>
      </trkpt>
      <trkpt lat="47.07937" lon="-1.11943">
        <ele>101</ele>
        <time>2011-05-01T09:02:14Z</time>
      </trkpt>
      <trkpt lat="47.07841" lon="-1.11804">
        <ele>103</ele>
        <time>2011-05-01T09:02:46Z</time>
      </trkpt>
      <trkpt lat="47.07824" lon="-1.11772">
        <ele>104</ele>
        <time>2011-05-01T09:02:52Z</time>
      </trkpt>
      <trkpt lat="47.07771" lon="-1.11627">
        <ele>103</ele>
        <time>2011-05-01T09:03:16Z</time>
      </trkpt>
      <trkpt lat="47.07755" lon="-1.11575">
        <ele>102</ele>
        <time>2011-05-01T09:03:23Z</time>
      </trkpt>
      <trkpt lat="47.07746" lon="-1.11524">
        <ele>102</ele>
        <time>2011-05-01T09:03:29Z</time>
      </trkpt>
      <trkpt lat="47.07747" lon="-1.11507">
        <ele>102</ele>
        <time>2011-05-01T09:03:31Z</time>
      </trkpt>
      <trkpt lat="47.07779" lon="-1.11382">
        <ele>98</ele>
        <time>2011-05-01T09:03:46Z</time>
      </trkpt>
      <trkpt lat="47.07789" lon="-1.11349">
        <ele>98</ele>
        <time>2011-05-01T09:03:50Z</time>
      </trkpt>
      <trkpt lat="47.07796" lon="-1.11308">
        <ele>98</ele>
        <time>2011-05-01T09:03:55Z</time>
      </trkpt>
      <trkpt lat="47.07762" lon="-1.11161">
        <ele>98</ele>
        <time>2011-05-01T09:04:14Z</time>
      </trkpt>
      <trkpt lat="47.07768" lon="-1.11003">
        <ele>97</ele>
        <time>2011-05-01T09:04:30Z</time>
      </trkpt>
      <trkpt lat="47.0777" lon="-1.10949">
        <ele>97</ele>
        <time>2011-05-01T09:04:35Z</time>
      </trkpt>
      <trkpt lat="47.07775" lon="-1.10814">
        <ele>100</ele>
        <time>2011-05-01T09:04:51Z</time>
      </trkpt>
      <trkpt lat="47.07775" lon="-1.1065">
        <ele>102</ele>
        <time>2011-05-01T09:05:12Z</time>
      </trkpt>
      <trkpt lat="47.07752" lon="-1.10487">
        <ele>103</ele>
        <time>2011-05-01T09:05:33Z</time>
      </trkpt>
      <trkpt lat="47.07729" lon="-1.10363">
        <ele>104</ele>
        <time>2011-05-01T09:05:49Z</time>
      </trkpt>
      <trkpt lat="47.07724" lon="-1.10251">
        <ele>105</ele>
        <time>2011-05-01T09:06:03Z</time>
      </trkpt>
      <trkpt lat="47.07723" lon="-1.10241">
        <ele>106</ele>
        <time>2011-05-01T09:06:10Z</time>
      </trkpt>
      <trkpt lat="47.07723" lon="-1.10241">
        <ele>106</ele>
        <time>2011-05-01T09:06:11Z</time>
      </trkpt>
      <trkpt lat="47.07724" lon="-1.10272">
        <ele>105</ele>
        <time>2011-05-01T09:06:24Z</time>
      </trkpt>
      <trkpt lat="47.07655" lon="-1.10304">
        <ele>106</ele>
        <time>2011-05-01T09:06:36Z</time>
      </trkpt>
      <trkpt lat="47.07628" lon="-1.10341">
        <ele>106</ele>
        <time>2011-05-01T09:06:51Z</time>
      </trkpt>
      <trkpt lat="47.07594" lon="-1.10355">
        <ele>107</ele>
        <time>2011-05-01T09:07:02Z</time>
      </trkpt>
      <trkpt lat="47.07522" lon="-1.10311">
        <ele>108</ele>
        <time>2011-05-01T09:07:22Z</time>
      </trkpt>
      <trkpt lat="47.07454" lon="-1.10261">
        <ele>108</ele>
        <time>2011-05-01T09:07:42Z</time>
      </trkpt>
      <trkpt lat="47.07397" lon="-1.10243">
        <ele>109</ele>
        <time>2011-05-01T09:07:58Z</time>
      </trkpt>
      <trkpt lat="47.07331" lon="-1.10232">
        <ele>111</ele>
        <time>2011-05-01T09:08:17Z</time>
      </trkpt>
      <trkpt lat="47.07296" lon="-1.10205">
        <ele>111</ele>
        <time>2011-05-01T09:08:28Z</time>
      </trkpt>
      <trkpt lat="47.07257" lon="-1.10166">
        <ele>112</ele>
        <time>2011-05-01T09:08:42Z</time>
      </trkpt>
      <trkpt lat="47.07217" lon="-1.10111">
        <ele>112</ele>
        <time>2011-05-01T09:08:59Z</time>
      </trkpt>
      <trkpt lat="47.07194" lon="-1.10074">
        <ele>113</ele>
        <time>2011-05-01T09:09:11Z</time>
      </trkpt>
      <trkpt lat="47.07177" lon="-1.10047">
        <ele>113</ele>
        <time>2011-05-01T09:09:41Z</time>
      </trkpt>
      <trkpt lat="47.07124" lon="-1.0997">
        <ele>112</ele>
        <time>2011-05-01T09:09:58Z</time>
      </trkpt>
      <trkpt lat="47.07074" lon="-1.09909">
        <ele>111</ele>
        <time>2011-05-01T09:10:12Z</time>
      </trkpt>
      <trkpt lat="47.07011" lon="-1.09843">
        <ele>111</ele>
        <time>2011-05-01T09:10:28Z</time>
      </trkpt>
      <trkpt lat="47.06955" lon="-1.09783">
        <ele>112</ele>
        <time>2011-05-01T09:10:45Z</time>
      </trkpt>
      <trkpt lat="47.06924" lon="-1.09759">
        <ele>113</ele>
        <time>2011-05-01T09:10:54Z</time>
      </trkpt>
      <trkpt lat="47.06879" lon="-1.09728">
        <ele>113</ele>
        <time>2011-05-01T09:11:05Z</time>
      </trkpt>
      <trkpt lat="47.06869" lon="-1.09719">
        <ele>112</ele>
        <time>2011-05-01T09:11:08Z</time>
      </trkpt>
      <trkpt lat="47.06875" lon="-1.09711">
        <ele>113</ele>
        <time>2011-05-01T09:11:13Z</time>
      </trkpt>
      <trkpt lat="47.06902" lon="-1.09617">
        <ele>113</ele>
        <time>2011-05-01T09:11:29Z</time>
      </trkpt>
      <trkpt lat="47.06943" lon="-1.09448">
        <ele>114</ele>
        <time>2011-05-01T09:11:55Z</time>
      </trkpt>
      <trkpt lat="47.06944" lon="-1.09441">
        <ele>114</ele>
        <time>2011-05-01T09:11:56Z</time>
      </trkpt>
      <trkpt lat="47.06967" lon="-1.09421">
        <ele>114</ele>
        <time>2011-05-01T09:12:04Z</time>
      </trkpt>
      <trkpt lat="47.07034" lon="-1.09414">
        <ele>116</ele>
        <time>2011-05-01T09:12:24Z</time>
      </trkpt>
      <trkpt lat="47.07087" lon="-1.09397">
        <ele>116</ele>
        <time>2011-05-01T09:12:43Z</time>
      </trkpt>
      <trkpt lat="47.07117" lon="-1.0934">
        <ele>115</ele>
        <time>2011-05-01T09:12:58Z</time>
      </trkpt>
      <trkpt lat="47.07161" lon="-1.09258">
        <ele>117</ele>
        <time>2011-05-01T09:13:19Z</time>
      </trkpt>
      <trkpt lat="47.07207" lon="-1.09178">
        <ele>118</ele>
        <time>2011-05-01T09:13:39Z</time>
      </trkpt>
      <trkpt lat="47.07254" lon="-1.09099">
        <ele>118</ele>
        <time>2011-05-01T09:13:59Z</time>
      </trkpt>
      <trkpt lat="47.07289" lon="-1.09036">
        <ele>119</ele>
        <time>2011-05-01T09:14:13Z</time>
      </trkpt>
      <trkpt lat="47.07358" lon="-1.08929">
        <ele>121</ele>
        <time>2011-05-01T09:14:36Z</time>
      </trkpt>
      <trkpt lat="47.07444" lon="-1.08817">
        <ele>122</ele>
        <time>2011-05-01T09:15:02Z</time>
      </trkpt>
      <trkpt lat="47.07535" lon="-1.08688">
        <ele>123</ele>
        <time>2011-05-01T09:15:27Z</time>
      </trkpt>
      <trkpt lat="47.07569" lon="-1.08684">
        <ele>124</ele>
        <time>2011-05-01T09:15:36Z</time>
      </trkpt>
      <trkpt lat="47.07572" lon="-1.08697">
        <ele>124</ele>
        <time>2011-05-01T09:15:42Z</time>
      </trkpt>
      <trkpt lat="47.07573" lon="-1.08683">
        <ele>124</ele>
        <time>2011-05-01T09:15:47Z</time>
      </trkpt>
      <trkpt lat="47.07622" lon="-1.08739">
        <ele>124</ele>
        <time>2011-05-01T09:15:58Z</time>
      </trkpt>
      <trkpt lat="47.07667" lon="-1.08759">
        <ele>124</ele>
        <time>2011-05-01T09:16:12Z</time>
      </trkpt>
      <trkpt lat="47.07712" lon="-1.0878">
        <ele>123</ele>
        <time>2011-05-01T09:16:28Z</time>
      </trkpt>
      <trkpt lat="47.07739" lon="-1.08793">
        <ele>123</ele>
        <time>2011-05-01T09:16:42Z</time>
      </trkpt>
      <trkpt lat="47.07772" lon="-1.08814">
        <ele>122</ele>
        <time>2011-05-01T09:16:57Z</time>
      </trkpt>
      <trkpt lat="47.07781" lon="-1.08823">
        <ele>122</ele>
        <time>2011-05-01T09:17:03Z</time>
      </trkpt>
      <trkpt lat="47.07791" lon="-1.08839">
        <ele>121</ele>
        <time>2011-05-01T09:17:09Z</time>
      </trkpt>
      <trkpt lat="47.07833" lon="-1.08872">
        <ele>119</ele>
        <time>2011-05-01T09:17:25Z</time>
      </trkpt>
      <trkpt lat="47.07858" lon="-1.08911">
        <ele>118</ele>
        <time>2011-05-01T09:17:37Z</time>
      </trkpt>
      <trkpt lat="47.07877" lon="-1.08973">
        <ele>118</ele>
        <time>2011-05-01T09:17:51Z</time>
      </trkpt>
      <trkpt lat="47.07885" lon="-1.0898">
        <ele>118</ele>
        <time>2011-05-01T09:17:55Z</time>
      </trkpt>
      <trkpt lat="47.07939" lon="-1.08982">
        <ele>116</ele>
        <time>2011-05-01T09:18:10Z</time>
      </trkpt>
      <trkpt lat="47.07975" lon="-1.08987">
        <ele>115</ele>
        <time>2011-05-01T09:18:19Z</time>
      </trkpt>
      <trkpt lat="47.07992" lon="-1.09002">
        <ele>115</ele>
        <time>2011-05-01T09:18:24Z</time>
      </trkpt>
      <trkpt lat="47.08012" lon="-1.09048">
        <ele>114</ele>
        <time>2011-05-01T09:18:34Z</time>
      </trkpt>
      <trkpt lat="47.0805" lon="-1.09027">
        <ele>114</ele>
        <time>2011-05-01T09:18:45Z</time>
      </trkpt>
      <trkpt lat="47.08063" lon="-1.09022">
        <ele>113</ele>
        <time>2011-05-01T09:18:48Z</time>
      </trkpt>
      <trkpt lat="47.08077" lon="-1.09014">
        <ele>113</ele>
        <time>2011-05-01T09:18:51Z</time>
      </trkpt>
      <trkpt lat="47.08101" lon="-1.09005">
        <ele>111</ele>
        <time>2011-05-01T09:18:56Z</time>
      </trkpt>
      <trkpt lat="47.08115" lon="-1.0899">
        <ele>109</ele>
        <time>2011-05-01T09:18:59Z</time>
      </trkpt>
      <trkpt lat="47.08126" lon="-1.08977">
        <ele>108</ele>
        <time>2011-05-01T09:19:02Z</time>
      </trkpt>
      <trkpt lat="47.08146" lon="-1.08973">
        <ele>107</ele>
        <time>2011-05-01T09:19:06Z</time>
      </trkpt>
      <trkpt lat="47.0817" lon="-1.08972">
        <ele>103</ele>
        <time>2011-05-01T09:19:10Z</time>
      </trkpt>
      <trkpt lat="47.08203" lon="-1.08977">
        <ele>101</ele>
        <time>2011-05-01T09:19:15Z</time>
      </trkpt>
      <trkpt lat="47.08217" lon="-1.08989">
        <ele>101</ele>
        <time>2011-05-01T09:19:17Z</time>
      </trkpt>
      <trkpt lat="47.08234" lon="-1.08996">
        <ele>99</ele>
        <time>2011-05-01T09:19:19Z</time>
      </trkpt>
      <trkpt lat="47.08254" lon="-1.08997">
        <ele>97</ele>
        <time>2011-05-01T09:19:21Z</time>
      </trkpt>
      <trkpt lat="47.08275" lon="-1.08992">
        <ele>95</ele>
        <time>2011-05-01T09:19:23Z</time>
      </trkpt>
      <trkpt lat="47.08327" lon="-1.08967">
        <ele>93</ele>
        <time>2011-05-01T09:19:28Z</time>
      </trkpt>
      <trkpt lat="47.08445" lon="-1.08913">
        <ele>88</ele>
        <time>2011-05-01T09:19:42Z</time>
      </trkpt>
      <trkpt lat="47.08525" lon="-1.08886">
        <ele>86</ele>
        <time>2011-05-01T09:19:55Z</time>
      </trkpt>
      <trkpt lat="47.08619" lon="-1.08754">
        <ele>84</ele>
        <time>2011-05-01T09:20:11Z</time>
      </trkpt>
      <trkpt lat="47.08634" lon="-1.08738">
        <ele>83</ele>
        <time>2011-05-01T09:20:14Z</time>
      </trkpt>
      <trkpt lat="47.08616" lon="-1.08726">
        <ele>83</ele>
        <time>2011-05-01T09:20:21Z</time>
      </trkpt>
      <trkpt lat="47.0861" lon="-1.08713">
        <ele>83</ele>
        <time>2011-05-01T09:20:23Z</time>
      </trkpt>
      <trkpt lat="47.0855" lon="-1.08587">
        <ele>83</ele>
        <time>2011-05-01T09:20:41Z</time>
      </trkpt>
      <trkpt lat="47.08544" lon="-1.08574">
        <ele>83</ele>
        <time>2011-05-01T09:20:43Z</time>
      </trkpt>
      <trkpt lat="47.08534" lon="-1.08552">
        <ele>83</ele>
        <time>2011-05-01T09:20:48Z</time>
      </trkpt>
      <trkpt lat="47.08529" lon="-1.08542">
        <ele>83</ele>
        <time>2011-05-01T09:20:51Z</time>
      </trkpt>
      <trkpt lat="47.08601" lon="-1.08456">
        <ele>83</ele>
        <time>2011-05-01T09:20:55Z</time>
      </trkpt>
      <trkpt lat="47.08609" lon="-1.08446">
        <ele>83</ele>
        <time>2011-05-01T09:20:57Z</time>
      </trkpt>
      <trkpt lat="47.08633" lon="-1.08428">
        <ele>83</ele>
        <time>2011-05-01T09:21:02Z</time>
      </trkpt>
      <trkpt lat="47.08728" lon="-1.0839">
        <ele>80</ele>
        <time>2011-05-01T09:21:19Z</time>
      </trkpt>
      <trkpt lat="47.08744" lon="-1.08384">
        <ele>80</ele>
        <time>2011-05-01T09:21:22Z</time>
      </trkpt>
      <trkpt lat="47.08763" lon="-1.08388">
        <ele>78</ele>
        <time>2011-05-01T09:21:26Z</time>
      </trkpt>
      <trkpt lat="47.08779" lon="-1.08401">
        <ele>78</ele>
        <time>2011-05-01T09:21:29Z</time>
      </trkpt>
      <trkpt lat="47.08785" lon="-1.08406">
        <ele>78</ele>
        <time>2011-05-01T09:21:30Z</time>
      </trkpt>
      <trkpt lat="47.0883" lon="-1.08435">
        <ele>77</ele>
        <time>2011-05-01T09:21:37Z</time>
      </trkpt>
      <trkpt lat="47.08904" lon="-1.08552">
        <ele>76</ele>
        <time>2011-05-01T09:21:53Z</time>
      </trkpt>
      <trkpt lat="47.08916" lon="-1.08605">
        <ele>74</ele>
        <time>2011-05-01T09:21:59Z</time>
      </trkpt>
      <trkpt lat="47.08926" lon="-1.08631">
        <ele>71</ele>
        <time>2011-05-01T09:22:02Z</time>
      </trkpt>
      <trkpt lat="47.08948" lon="-1.08647">
        <ele>71</ele>
        <time>2011-05-01T09:22:07Z</time>
      </trkpt>
      <trkpt lat="47.0897" lon="-1.08634">
        <ele>71</ele>
        <time>2011-05-01T09:22:11Z</time>
      </trkpt>
      <trkpt lat="47.08976" lon="-1.0863">
        <ele>71</ele>
        <time>2011-05-01T09:22:12Z</time>
      </trkpt>
      <trkpt lat="47.08993" lon="-1.08568">
        <ele>74</ele>
        <time>2011-05-01T09:22:20Z</time>
      </trkpt>
      <trkpt lat="47.08991" lon="-1.0856">
        <ele>75</ele>
        <time>2011-05-01T09:22:21Z</time>
      </trkpt>
      <trkpt lat="47.08962" lon="-1.08477">
        <ele>77</ele>
        <time>2011-05-01T09:22:34Z</time>
      </trkpt>
      <trkpt lat="47.08936" lon="-1.08413">
        <ele>77</ele>
        <time>2011-05-01T09:22:46Z</time>
      </trkpt>
      <trkpt lat="47.08929" lon="-1.08396">
        <ele>77</ele>
        <time>2011-05-01T09:22:49Z</time>
      </trkpt>
      <trkpt lat="47.08891" lon="-1.08289">
        <ele>79</ele>
        <time>2011-05-01T09:23:05Z</time>
      </trkpt>
      <trkpt lat="47.08869" lon="-1.08182">
        <ele>81</ele>
        <time>2011-05-01T09:23:22Z</time>
      </trkpt>
      <trkpt lat="47.08879" lon="-1.08128">
        <ele>83</ele>
        <time>2011-05-01T09:23:31Z</time>
      </trkpt>
      <trkpt lat="47.08886" lon="-1.08098">
        <ele>83</ele>
        <time>2011-05-01T09:23:36Z</time>
      </trkpt>
      <trkpt lat="47.08891" lon="-1.08081">
        <ele>84</ele>
        <time>2011-05-01T09:23:39Z</time>
      </trkpt>
      <trkpt lat="47.08899" lon="-1.08054">
        <ele>84</ele>
        <time>2011-05-01T09:23:44Z</time>
      </trkpt>
      <trkpt lat="47.08919" lon="-1.07994">
        <ele>80</ele>
        <time>2011-05-01T09:23:54Z</time>
      </trkpt>
      <trkpt lat="47.08926" lon="-1.07967">
        <ele>77</ele>
        <time>2011-05-01T09:23:58Z</time>
      </trkpt>
      <trkpt lat="47.08924" lon="-1.07946">
        <ele>76</ele>
        <time>2011-05-01T09:24:01Z</time>
      </trkpt>
      <trkpt lat="47.08918" lon="-1.07912">
        <ele>76</ele>
        <time>2011-05-01T09:24:05Z</time>
      </trkpt>
      <trkpt lat="47.08916" lon="-1.0786">
        <ele>77</ele>
        <time>2011-05-01T09:24:11Z</time>
      </trkpt>
      <trkpt lat="47.08918" lon="-1.07833">
        <ele>74</ele>
        <time>2011-05-01T09:24:13Z</time>
      </trkpt>
      <trkpt lat="47.08923" lon="-1.07824">
        <ele>74</ele>
        <time>2011-05-01T09:24:15Z</time>
      </trkpt>
      <trkpt lat="47.08929" lon="-1.07815">
        <ele>74</ele>
        <time>2011-05-01T09:24:17Z</time>
      </trkpt>
      <trkpt lat="47.08932" lon="-1.07791">
        <ele>75</ele>
        <time>2011-05-01T09:24:22Z</time>
      </trkpt>
      <trkpt lat="47.08929" lon="-1.07747">
        <ele>76</ele>
        <time>2011-05-01T09:24:35Z</time>
      </trkpt>
      <trkpt lat="47.0893" lon="-1.0772">
        <ele>77</ele>
        <time>2011-05-01T09:24:44Z</time>
      </trkpt>
      <trkpt lat="47.08929" lon="-1.07715">
        <ele>77</ele>
        <time>2011-05-01T09:24:46Z</time>
      </trkpt>
      <trkpt lat="47.08931" lon="-1.07691">
        <ele>78</ele>
        <time>2011-05-01T09:24:55Z</time>
      </trkpt>
      <trkpt lat="47.08938" lon="-1.07651">
        <ele>80</ele>
        <time>2011-05-01T09:25:09Z</time>
      </trkpt>
      <trkpt lat="47.08948" lon="-1.0758">
        <ele>82</ele>
        <time>2011-05-01T09:25:27Z</time>
      </trkpt>
      <trkpt lat="47.08956" lon="-1.07474">
        <ele>84</ele>
        <time>2011-05-01T09:25:47Z</time>
      </trkpt>
      <trkpt lat="47.08953" lon="-1.07404">
        <ele>85</ele>
        <time>2011-05-01T09:26:03Z</time>
      </trkpt>
      <trkpt lat="47.08953" lon="-1.07326">
        <ele>85</ele>
        <time>2011-05-01T09:26:18Z</time>
      </trkpt>
      <trkpt lat="47.08956" lon="-1.07251">
        <ele>86</ele>
        <time>2011-05-01T09:26:35Z</time>
      </trkpt>
      <trkpt lat="47.08951" lon="-1.07159">
        <ele>87</ele>
        <time>2011-05-01T09:26:51Z</time>
      </trkpt>
      <trkpt lat="47.08959" lon="-1.07027">
        <ele>88</ele>
        <time>2011-05-01T09:27:13Z</time>
      </trkpt>
      <trkpt lat="47.08953" lon="-1.06986">
        <ele>88</ele>
        <time>2011-05-01T09:27:18Z</time>
      </trkpt>
      <trkpt lat="47.08949" lon="-1.06896">
        <ele>89</ele>
        <time>2011-05-01T09:27:32Z</time>
      </trkpt>
      <trkpt lat="47.08951" lon="-1.06864">
        <ele>89</ele>
        <time>2011-05-01T09:27:38Z</time>
      </trkpt>
      <trkpt lat="47.0902" lon="-1.06762">
        <ele>90</ele>
        <time>2011-05-01T09:27:57Z</time>
      </trkpt>
      <trkpt lat="47.0908" lon="-1.06684">
        <ele>89</ele>
        <time>2011-05-01T09:28:14Z</time>
      </trkpt>
      <trkpt lat="47.09135" lon="-1.06624">
        <ele>88</ele>
        <time>2011-05-01T09:28:29Z</time>
      </trkpt>
      <trkpt lat="47.09131" lon="-1.06609">
        <ele>88</ele>
        <time>2011-05-01T09:28:33Z</time>
      </trkpt>
      <trkpt lat="47.09122" lon="-1.06577">
        <ele>88</ele>
        <time>2011-05-01T09:28:39Z</time>
      </trkpt>
      <trkpt lat="47.09135" lon="-1.06552">
        <ele>88</ele>
        <time>2011-05-01T09:28:44Z</time>
      </trkpt>
      <trkpt lat="47.09143" lon="-1.06547">
        <ele>88</ele>
        <time>2011-05-01T09:28:46Z</time>
      </trkpt>
      <trkpt lat="47.09167" lon="-1.06527">
        <ele>87</ele>
        <time>2011-05-01T09:28:52Z</time>
      </trkpt>
      <trkpt lat="47.09167" lon="-1.06491">
        <ele>87</ele>
        <time>2011-05-01T09:29:00Z</time>
      </trkpt>
      <trkpt lat="47.09161" lon="-1.06482">
        <ele>88</ele>
        <time>2011-05-01T09:29:02Z</time>
      </trkpt>
      <trkpt lat="47.09167" lon="-1.06458">
        <ele>88</ele>
        <time>2011-05-01T09:29:06Z</time>
      </trkpt>
      <trkpt lat="47.09215" lon="-1.06392">
        <ele>84</ele>
        <time>2011-05-01T09:29:19Z</time>
      </trkpt>
      <trkpt lat="47.09227" lon="-1.06377">
        <ele>84</ele>
        <time>2011-05-01T09:29:22Z</time>
      </trkpt>
      <trkpt lat="47.09259" lon="-1.06334">
        <ele>82</ele>
        <time>2011-05-01T09:29:31Z</time>
      </trkpt>
      <trkpt lat="47.09268" lon="-1.06322">
        <ele>81</ele>
        <time>2011-05-01T09:29:40Z</time>
      </trkpt>
      <trkpt lat="47.09277" lon="-1.0631">
        <ele>80</ele>
        <time>2011-05-01T09:29:47Z</time>
      </trkpt>
      <trkpt lat="47.09243" lon="-1.06247">
        <ele>81</ele>
        <time>2011-05-01T09:30:02Z</time>
      </trkpt>
      <trkpt lat="47.09234" lon="-1.06233">
        <ele>81</ele>
        <time>2011-05-01T09:30:06Z</time>
      </trkpt>
      <trkpt lat="47.09242" lon="-1.06201">
        <ele>80</ele>
        <time>2011-05-01T09:30:13Z</time>
      </trkpt>
      <trkpt lat="47.09249" lon="-1.06184">
        <ele>80</ele>
        <time>2011-05-01T09:30:27Z</time>
      </trkpt>
      <trkpt lat="47.09254" lon="-1.06178">
        <ele>79</ele>
        <time>2011-05-01T09:30:44Z</time>
      </trkpt>
      <trkpt lat="47.09254" lon="-1.06179">
        <ele>79</ele>
        <time>2011-05-01T09:31:41Z</time>
      </trkpt>
      <trkpt lat="47.09255" lon="-1.06177">
        <ele>79</ele>
        <time>2011-05-01T09:32:55Z</time>
      </trkpt>
      <trkpt lat="47.09257" lon="-1.06175">
        <ele>79</ele>
        <time>2011-05-01T09:34:14Z</time>
      </trkpt>
      <trkpt lat="47.09257" lon="-1.06174">
        <ele>79</ele>
        <time>2011-05-01T09:36:26Z</time>
      </trkpt>
      <trkpt lat="47.09257" lon="-1.06174">
        <ele>79</ele>
        <time>2011-05-01T09:36:35Z</time>
      </trkpt>
    </trkseg>
  </trk>
</gpx>